Wetterdaten: Sonntag, 12.10.2025
Datum Zeit Temp. I. Temp. A. Feuchte I. Feuchte A. Luftdruck Regen Wind Richtung Richtung Sonnenschein Solar Taupunkt Windchill Windböen
12.10.2025 00:00 21,1 °C 13,1 °C 64 % 84 % 1030,8 hPa 0,0 l/m² 0,0 km/h (0 Bft) W-SW 252 ° 0 min 0 W/m² 10,5 °C 13,1 °C 0,0 km/h (0 Bft)
12.10.2025 00:01 21,1 °C 13,1 °C 64 % 84 % 1030,8 hPa 0,0 l/m² 0,3 km/h (0 Bft) W-SW 252 ° 0 min 0 W/m² 10,5 °C 13,1 °C 1,6 km/h (1 Bft)
12.10.2025 00:02 21,1 °C 13,1 °C 64 % 84 % 1030,8 hPa 0,0 l/m² 0,1 km/h (0 Bft) W-SW 252 ° 0 min 0 W/m² 10,5 °C 13,1 °C 1,6 km/h (1 Bft)
12.10.2025 00:03 21,1 °C 13,1 °C 64 % 84 % 1030,8 hPa 0,0 l/m² 0,0 km/h (0 Bft) W-SW 252 ° 0 min 0 W/m² 10,5 °C 13,1 °C 0,0 km/h (0 Bft)
12.10.2025 00:04 21,1 °C 13,1 °C 64 % 84 % 1030,8 hPa 0,0 l/m² 0,6 km/h (0 Bft) W-SW 252 ° 0 min 0 W/m² 10,5 °C 13,1 °C 3,2 km/h (1 Bft)
12.10.2025 00:06 21,1 °C 13,1 °C 64 % 84 % 1030,7 hPa 0,0 l/m² 0,7 km/h (0 Bft) W-SW 252 ° 0 min 0 W/m² 10,5 °C 13,1 °C 3,2 km/h (1 Bft)
12.10.2025 00:08 21,1 °C 13,1 °C 64 % 84 % 1030,7 hPa 0,0 l/m² 0,9 km/h (0 Bft) W-SW 252 ° 0 min 0 W/m² 10,5 °C 13,1 °C 3,2 km/h (1 Bft)
12.10.2025 00:10 21,1 °C 13,1 °C 64 % 84 % 1030,7 hPa 0,0 l/m² 1,1 km/h (1 Bft) W-SW 252 ° 0 min 0 W/m² 10,5 °C 13,1 °C 3,2 km/h (1 Bft)
12.10.2025 00:11 21,1 °C 13,0 °C 64 % 84 % 1030,7 hPa 0,0 l/m² 0,6 km/h (0 Bft) W-SW 252 ° 0 min 0 W/m² 10,4 °C 13,0 °C 1,6 km/h (1 Bft)
12.10.2025 00:12 21,1 °C 13,1 °C 64 % 84 % 1030,7 hPa 0,0 l/m² 1,5 km/h (1 Bft) W-SW 252 ° 0 min 0 W/m² 10,5 °C 13,1 °C 3,2 km/h (1 Bft)
12.10.2025 00:13 21,1 °C 13,1 °C 64 % 84 % 1030,7 hPa 0,0 l/m² 0,6 km/h (0 Bft) W-SW 252 ° 0 min 0 W/m² 10,5 °C 13,1 °C 1,6 km/h (1 Bft)
12.10.2025 00:15 21,1 °C 13,0 °C 64 % 84 % 1030,7 hPa 0,0 l/m² 0,0 km/h (0 Bft) W-SW 252 ° 0 min 0 W/m² 10,4 °C 13,0 °C 0,0 km/h (0 Bft)
12.10.2025 00:17 21,1 °C 13,1 °C 64 % 84 % 1030,7 hPa 0,0 l/m² 0,8 km/h (0 Bft) W-SW 252 ° 0 min 0 W/m² 10,5 °C 13,1 °C 3,2 km/h (1 Bft)
12.10.2025 00:19 21,1 °C 13,0 °C 64 % 84 % 1030,6 hPa 0,0 l/m² 0,8 km/h (0 Bft) W-SW 252 ° 0 min 0 W/m² 10,4 °C 13,0 °C 4,8 km/h (1 Bft)
12.10.2025 00:20 21,1 °C 13,0 °C 64 % 84 % 1030,6 hPa 0,0 l/m² 0,4 km/h (0 Bft) W-SW 252 ° 0 min 0 W/m² 10,4 °C 13,0 °C 3,2 km/h (1 Bft)
12.10.2025 00:22 21,1 °C 13,0 °C 64 % 84 % 1030,6 hPa 0,0 l/m² 1,5 km/h (1 Bft) W-SW 252 ° 0 min 0 W/m² 10,4 °C 13,0 °C 4,8 km/h (1 Bft)
12.10.2025 00:23 21,1 °C 13,0 °C 64 % 84 % 1030,6 hPa 0,0 l/m² 1,9 km/h (1 Bft) W-SW 252 ° 0 min 0 W/m² 10,4 °C 13,0 °C 4,8 km/h (1 Bft)
12.10.2025 00:25 21,1 °C 13,0 °C 64 % 84 % 1030,6 hPa 0,0 l/m² 0,7 km/h (0 Bft) W-SW 252 ° 0 min 0 W/m² 10,4 °C 13,0 °C 3,2 km/h (1 Bft)
12.10.2025 00:27 21,1 °C 13,0 °C 64 % 84 % 1030,6 hPa 0,0 l/m² 2,2 km/h (1 Bft) W 265 ° 0 min 0 W/m² 10,4 °C 13,0 °C 6,4 km/h (2 Bft)
12.10.2025 00:29 21,1 °C 13,0 °C 64 % 84 % 1030,6 hPa 0,0 l/m² 2,4 km/h (1 Bft) W-SW 252 ° 0 min 0 W/m² 10,4 °C 13,0 °C 6,4 km/h (2 Bft)
12.10.2025 00:30 21,1 °C 13,0 °C 64 % 84 % 1030,7 hPa 0,0 l/m² 2,7 km/h (1 Bft) W-SW 248 ° 0 min 0 W/m² 10,4 °C 13,0 °C 6,4 km/h (2 Bft)
12.10.2025 00:32 21,1 °C 13,0 °C 64 % 84 % 1030,6 hPa 0,0 l/m² 3,6 km/h (1 Bft) W 268 ° 0 min 0 W/m² 10,4 °C 13,0 °C 6,4 km/h (2 Bft)
12.10.2025 00:33 21,1 °C 13,0 °C 64 % 84 % 1030,6 hPa 0,0 l/m² 4,7 km/h (1 Bft) W-SW 250 ° 0 min 0 W/m² 10,4 °C 13,0 °C 6,4 km/h (2 Bft)
12.10.2025 00:35 21,1 °C 13,0 °C 64 % 84 % 1030,6 hPa 0,0 l/m² 3,4 km/h (1 Bft) W-SW 250 ° 0 min 0 W/m² 10,4 °C 13,0 °C 6,4 km/h (2 Bft)
12.10.2025 00:37 21,1 °C 13,0 °C 64 % 84 % 1030,6 hPa 0,0 l/m² 4,7 km/h (1 Bft) W-SW 256 ° 0 min 0 W/m² 10,4 °C 13,0 °C 8,0 km/h (2 Bft)
12.10.2025 00:39 21,1 °C 13,0 °C 64 % 84 % 1030,6 hPa 0,0 l/m² 4,4 km/h (1 Bft) W 259 ° 0 min 0 W/m² 10,4 °C 13,0 °C 6,4 km/h (2 Bft)
12.10.2025 00:41 21,1 °C 13,0 °C 64 % 84 % 1030,5 hPa 0,0 l/m² 4,4 km/h (1 Bft) W-SW 244 ° 0 min 0 W/m² 10,4 °C 13,0 °C 6,4 km/h (2 Bft)
12.10.2025 00:42 21,1 °C 13,0 °C 64 % 85 % 1030,6 hPa 0,0 l/m² 3,6 km/h (1 Bft) W-SW 252 ° 0 min 0 W/m² 10,5 °C 13,0 °C 6,4 km/h (2 Bft)
12.10.2025 00:43 21,1 °C 13,0 °C 64 % 85 % 1030,6 hPa 0,0 l/m² 4,2 km/h (1 Bft) W-SW 247 ° 0 min 0 W/m² 10,5 °C 13,0 °C 6,4 km/h (2 Bft)
12.10.2025 00:46 21,1 °C 13,0 °C 64 % 85 % 1030,5 hPa 0,0 l/m² 3,7 km/h (1 Bft) W-SW 251 ° 0 min 0 W/m² 10,5 °C 13,0 °C 6,4 km/h (2 Bft)
12.10.2025 00:47 21,1 °C 13,0 °C 64 % 85 % 1030,6 hPa 0,0 l/m² 2,3 km/h (1 Bft) W-SW 242 ° 0 min 0 W/m² 10,5 °C 13,0 °C 4,8 km/h (1 Bft)
12.10.2025 00:49 21,1 °C 13,0 °C 64 % 85 % 1030,6 hPa 0,0 l/m² 2,3 km/h (1 Bft) W-SW 250 ° 0 min 0 W/m² 10,5 °C 13,0 °C 4,8 km/h (1 Bft)
12.10.2025 00:50 21,1 °C 13,0 °C 64 % 85 % 1030,6 hPa 0,0 l/m² 0,8 km/h (0 Bft) W 259 ° 0 min 0 W/m² 10,5 °C 13,0 °C 3,2 km/h (1 Bft)
12.10.2025 00:52 21,1 °C 13,0 °C 64 % 85 % 1030,6 hPa 0,0 l/m² 3,4 km/h (1 Bft) W-SW 258 ° 0 min 0 W/m² 10,5 °C 13,0 °C 6,4 km/h (2 Bft)
12.10.2025 00:53 21,1 °C 13,0 °C 64 % 85 % 1030,5 hPa 0,0 l/m² 3,2 km/h (1 Bft) W 262 ° 0 min 0 W/m² 10,5 °C 13,0 °C 4,8 km/h (1 Bft)
12.10.2025 00:55 21,1 °C 13,0 °C 64 % 85 % 1030,6 hPa 0,0 l/m² 2,8 km/h (1 Bft) W 263 ° 0 min 0 W/m² 10,5 °C 13,0 °C 4,8 km/h (1 Bft)
12.10.2025 00:57 21,1 °C 13,0 °C 64 % 85 % 1030,6 hPa 0,0 l/m² 1,8 km/h (1 Bft) W-SW 254 ° 0 min 0 W/m² 10,5 °C 13,0 °C 4,8 km/h (1 Bft)
12.10.2025 00:59 21,1 °C 13,0 °C 64 % 85 % 1030,5 hPa 0,0 l/m² 1,7 km/h (1 Bft) W-SW 257 ° 0 min 0 W/m² 10,5 °C 13,0 °C 4,8 km/h (1 Bft)
12.10.2025 01:00 21,1 °C 13,0 °C 64 % 85 % 1030,5 hPa 0,0 l/m² 1,1 km/h (1 Bft) W-SW 258 ° 0 min 0 W/m² 10,5 °C 13,0 °C 3,2 km/h (1 Bft)
12.10.2025 01:02 21,1 °C 13,0 °C 64 % 85 % 1030,5 hPa 0,0 l/m² 0,9 km/h (0 Bft) W-SW 257 ° 0 min 0 W/m² 10,5 °C 13,0 °C 4,8 km/h (1 Bft)
12.10.2025 01:04 21,1 °C 13,0 °C 64 % 85 % 1030,5 hPa 0,0 l/m² 0,3 km/h (0 Bft) W 266 ° 0 min 0 W/m² 10,5 °C 13,0 °C 3,2 km/h (1 Bft)
12.10.2025 01:05 21,1 °C 13,0 °C 64 % 85 % 1030,5 hPa 0,0 l/m² 1,0 km/h (0 Bft) W 269 ° 0 min 0 W/m² 10,5 °C 13,0 °C 3,2 km/h (1 Bft)
12.10.2025 01:07 21,1 °C 13,0 °C 64 % 85 % 1030,5 hPa 0,0 l/m² 0,8 km/h (0 Bft) W 261 ° 0 min 0 W/m² 10,5 °C 13,0 °C 3,2 km/h (1 Bft)
12.10.2025 01:09 21,1 °C 13,0 °C 64 % 85 % 1030,5 hPa 0,0 l/m² 3,1 km/h (1 Bft) W-SW 252 ° 0 min 0 W/m² 10,5 °C 13,0 °C 4,8 km/h (1 Bft)
12.10.2025 01:10 21,1 °C 13,0 °C 64 % 85 % 1030,5 hPa 0,0 l/m² 3,3 km/h (1 Bft) W 261 ° 0 min 0 W/m² 10,5 °C 13,0 °C 6,4 km/h (2 Bft)
12.10.2025 01:12 21,1 °C 13,0 °C 64 % 85 % 1030,5 hPa 0,0 l/m² 1,5 km/h (1 Bft) W-SW 253 ° 0 min 0 W/m² 10,5 °C 13,0 °C 6,4 km/h (2 Bft)
12.10.2025 01:13 21,1 °C 13,0 °C 64 % 85 % 1030,6 hPa 0,0 l/m² 0,8 km/h (0 Bft) W-SW 254 ° 0 min 0 W/m² 10,5 °C 13,0 °C 3,2 km/h (1 Bft)
12.10.2025 01:15 21,1 °C 13,0 °C 64 % 85 % 1030,5 hPa 0,0 l/m² 1,4 km/h (1 Bft) W-SW 254 ° 0 min 0 W/m² 10,5 °C 13,0 °C 3,2 km/h (1 Bft)
12.10.2025 01:17 21,1 °C 13,0 °C 64 % 85 % 1030,6 hPa 0,0 l/m² 1,2 km/h (1 Bft) W-SW 252 ° 0 min 0 W/m² 10,5 °C 13,0 °C 4,8 km/h (1 Bft)
12.10.2025 01:19 21,1 °C 13,0 °C 64 % 85 % 1030,5 hPa 0,0 l/m² 0,7 km/h (0 Bft) W-SW 253 ° 0 min 0 W/m² 10,5 °C 13,0 °C 3,2 km/h (1 Bft)
12.10.2025 01:20 21,1 °C 13,0 °C 64 % 85 % 1030,6 hPa 0,0 l/m² 0,7 km/h (0 Bft) W-SW 253 ° 0 min 0 W/m² 10,5 °C 13,0 °C 1,6 km/h (1 Bft)
12.10.2025 01:22 21,1 °C 13,0 °C 64 % 85 % 1030,5 hPa 0,0 l/m² 0,6 km/h (0 Bft) W 262 ° 0 min 0 W/m² 10,5 °C 13,0 °C 3,2 km/h (1 Bft)
12.10.2025 01:23 21,1 °C 13,0 °C 64 % 85 % 1030,5 hPa 0,0 l/m² 1,9 km/h (1 Bft) W-SW 254 ° 0 min 0 W/m² 10,5 °C 13,0 °C 3,2 km/h (1 Bft)
12.10.2025 01:25 21,1 °C 13,0 °C 64 % 85 % 1030,6 hPa 0,0 l/m² 1,2 km/h (1 Bft) W 263 ° 0 min 0 W/m² 10,5 °C 13,0 °C 3,2 km/h (1 Bft)
12.10.2025 01:26 21,1 °C 13,0 °C 64 % 85 % 1030,5 hPa 0,0 l/m² 0,8 km/h (0 Bft) W 272 ° 0 min 0 W/m² 10,5 °C 13,0 °C 3,2 km/h (1 Bft)
12.10.2025 01:27 21,1 °C 13,0 °C 64 % 85 % 1030,5 hPa 0,0 l/m² 1,0 km/h (0 Bft) W 270 ° 0 min 0 W/m² 10,5 °C 13,0 °C 1,6 km/h (1 Bft)
12.10.2025 01:29 21,1 °C 13,0 °C 64 % 85 % 1030,5 hPa 0,0 l/m² 0,7 km/h (0 Bft) W 272 ° 0 min 0 W/m² 10,5 °C 13,0 °C 3,2 km/h (1 Bft)
12.10.2025 01:30 21,1 °C 13,0 °C 64 % 85 % 1030,5 hPa 0,0 l/m² 1,0 km/h (0 Bft) W 271 ° 0 min 0 W/m² 10,5 °C 13,0 °C 3,2 km/h (1 Bft)
12.10.2025 01:32 21,1 °C 13,0 °C 64 % 85 % 1030,5 hPa 0,0 l/m² 1,4 km/h (1 Bft) W 277 ° 0 min 0 W/m² 10,5 °C 13,0 °C 4,8 km/h (1 Bft)
12.10.2025 01:33 21,1 °C 13,0 °C 64 % 85 % 1030,5 hPa 0,0 l/m² 1,2 km/h (1 Bft) W 279 ° 0 min 0 W/m² 10,5 °C 13,0 °C 3,2 km/h (1 Bft)
12.10.2025 01:35 21,1 °C 13,0 °C 64 % 85 % 1030,5 hPa 0,0 l/m² 1,1 km/h (1 Bft) W 279 ° 0 min 0 W/m² 10,5 °C 13,0 °C 3,2 km/h (1 Bft)
12.10.2025 01:37 21,1 °C 13,0 °C 64 % 85 % 1030,5 hPa 0,0 l/m² 1,5 km/h (1 Bft) W-NW 283 ° 0 min 0 W/m² 10,5 °C 13,0 °C 4,8 km/h (1 Bft)
12.10.2025 01:39 21,1 °C 13,0 °C 64 % 85 % 1030,4 hPa 0,0 l/m² 0,6 km/h (0 Bft) W-NW 283 ° 0 min 0 W/m² 10,5 °C 13,0 °C 3,2 km/h (1 Bft)
12.10.2025 01:40 21,1 °C 13,0 °C 64 % 85 % 1030,4 hPa 0,0 l/m² 0,9 km/h (0 Bft) W-NW 282 ° 0 min 0 W/m² 10,5 °C 13,0 °C 3,2 km/h (1 Bft)
12.10.2025 01:42 21,1 °C 13,1 °C 64 % 85 % 1030,4 hPa 0,0 l/m² 1,0 km/h (0 Bft) W-NW 284 ° 0 min 0 W/m² 10,6 °C 13,1 °C 4,8 km/h (1 Bft)
12.10.2025 01:43 21,1 °C 13,0 °C 64 % 85 % 1030,4 hPa 0,0 l/m² 1,9 km/h (1 Bft) W-NW 285 ° 0 min 0 W/m² 10,5 °C 13,0 °C 3,2 km/h (1 Bft)
12.10.2025 01:45 21,1 °C 13,0 °C 64 % 85 % 1030,3 hPa 0,0 l/m² 0,4 km/h (0 Bft) W-NW 285 ° 0 min 0 W/m² 10,5 °C 13,0 °C 3,2 km/h (1 Bft)
12.10.2025 01:47 21,1 °C 13,0 °C 64 % 85 % 1030,4 hPa 0,0 l/m² 0,6 km/h (0 Bft) W 281 ° 0 min 0 W/m² 10,5 °C 13,0 °C 3,2 km/h (1 Bft)
12.10.2025 01:49 21,1 °C 13,0 °C 64 % 85 % 1030,4 hPa 0,0 l/m² 1,1 km/h (1 Bft) W 281 ° 0 min 0 W/m² 10,5 °C 13,0 °C 3,2 km/h (1 Bft)
12.10.2025 01:50 21,1 °C 13,0 °C 64 % 85 % 1030,4 hPa 0,0 l/m² 0,3 km/h (0 Bft) W 281 ° 0 min 0 W/m² 10,5 °C 13,0 °C 1,6 km/h (1 Bft)
12.10.2025 01:52 21,1 °C 13,0 °C 64 % 85 % 1030,4 hPa 0,0 l/m² 0,5 km/h (0 Bft) W 281 ° 0 min 0 W/m² 10,5 °C 13,0 °C 3,2 km/h (1 Bft)
12.10.2025 01:53 21,1 °C 13,0 °C 64 % 85 % 1030,4 hPa 0,0 l/m² 0,8 km/h (0 Bft) W-NW 285 ° 0 min 0 W/m² 10,5 °C 13,0 °C 3,2 km/h (1 Bft)
12.10.2025 01:55 21,1 °C 13,0 °C 64 % 85 % 1030,2 hPa 0,0 l/m² 1,5 km/h (1 Bft) W-NW 285 ° 0 min 0 W/m² 10,5 °C 13,0 °C 3,2 km/h (1 Bft)
12.10.2025 01:57 21,1 °C 13,0 °C 64 % 85 % 1030,3 hPa 0,0 l/m² 0,9 km/h (0 Bft) W-NW 285 ° 0 min 0 W/m² 10,5 °C 13,0 °C 3,2 km/h (1 Bft)
12.10.2025 01:59 21,1 °C 13,0 °C 64 % 85 % 1030,3 hPa 0,0 l/m² 0,0 km/h (0 Bft) W-NW 285 ° 0 min 0 W/m² 10,5 °C 13,0 °C 0,0 km/h (0 Bft)
12.10.2025 02:00 21,1 °C 13,0 °C 64 % 85 % 1030,2 hPa 0,0 l/m² 0,1 km/h (0 Bft) W-NW 285 ° 0 min 0 W/m² 10,5 °C 13,0 °C 1,6 km/h (1 Bft)
12.10.2025 02:02 21,1 °C 13,0 °C 64 % 85 % 1030,2 hPa 0,0 l/m² 0,2 km/h (0 Bft) W-NW 284 ° 0 min 0 W/m² 10,5 °C 13,0 °C 1,6 km/h (1 Bft)
12.10.2025 02:03 21,1 °C 13,0 °C 64 % 85 % 1030,1 hPa 0,0 l/m² 1,3 km/h (1 Bft) W 261 ° 0 min 0 W/m² 10,5 °C 13,0 °C 3,2 km/h (1 Bft)
12.10.2025 02:05 21,1 °C 13,0 °C 64 % 85 % 1030,1 hPa 0,0 l/m² 1,0 km/h (0 Bft) W-SW 251 ° 0 min 0 W/m² 10,5 °C 13,0 °C 4,8 km/h (1 Bft)
12.10.2025 02:07 21,1 °C 13,0 °C 64 % 85 % 1030,1 hPa 0,0 l/m² 1,6 km/h (1 Bft) W 259 ° 0 min 0 W/m² 10,5 °C 13,0 °C 4,8 km/h (1 Bft)
12.10.2025 02:09 21,1 °C 13,0 °C 64 % 85 % 1030,1 hPa 0,0 l/m² 3,3 km/h (1 Bft) W-SW 257 ° 0 min 0 W/m² 10,5 °C 13,0 °C 6,4 km/h (2 Bft)
12.10.2025 02:11 21,1 °C 13,0 °C 64 % 85 % 1030,1 hPa 0,0 l/m² 2,3 km/h (1 Bft) W-SW 256 ° 0 min 0 W/m² 10,5 °C 13,0 °C 4,8 km/h (1 Bft)
12.10.2025 02:12 21,1 °C 12,9 °C 64 % 85 % 1030,1 hPa 0,0 l/m² 1,7 km/h (1 Bft) W-SW 252 ° 0 min 0 W/m² 10,4 °C 12,9 °C 4,8 km/h (1 Bft)
12.10.2025 02:13 21,1 °C 13,0 °C 64 % 85 % 1030,1 hPa 0,0 l/m² 3,7 km/h (1 Bft) W 259 ° 0 min 0 W/m² 10,5 °C 13,0 °C 6,4 km/h (2 Bft)
12.10.2025 02:15 21,1 °C 13,0 °C 64 % 85 % 1030,0 hPa 0,0 l/m² 4,7 km/h (1 Bft) W-SW 252 ° 0 min 0 W/m² 10,5 °C 13,0 °C 8,0 km/h (2 Bft)
12.10.2025 02:17 21,1 °C 13,0 °C 64 % 85 % 1030,0 hPa 0,0 l/m² 3,4 km/h (1 Bft) W 269 ° 0 min 0 W/m² 10,5 °C 13,0 °C 4,8 km/h (1 Bft)
12.10.2025 02:19 21,1 °C 13,0 °C 64 % 85 % 1030,0 hPa 0,0 l/m² 4,8 km/h (1 Bft) W-SW 257 ° 0 min 0 W/m² 10,5 °C 13,0 °C 8,0 km/h (2 Bft)
12.10.2025 02:20 21,1 °C 13,0 °C 64 % 85 % 1030,0 hPa 0,0 l/m² 4,7 km/h (1 Bft) W-SW 250 ° 0 min 0 W/m² 10,5 °C 13,0 °C 6,4 km/h (2 Bft)
12.10.2025 02:22 21,1 °C 13,0 °C 64 % 85 % 1030,0 hPa 0,0 l/m² 4,7 km/h (1 Bft) W-SW 246 ° 0 min 0 W/m² 10,5 °C 13,0 °C 6,4 km/h (2 Bft)
12.10.2025 02:23 21,1 °C 13,0 °C 64 % 85 % 1029,9 hPa 0,0 l/m² 3,4 km/h (1 Bft) W-SW 240 ° 0 min 0 W/m² 10,5 °C 13,0 °C 4,8 km/h (1 Bft)
12.10.2025 02:25 21,1 °C 12,9 °C 64 % 85 % 1029,9 hPa 0,0 l/m² 4,7 km/h (1 Bft) W-SW 239 ° 0 min 0 W/m² 10,4 °C 12,9 °C 6,4 km/h (2 Bft)
12.10.2025 02:27 21,1 °C 12,9 °C 64 % 85 % 1029,9 hPa 0,0 l/m² 4,5 km/h (1 Bft) W-SW 239 ° 0 min 0 W/m² 10,4 °C 12,9 °C 8,0 km/h (2 Bft)
12.10.2025 02:29 21,1 °C 12,9 °C 64 % 85 % 1029,8 hPa 0,0 l/m² 3,8 km/h (1 Bft) SW 236 ° 0 min 0 W/m² 10,4 °C 12,9 °C 6,4 km/h (2 Bft)
12.10.2025 02:30 21,1 °C 12,9 °C 64 % 85 % 1029,8 hPa 0,0 l/m² 3,1 km/h (1 Bft) W-SW 239 ° 0 min 0 W/m² 10,4 °C 12,9 °C 4,8 km/h (1 Bft)
12.10.2025 02:32 21,1 °C 12,9 °C 64 % 85 % 1029,9 hPa 0,0 l/m² 3,6 km/h (1 Bft) W-SW 255 ° 0 min 0 W/m² 10,4 °C 12,9 °C 4,8 km/h (1 Bft)
12.10.2025 02:33 21,1 °C 12,9 °C 64 % 85 % 1029,8 hPa 0,0 l/m² 3,2 km/h (1 Bft) W-SW 254 ° 0 min 0 W/m² 10,4 °C 12,9 °C 4,8 km/h (1 Bft)
12.10.2025 02:35 21,1 °C 12,9 °C 64 % 85 % 1029,8 hPa 0,0 l/m² 4,7 km/h (1 Bft) W-SW 254 ° 0 min 0 W/m² 10,4 °C 12,9 °C 6,4 km/h (2 Bft)
12.10.2025 02:37 21,1 °C 12,9 °C 64 % 85 % 1029,7 hPa 0,0 l/m² 4,3 km/h (1 Bft) W 261 ° 0 min 0 W/m² 10,4 °C 12,9 °C 6,4 km/h (2 Bft)
12.10.2025 02:39 21,1 °C 12,9 °C 64 % 85 % 1029,8 hPa 0,0 l/m² 3,7 km/h (1 Bft) W-SW 257 ° 0 min 0 W/m² 10,4 °C 12,9 °C 4,8 km/h (1 Bft)
12.10.2025 02:40 21,1 °C 12,9 °C 64 % 85 % 1029,8 hPa 0,0 l/m² 2,8 km/h (1 Bft) W-SW 257 ° 0 min 0 W/m² 10,4 °C 12,9 °C 4,8 km/h (1 Bft)
12.10.2025 02:41 21,1 °C 12,9 °C 64 % 85 % 1029,8 hPa 0,0 l/m² 1,8 km/h (1 Bft) W-SW 257 ° 0 min 0 W/m² 10,4 °C 12,9 °C 3,2 km/h (1 Bft)
12.10.2025 02:43 21,1 °C 12,9 °C 64 % 85 % 1029,8 hPa 0,0 l/m² 3,3 km/h (1 Bft) W-SW 257 ° 0 min 0 W/m² 10,4 °C 12,9 °C 4,8 km/h (1 Bft)
12.10.2025 02:44 21,1 °C 12,9 °C 64 % 85 % 1029,8 hPa 0,0 l/m² 3,0 km/h (1 Bft) W-SW 257 ° 0 min 0 W/m² 10,4 °C 12,9 °C 4,8 km/h (1 Bft)
12.10.2025 02:46 21,1 °C 12,8 °C 64 % 85 % 1029,8 hPa 0,0 l/m² 2,9 km/h (1 Bft) W-SW 257 ° 0 min 0 W/m² 10,3 °C 12,8 °C 6,4 km/h (2 Bft)
12.10.2025 02:48 21,1 °C 12,8 °C 64 % 85 % 1029,7 hPa 0,0 l/m² 1,0 km/h (0 Bft) W-SW 257 ° 0 min 0 W/m² 10,3 °C 12,8 °C 3,2 km/h (1 Bft)
12.10.2025 02:50 21,1 °C 12,8 °C 64 % 85 % 1029,7 hPa 0,0 l/m² 0,3 km/h (0 Bft) W-SW 257 ° 0 min 0 W/m² 10,3 °C 12,8 °C 1,6 km/h (1 Bft)
12.10.2025 02:51 21,1 °C 12,8 °C 64 % 85 % 1029,7 hPa 0,0 l/m² 0,1 km/h (0 Bft) W-SW 257 ° 0 min 0 W/m² 10,3 °C 12,8 °C 1,6 km/h (1 Bft)
12.10.2025 02:52 21,1 °C 12,8 °C 64 % 85 % 1029,7 hPa 0,0 l/m² 0,2 km/h (0 Bft) W-SW 257 ° 0 min 0 W/m² 10,3 °C 12,8 °C 1,6 km/h (1 Bft)
12.10.2025 02:54 21,1 °C 12,8 °C 64 % 85 % 1029,7 hPa 0,0 l/m² 0,1 km/h (0 Bft) W-SW 257 ° 0 min 0 W/m² 10,3 °C 12,8 °C 1,6 km/h (1 Bft)
12.10.2025 02:56 21,1 °C 12,8 °C 64 % 85 % 1029,8 hPa 0,0 l/m² 0,3 km/h (0 Bft) W-SW 257 ° 0 min 0 W/m² 10,3 °C 12,8 °C 3,2 km/h (1 Bft)
12.10.2025 02:58 21,1 °C 12,8 °C 64 % 85 % 1029,7 hPa 0,0 l/m² 0,5 km/h (0 Bft) W 259 ° 0 min 0 W/m² 10,3 °C 12,8 °C 3,2 km/h (1 Bft)
12.10.2025 03:00 21,1 °C 12,8 °C 64 % 85 % 1029,7 hPa 0,0 l/m² 1,5 km/h (1 Bft) W 261 ° 0 min 0 W/m² 10,3 °C 12,8 °C 3,2 km/h (1 Bft)
12.10.2025 03:01 21,1 °C 12,8 °C 64 % 85 % 1029,7 hPa 0,0 l/m² 1,1 km/h (1 Bft) W-NW 286 ° 0 min 0 W/m² 10,3 °C 12,8 °C 3,2 km/h (1 Bft)
12.10.2025 03:02 21,1 °C 12,8 °C 64 % 85 % 1029,6 hPa 0,0 l/m² 0,1 km/h (0 Bft) W-NW 286 ° 0 min 0 W/m² 10,3 °C 12,8 °C 1,6 km/h (1 Bft)
12.10.2025 03:04 21,1 °C 12,8 °C 64 % 85 % 1029,6 hPa 0,0 l/m² 0,4 km/h (0 Bft) W-NW 285 ° 0 min 0 W/m² 10,3 °C 12,8 °C 3,2 km/h (1 Bft)
12.10.2025 03:05 21,1 °C 12,8 °C 64 % 85 % 1029,6 hPa 0,0 l/m² 1,3 km/h (1 Bft) W-NW 287 ° 0 min 0 W/m² 10,3 °C 12,8 °C 3,2 km/h (1 Bft)
12.10.2025 03:07 21,1 °C 12,8 °C 64 % 85 % 1029,6 hPa 0,0 l/m² 1,3 km/h (1 Bft) W-NW 290 ° 0 min 0 W/m² 10,3 °C 12,8 °C 4,8 km/h (1 Bft)
12.10.2025 03:09 21,1 °C 12,7 °C 64 % 85 % 1029,6 hPa 0,0 l/m² 1,0 km/h (0 Bft) W-NW 290 ° 0 min 0 W/m² 10,2 °C 12,7 °C 3,2 km/h (1 Bft)
12.10.2025 03:10 21,1 °C 12,7 °C 64 % 85 % 1029,6 hPa 0,0 l/m² 0,7 km/h (0 Bft) W-NW 290 ° 0 min 0 W/m² 10,2 °C 12,7 °C 1,6 km/h (1 Bft)
12.10.2025 03:11 21,1 °C 12,7 °C 64 % 85 % 1029,6 hPa 0,0 l/m² 0,5 km/h (0 Bft) W 277 ° 0 min 0 W/m² 10,2 °C 12,7 °C 3,2 km/h (1 Bft)
12.10.2025 03:12 21,1 °C 12,7 °C 64 % 85 % 1029,7 hPa 0,0 l/m² 0,5 km/h (0 Bft) W 277 ° 0 min 0 W/m² 10,2 °C 12,7 °C 3,2 km/h (1 Bft)
12.10.2025 03:14 21,1 °C 12,7 °C 64 % 85 % 1029,5 hPa 0,0 l/m² 0,9 km/h (0 Bft) W 277 ° 0 min 0 W/m² 10,2 °C 12,7 °C 6,4 km/h (2 Bft)
12.10.2025 03:16 21,1 °C 12,7 °C 64 % 85 % 1029,6 hPa 0,0 l/m² 0,2 km/h (0 Bft) W 279 ° 0 min 0 W/m² 10,2 °C 12,7 °C 1,6 km/h (1 Bft)
12.10.2025 03:17 21,1 °C 12,7 °C 64 % 85 % 1029,5 hPa 0,0 l/m² 0,1 km/h (0 Bft) W 279 ° 0 min 0 W/m² 10,2 °C 12,7 °C 1,6 km/h (1 Bft)
12.10.2025 03:18 21,1 °C 12,7 °C 64 % 85 % 1029,5 hPa 0,0 l/m² 0,4 km/h (0 Bft) W 280 ° 0 min 0 W/m² 10,2 °C 12,7 °C 1,6 km/h (1 Bft)
12.10.2025 03:20 21,1 °C 12,7 °C 64 % 85 % 1029,5 hPa 0,0 l/m² 0,5 km/h (0 Bft) W 280 ° 0 min 0 W/m² 10,2 °C 12,7 °C 3,2 km/h (1 Bft)
12.10.2025 03:22 21,1 °C 12,7 °C 64 % 85 % 1029,5 hPa 0,0 l/m² 0,7 km/h (0 Bft) W 280 ° 0 min 0 W/m² 10,2 °C 12,7 °C 3,2 km/h (1 Bft)
12.10.2025 03:23 21,1 °C 12,7 °C 64 % 85 % 1029,5 hPa 0,0 l/m² 1,9 km/h (1 Bft) W-NW 282 ° 0 min 0 W/m² 10,2 °C 12,7 °C 4,8 km/h (1 Bft)
12.10.2025 03:25 21,1 °C 12,7 °C 64 % 85 % 1029,5 hPa 0,0 l/m² 0,5 km/h (0 Bft) W 280 ° 0 min 0 W/m² 10,2 °C 12,7 °C 3,2 km/h (1 Bft)
12.10.2025 03:27 21,1 °C 12,6 °C 64 % 85 % 1029,5 hPa 0,0 l/m² 1,4 km/h (1 Bft) W-NW 286 ° 0 min 0 W/m² 10,1 °C 12,6 °C 4,8 km/h (1 Bft)
12.10.2025 03:29 21,1 °C 12,7 °C 64 % 85 % 1029,5 hPa 0,0 l/m² 1,5 km/h (1 Bft) W 275 ° 0 min 0 W/m² 10,2 °C 12,7 °C 4,8 km/h (1 Bft)
12.10.2025 03:30 21,1 °C 12,7 °C 64 % 85 % 1029,5 hPa 0,0 l/m² 1,0 km/h (0 Bft) W 275 ° 0 min 0 W/m² 10,2 °C 12,7 °C 3,2 km/h (1 Bft)
12.10.2025 03:31 21,1 °C 12,6 °C 64 % 85 % 1029,5 hPa 0,0 l/m² 1,3 km/h (1 Bft) W 277 ° 0 min 0 W/m² 10,1 °C 12,6 °C 3,2 km/h (1 Bft)
12.10.2025 03:32 21,1 °C 12,6 °C 64 % 85 % 1029,5 hPa 0,0 l/m² 0,0 km/h (0 Bft) W 277 ° 0 min 0 W/m² 10,1 °C 12,6 °C 0,0 km/h (0 Bft)
12.10.2025 03:34 21,1 °C 12,6 °C 64 % 85 % 1029,5 hPa 0,0 l/m² 2,8 km/h (1 Bft) W-SW 258 ° 0 min 0 W/m² 10,1 °C 12,6 °C 9,7 km/h (2 Bft)
12.10.2025 03:36 21,1 °C 12,6 °C 64 % 85 % 1029,4 hPa 0,0 l/m² 2,4 km/h (1 Bft) W 281 ° 0 min 0 W/m² 10,1 °C 12,6 °C 4,8 km/h (1 Bft)
12.10.2025 03:38 21,1 °C 12,6 °C 64 % 86 % 1029,5 hPa 0,0 l/m² 1,7 km/h (1 Bft) W-NW 296 ° 0 min 0 W/m² 10,3 °C 12,6 °C 4,8 km/h (1 Bft)
12.10.2025 03:40 21,1 °C 12,6 °C 64 % 86 % 1029,5 hPa 0,0 l/m² 2,6 km/h (1 Bft) W 268 ° 0 min 0 W/m² 10,3 °C 12,6 °C 6,4 km/h (2 Bft)
12.10.2025 03:41 21,1 °C 12,6 °C 64 % 86 % 1029,5 hPa 0,0 l/m² 3,1 km/h (1 Bft) W-NW 296 ° 0 min 0 W/m² 10,3 °C 12,6 °C 6,4 km/h (2 Bft)
12.10.2025 03:42 21,1 °C 12,6 °C 64 % 86 % 1029,5 hPa 0,0 l/m² 3,1 km/h (1 Bft) W 276 ° 0 min 0 W/m² 10,3 °C 12,6 °C 4,8 km/h (1 Bft)
12.10.2025 03:45 21,1 °C 12,6 °C 64 % 86 % 1029,5 hPa 0,0 l/m² 2,8 km/h (1 Bft) W 271 ° 0 min 0 W/m² 10,3 °C 12,6 °C 6,4 km/h (2 Bft)
12.10.2025 03:46 21,1 °C 12,6 °C 64 % 86 % 1029,5 hPa 0,0 l/m² 0,0 km/h (0 Bft) W-SW 255 ° 0 min 0 W/m² 10,3 °C 12,6 °C 4,8 km/h (1 Bft)
12.10.2025 03:47 21,1 °C 12,6 °C 64 % 86 % 1029,5 hPa 0,0 l/m² 2,6 km/h (1 Bft) W 281 ° 0 min 0 W/m² 10,3 °C 12,6 °C 6,4 km/h (2 Bft)
12.10.2025 03:48 21,1 °C 12,6 °C 64 % 86 % 1029,5 hPa 0,0 l/m² 1,9 km/h (1 Bft) W 275 ° 0 min 0 W/m² 10,3 °C 12,6 °C 4,8 km/h (1 Bft)
12.10.2025 03:50 21,1 °C 12,6 °C 64 % 86 % 1029,5 hPa 0,0 l/m² 1,9 km/h (1 Bft) W 261 ° 0 min 0 W/m² 10,3 °C 12,6 °C 3,2 km/h (1 Bft)
12.10.2025 03:51 21,1 °C 12,6 °C 64 % 86 % 1029,5 hPa 0,0 l/m² 2,6 km/h (1 Bft) W 272 ° 0 min 0 W/m² 10,3 °C 12,6 °C 4,8 km/h (1 Bft)
12.10.2025 03:52 21,1 °C 12,6 °C 64 % 86 % 1029,5 hPa 0,0 l/m² 2,9 km/h (1 Bft) W 277 ° 0 min 0 W/m² 10,3 °C 12,6 °C 4,8 km/h (1 Bft)
12.10.2025 03:55 21,1 °C 12,6 °C 64 % 86 % 1029,5 hPa 0,0 l/m² 2,1 km/h (1 Bft) W 273 ° 0 min 0 W/m² 10,3 °C 12,6 °C 4,8 km/h (1 Bft)
12.10.2025 03:57 21,1 °C 12,6 °C 64 % 86 % 1029,5 hPa 0,0 l/m² 1,9 km/h (1 Bft) W 264 ° 0 min 0 W/m² 10,3 °C 12,6 °C 4,8 km/h (1 Bft)
12.10.2025 03:59 21,1 °C 12,6 °C 64 % 86 % 1029,5 hPa 0,0 l/m² 2,5 km/h (1 Bft) W 263 ° 0 min 0 W/m² 10,3 °C 12,6 °C 6,4 km/h (2 Bft)
12.10.2025 04:02 21,1 °C 12,6 °C 64 % 86 % 1029,5 hPa 0,0 l/m² 1,6 km/h (1 Bft) W 270 ° 0 min 0 W/m² 10,3 °C 12,6 °C 9,7 km/h (2 Bft)
12.10.2025 04:03 21,1 °C 12,6 °C 64 % 86 % 1029,4 hPa 0,0 l/m² 0,7 km/h (0 Bft) W 269 ° 0 min 0 W/m² 10,3 °C 12,6 °C 1,6 km/h (1 Bft)
12.10.2025 04:04 21,1 °C 12,6 °C 64 % 86 % 1029,5 hPa 0,0 l/m² 1,1 km/h (1 Bft) W 279 ° 0 min 0 W/m² 10,3 °C 12,6 °C 3,2 km/h (1 Bft)
12.10.2025 04:05 21,1 °C 12,6 °C 64 % 86 % 1029,5 hPa 0,0 l/m² 1,6 km/h (1 Bft) W-NW 283 ° 0 min 0 W/m² 10,3 °C 12,6 °C 3,2 km/h (1 Bft)
12.10.2025 04:06 21,1 °C 12,6 °C 64 % 86 % 1029,4 hPa 0,0 l/m² 2,7 km/h (1 Bft) W 279 ° 0 min 0 W/m² 10,3 °C 12,6 °C 4,8 km/h (1 Bft)
12.10.2025 04:08 21,1 °C 12,6 °C 64 % 86 % 1029,4 hPa 0,0 l/m² 2,5 km/h (1 Bft) W 277 ° 0 min 0 W/m² 10,3 °C 12,6 °C 4,8 km/h (1 Bft)
12.10.2025 04:10 21,1 °C 12,6 °C 64 % 86 % 1029,5 hPa 0,0 l/m² 2,8 km/h (1 Bft) W 270 ° 0 min 0 W/m² 10,3 °C 12,6 °C 6,4 km/h (2 Bft)
12.10.2025 04:11 21,1 °C 12,6 °C 64 % 86 % 1029,5 hPa 0,0 l/m² 2,1 km/h (1 Bft) W 262 ° 0 min 0 W/m² 10,3 °C 12,6 °C 4,8 km/h (1 Bft)
12.10.2025 04:12 21,1 °C 12,6 °C 64 % 86 % 1029,4 hPa 0,0 l/m² 2,2 km/h (1 Bft) W 266 ° 0 min 0 W/m² 10,3 °C 12,6 °C 4,8 km/h (1 Bft)
12.10.2025 04:15 21,1 °C 12,6 °C 64 % 86 % 1029,4 hPa 0,0 l/m² 1,8 km/h (1 Bft) W 262 ° 0 min 0 W/m² 10,3 °C 12,6 °C 4,8 km/h (1 Bft)
12.10.2025 04:17 21,1 °C 12,6 °C 64 % 86 % 1029,4 hPa 0,0 l/m² 1,6 km/h (1 Bft) W 267 ° 0 min 0 W/m² 10,3 °C 12,6 °C 4,8 km/h (1 Bft)
12.10.2025 04:19 21,1 °C 12,6 °C 64 % 86 % 1029,4 hPa 0,0 l/m² 2,3 km/h (1 Bft) W 279 ° 0 min 0 W/m² 10,3 °C 12,6 °C 6,4 km/h (2 Bft)
12.10.2025 04:21 21,1 °C 12,6 °C 64 % 86 % 1029,4 hPa 0,0 l/m² 2,7 km/h (1 Bft) W-NW 296 ° 0 min 0 W/m² 10,3 °C 12,6 °C 6,4 km/h (2 Bft)
12.10.2025 04:22 21,1 °C 12,6 °C 64 % 86 % 1029,4 hPa 0,0 l/m² 3,2 km/h (1 Bft) W-NW 288 ° 0 min 0 W/m² 10,3 °C 12,6 °C 6,4 km/h (2 Bft)
12.10.2025 04:23 21,1 °C 12,6 °C 64 % 86 % 1029,4 hPa 0,0 l/m² 2,6 km/h (1 Bft) W 274 ° 0 min 0 W/m² 10,3 °C 12,6 °C 4,8 km/h (1 Bft)
12.10.2025 04:24 21,1 °C 12,6 °C 64 % 86 % 1029,4 hPa 0,0 l/m² 3,1 km/h (1 Bft) W-SW 254 ° 0 min 0 W/m² 10,3 °C 12,6 °C 4,8 km/h (1 Bft)
12.10.2025 04:25 21,1 °C 12,6 °C 64 % 86 % 1029,4 hPa 0,0 l/m² 2,8 km/h (1 Bft) W 268 ° 0 min 0 W/m² 10,3 °C 12,6 °C 4,8 km/h (1 Bft)
12.10.2025 04:27 21,1 °C 12,6 °C 64 % 86 % 1029,3 hPa 0,0 l/m² 0,9 km/h (0 Bft) W 274 ° 0 min 0 W/m² 10,3 °C 12,6 °C 3,2 km/h (1 Bft)
12.10.2025 04:29 21,1 °C 12,6 °C 64 % 86 % 1029,4 hPa 0,0 l/m² 2,5 km/h (1 Bft) W-SW 253 ° 0 min 0 W/m² 10,3 °C 12,6 °C 6,4 km/h (2 Bft)
12.10.2025 04:30 21,1 °C 12,6 °C 64 % 86 % 1029,4 hPa 0,0 l/m² 3,2 km/h (1 Bft) W 264 ° 0 min 0 W/m² 10,3 °C 12,6 °C 6,4 km/h (2 Bft)
12.10.2025 04:31 21,1 °C 12,6 °C 64 % 86 % 1029,4 hPa 0,0 l/m² 3,0 km/h (1 Bft) W 272 ° 0 min 0 W/m² 10,3 °C 12,6 °C 6,4 km/h (2 Bft)
12.10.2025 04:32 21,1 °C 12,6 °C 64 % 86 % 1029,4 hPa 0,0 l/m² 4,5 km/h (1 Bft) W 275 ° 0 min 0 W/m² 10,3 °C 12,6 °C 6,4 km/h (2 Bft)
12.10.2025 04:35 21,1 °C 12,6 °C 64 % 86 % 1029,4 hPa 0,0 l/m² 4,6 km/h (1 Bft) W-NW 282 ° 0 min 0 W/m² 10,3 °C 12,6 °C 11,3 km/h (2 Bft)
12.10.2025 04:37 21,1 °C 12,7 °C 64 % 86 % 1029,5 hPa 0,0 l/m² 4,6 km/h (1 Bft) NW 310 ° 0 min 0 W/m² 10,4 °C 12,7 °C 9,7 km/h (2 Bft)
12.10.2025 04:39 21,1 °C 12,7 °C 64 % 86 % 1029,4 hPa 0,0 l/m² 4,2 km/h (1 Bft) W 263 ° 0 min 0 W/m² 10,4 °C 12,7 °C 9,7 km/h (2 Bft)
12.10.2025 04:41 21,1 °C 12,7 °C 64 % 86 % 1029,4 hPa 0,0 l/m² 3,5 km/h (1 Bft) W-NW 284 ° 0 min 0 W/m² 10,4 °C 12,7 °C 11,3 km/h (2 Bft)
12.10.2025 04:42 21,1 °C 12,7 °C 64 % 86 % 1029,4 hPa 0,0 l/m² 0,5 km/h (0 Bft) W-NW 286 ° 0 min 0 W/m² 10,4 °C 12,7 °C 1,6 km/h (1 Bft)
12.10.2025 04:43 21,1 °C 12,7 °C 64 % 86 % 1029,4 hPa 0,0 l/m² 3,7 km/h (1 Bft) W 261 ° 0 min 0 W/m² 10,4 °C 12,7 °C 9,7 km/h (2 Bft)
12.10.2025 04:46 21,1 °C 12,7 °C 64 % 86 % 1029,4 hPa 0,0 l/m² 2,2 km/h (1 Bft) W-NW 285 ° 0 min 0 W/m² 10,4 °C 12,7 °C 6,4 km/h (2 Bft)
12.10.2025 04:48 21,1 °C 12,7 °C 64 % 86 % 1029,4 hPa 0,0 l/m² 4,1 km/h (1 Bft) W-NW 300 ° 0 min 0 W/m² 10,4 °C 12,7 °C 6,4 km/h (2 Bft)
12.10.2025 04:50 21,0 °C 12,7 °C 64 % 86 % 1029,4 hPa 0,0 l/m² 1,5 km/h (1 Bft) W 278 ° 0 min 0 W/m² 10,4 °C 12,7 °C 3,2 km/h (1 Bft)
12.10.2025 04:51 21,1 °C 12,7 °C 64 % 86 % 1029,3 hPa 0,0 l/m² 3,3 km/h (1 Bft) W 271 ° 0 min 0 W/m² 10,4 °C 12,7 °C 4,8 km/h (1 Bft)
12.10.2025 04:53 21,1 °C 12,7 °C 64 % 86 % 1029,4 hPa 0,0 l/m² 2,5 km/h (1 Bft) W 281 ° 0 min 0 W/m² 10,4 °C 12,7 °C 4,8 km/h (1 Bft)
12.10.2025 04:55 21,1 °C 12,8 °C 64 % 86 % 1029,3 hPa 0,0 l/m² 2,8 km/h (1 Bft) W-SW 250 ° 0 min 0 W/m² 10,5 °C 12,8 °C 4,8 km/h (1 Bft)
12.10.2025 04:57 21,1 °C 12,8 °C 64 % 86 % 1029,4 hPa 0,0 l/m² 3,3 km/h (1 Bft) NW 309 ° 0 min 0 W/m² 10,5 °C 12,8 °C 11,3 km/h (2 Bft)
12.10.2025 04:59 21,1 °C 12,8 °C 64 % 86 % 1029,3 hPa 0,0 l/m² 4,2 km/h (1 Bft) W-NW 288 ° 0 min 0 W/m² 10,5 °C 12,8 °C 6,4 km/h (2 Bft)
12.10.2025 05:01 21,1 °C 12,8 °C 64 % 86 % 1029,3 hPa 0,0 l/m² 4,1 km/h (1 Bft) W 275 ° 0 min 0 W/m² 10,5 °C 12,8 °C 6,4 km/h (2 Bft)
12.10.2025 05:02 21,0 °C 12,8 °C 64 % 86 % 1029,3 hPa 0,0 l/m² 2,5 km/h (1 Bft) W-NW 286 ° 0 min 0 W/m² 10,5 °C 12,8 °C 4,8 km/h (1 Bft)
12.10.2025 05:03 21,1 °C 12,8 °C 64 % 86 % 1029,3 hPa 0,0 l/m² 2,9 km/h (1 Bft) W 262 ° 0 min 0 W/m² 10,5 °C 12,8 °C 4,8 km/h (1 Bft)
12.10.2025 05:05 21,1 °C 12,8 °C 64 % 86 % 1029,3 hPa 0,0 l/m² 3,9 km/h (1 Bft) W 273 ° 0 min 0 W/m² 10,5 °C 12,8 °C 6,4 km/h (2 Bft)
12.10.2025 05:07 21,1 °C 12,8 °C 64 % 86 % 1029,3 hPa 0,0 l/m² 3,5 km/h (1 Bft) W-NW 292 ° 0 min 0 W/m² 10,5 °C 12,8 °C 6,4 km/h (2 Bft)
12.10.2025 05:09 21,1 °C 12,8 °C 64 % 86 % 1029,3 hPa 0,0 l/m² 4,3 km/h (1 Bft) W-NW 284 ° 0 min 0 W/m² 10,5 °C 12,8 °C 9,7 km/h (2 Bft)
12.10.2025 05:11 21,1 °C 12,8 °C 64 % 86 % 1029,2 hPa 0,0 l/m² 2,8 km/h (1 Bft) W 270 ° 0 min 0 W/m² 10,5 °C 12,8 °C 6,4 km/h (2 Bft)
12.10.2025 05:12 21,0 °C 12,8 °C 64 % 86 % 1029,2 hPa 0,0 l/m² 3,2 km/h (1 Bft) W-NW 292 ° 0 min 0 W/m² 10,5 °C 12,8 °C 6,4 km/h (2 Bft)
12.10.2025 05:13 21,1 °C 12,8 °C 64 % 86 % 1029,2 hPa 0,0 l/m² 5,5 km/h (2 Bft) W-SW 254 ° 0 min 0 W/m² 10,5 °C 12,8 °C 11,3 km/h (2 Bft)
12.10.2025 05:14 21,1 °C 12,8 °C 64 % 86 % 1029,2 hPa 0,0 l/m² 4,7 km/h (1 Bft) W-NW 285 ° 0 min 0 W/m² 10,5 °C 12,8 °C 11,3 km/h (2 Bft)
12.10.2025 05:15 21,0 °C 12,8 °C 64 % 86 % 1029,2 hPa 0,0 l/m² 3,0 km/h (1 Bft) W-NW 292 ° 0 min 0 W/m² 10,5 °C 12,8 °C 4,8 km/h (1 Bft)
12.10.2025 05:16 21,0 °C 12,8 °C 64 % 86 % 1029,2 hPa 0,0 l/m² 4,2 km/h (1 Bft) W-NW 287 ° 0 min 0 W/m² 10,5 °C 12,8 °C 6,4 km/h (2 Bft)
12.10.2025 05:17 21,1 °C 12,8 °C 64 % 86 % 1029,2 hPa 0,0 l/m² 4,0 km/h (1 Bft) W 281 ° 0 min 0 W/m² 10,5 °C 12,8 °C 9,7 km/h (2 Bft)
12.10.2025 05:18 21,0 °C 12,8 °C 64 % 86 % 1029,1 hPa 0,0 l/m² 1,5 km/h (1 Bft) W 271 ° 0 min 0 W/m² 10,5 °C 12,8 °C 3,2 km/h (1 Bft)
12.10.2025 05:19 21,1 °C 12,7 °C 64 % 86 % 1029,2 hPa 0,0 l/m² 2,6 km/h (1 Bft) W 270 ° 0 min 0 W/m² 10,4 °C 12,7 °C 4,8 km/h (1 Bft)
12.10.2025 05:20 21,0 °C 12,8 °C 64 % 86 % 1029,2 hPa 0,0 l/m² 3,0 km/h (1 Bft) W 263 ° 0 min 0 W/m² 10,5 °C 12,8 °C 6,4 km/h (2 Bft)
12.10.2025 05:21 21,1 °C 12,8 °C 64 % 86 % 1029,1 hPa 0,0 l/m² 3,2 km/h (1 Bft) W 269 ° 0 min 0 W/m² 10,5 °C 12,8 °C 4,8 km/h (1 Bft)
12.10.2025 05:22 21,0 °C 12,8 °C 64 % 86 % 1029,1 hPa 0,0 l/m² 3,6 km/h (1 Bft) W 269 ° 0 min 0 W/m² 10,5 °C 12,8 °C 6,4 km/h (2 Bft)
12.10.2025 05:23 21,0 °C 12,8 °C 64 % 86 % 1029,2 hPa 0,0 l/m² 2,0 km/h (1 Bft) W 263 ° 0 min 0 W/m² 10,5 °C 12,8 °C 4,8 km/h (1 Bft)
12.10.2025 05:24 21,1 °C 12,8 °C 64 % 86 % 1029,2 hPa 0,0 l/m² 3,1 km/h (1 Bft) W 271 ° 0 min 0 W/m² 10,5 °C 12,8 °C 6,4 km/h (2 Bft)
12.10.2025 05:25 21,0 °C 12,7 °C 64 % 86 % 1029,1 hPa 0,0 l/m² 1,7 km/h (1 Bft) W 270 ° 0 min 0 W/m² 10,4 °C 12,7 °C 3,2 km/h (1 Bft)
12.10.2025 05:26 21,0 °C 12,8 °C 64 % 86 % 1029,2 hPa 0,0 l/m² 2,9 km/h (1 Bft) W 265 ° 0 min 0 W/m² 10,5 °C 12,8 °C 4,8 km/h (1 Bft)
12.10.2025 05:27 21,0 °C 12,8 °C 64 % 86 % 1029,2 hPa 0,0 l/m² 1,3 km/h (1 Bft) W 273 ° 0 min 0 W/m² 10,5 °C 12,8 °C 3,2 km/h (1 Bft)
12.10.2025 05:28 21,0 °C 12,8 °C 64 % 86 % 1029,2 hPa 0,0 l/m² 2,3 km/h (1 Bft) W 275 ° 0 min 0 W/m² 10,5 °C 12,8 °C 4,8 km/h (1 Bft)
12.10.2025 05:29 21,0 °C 12,8 °C 64 % 86 % 1029,1 hPa 0,0 l/m² 1,9 km/h (1 Bft) W 275 ° 0 min 0 W/m² 10,5 °C 12,8 °C 3,2 km/h (1 Bft)
12.10.2025 05:30 21,0 °C 12,8 °C 64 % 86 % 1029,1 hPa 0,0 l/m² 3,8 km/h (1 Bft) W 259 ° 0 min 0 W/m² 10,5 °C 12,8 °C 6,4 km/h (2 Bft)
12.10.2025 05:31 21,0 °C 12,8 °C 64 % 86 % 1029,1 hPa 0,0 l/m² 2,2 km/h (1 Bft) W 264 ° 0 min 0 W/m² 10,5 °C 12,8 °C 4,8 km/h (1 Bft)
12.10.2025 05:32 21,0 °C 12,8 °C 64 % 86 % 1029,1 hPa 0,0 l/m² 3,7 km/h (1 Bft) W-SW 258 ° 0 min 0 W/m² 10,5 °C 12,8 °C 6,4 km/h (2 Bft)
12.10.2025 05:33 21,1 °C 12,8 °C 64 % 86 % 1029,1 hPa 0,0 l/m² 3,3 km/h (1 Bft) W 265 ° 0 min 0 W/m² 10,5 °C 12,8 °C 6,4 km/h (2 Bft)
12.10.2025 05:34 21,0 °C 12,8 °C 64 % 86 % 1029,2 hPa 0,0 l/m² 2,5 km/h (1 Bft) W 271 ° 0 min 0 W/m² 10,5 °C 12,8 °C 6,4 km/h (2 Bft)
12.10.2025 05:35 21,0 °C 12,8 °C 64 % 86 % 1029,2 hPa 0,0 l/m² 3,0 km/h (1 Bft) W-SW 253 ° 0 min 0 W/m² 10,5 °C 12,8 °C 4,8 km/h (1 Bft)
12.10.2025 05:36 21,0 °C 12,7 °C 64 % 86 % 1029,1 hPa 0,0 l/m² 4,0 km/h (1 Bft) W 270 ° 0 min 0 W/m² 10,4 °C 12,7 °C 6,4 km/h (2 Bft)
12.10.2025 05:37 21,0 °C 12,7 °C 64 % 86 % 1029,1 hPa 0,0 l/m² 3,8 km/h (1 Bft) W 268 ° 0 min 0 W/m² 10,4 °C 12,7 °C 4,8 km/h (1 Bft)
12.10.2025 05:38 21,1 °C 12,7 °C 64 % 86 % 1029,1 hPa 0,0 l/m² 4,1 km/h (1 Bft) W 269 ° 0 min 0 W/m² 10,4 °C 12,7 °C 6,4 km/h (2 Bft)
12.10.2025 05:39 21,0 °C 12,7 °C 64 % 86 % 1029,0 hPa 0,0 l/m² 3,6 km/h (1 Bft) W 260 ° 0 min 0 W/m² 10,4 °C 12,7 °C 6,4 km/h (2 Bft)
12.10.2025 05:40 21,0 °C 12,7 °C 64 % 86 % 1029,0 hPa 0,0 l/m² 5,6 km/h (2 Bft) W 264 ° 0 min 0 W/m² 10,4 °C 12,7 °C 11,3 km/h (2 Bft)
12.10.2025 05:41 21,0 °C 12,7 °C 64 % 86 % 1029,1 hPa 0,0 l/m² 3,7 km/h (1 Bft) W 267 ° 0 min 0 W/m² 10,4 °C 12,7 °C 6,4 km/h (2 Bft)
12.10.2025 05:42 21,0 °C 12,7 °C 64 % 86 % 1029,0 hPa 0,0 l/m² 3,6 km/h (1 Bft) W 269 ° 0 min 0 W/m² 10,4 °C 12,7 °C 6,4 km/h (2 Bft)
12.10.2025 05:43 21,0 °C 12,7 °C 64 % 86 % 1029,1 hPa 0,0 l/m² 1,7 km/h (1 Bft) W 259 ° 0 min 0 W/m² 10,4 °C 12,7 °C 4,8 km/h (1 Bft)
12.10.2025 05:44 21,0 °C 12,7 °C 64 % 86 % 1029,0 hPa 0,0 l/m² 2,1 km/h (1 Bft) W 268 ° 0 min 0 W/m² 10,4 °C 12,7 °C 3,2 km/h (1 Bft)
12.10.2025 05:45 21,0 °C 12,7 °C 64 % 86 % 1029,0 hPa 0,0 l/m² 3,5 km/h (1 Bft) W 268 ° 0 min 0 W/m² 10,4 °C 12,7 °C 4,8 km/h (1 Bft)
12.10.2025 05:46 21,0 °C 12,7 °C 64 % 86 % 1029,0 hPa 0,0 l/m² 3,3 km/h (1 Bft) W 263 ° 0 min 0 W/m² 10,4 °C 12,7 °C 4,8 km/h (1 Bft)
12.10.2025 05:47 21,0 °C 12,7 °C 64 % 86 % 1029,1 hPa 0,0 l/m² 2,5 km/h (1 Bft) W-SW 255 ° 0 min 0 W/m² 10,4 °C 12,7 °C 4,8 km/h (1 Bft)
12.10.2025 05:48 21,0 °C 12,7 °C 64 % 86 % 1029,1 hPa 0,0 l/m² 3,3 km/h (1 Bft) W 262 ° 0 min 0 W/m² 10,4 °C 12,7 °C 4,8 km/h (1 Bft)
12.10.2025 05:49 21,0 °C 12,7 °C 64 % 86 % 1029,1 hPa 0,0 l/m² 3,1 km/h (1 Bft) W 269 ° 0 min 0 W/m² 10,4 °C 12,7 °C 4,8 km/h (1 Bft)
12.10.2025 05:50 21,0 °C 12,7 °C 64 % 86 % 1029,0 hPa 0,0 l/m² 2,1 km/h (1 Bft) W 272 ° 0 min 0 W/m² 10,4 °C 12,7 °C 3,2 km/h (1 Bft)
12.10.2025 05:51 21,0 °C 12,7 °C 64 % 87 % 1029,0 hPa 0,0 l/m² 2,3 km/h (1 Bft) W 270 ° 0 min 0 W/m² 10,6 °C 12,7 °C 6,4 km/h (2 Bft)
12.10.2025 05:52 21,0 °C 12,7 °C 64 % 86 % 1029,0 hPa 0,0 l/m² 3,3 km/h (1 Bft) W 265 ° 0 min 0 W/m² 10,4 °C 12,7 °C 4,8 km/h (1 Bft)
12.10.2025 05:53 20,9 °C 12,7 °C 64 % 87 % 1029,0 hPa 0,0 l/m² 4,0 km/h (1 Bft) W-SW 251 ° 0 min 0 W/m² 10,6 °C 12,7 °C 6,4 km/h (2 Bft)
12.10.2025 05:54 21,0 °C 12,7 °C 64 % 87 % 1029,0 hPa 0,0 l/m² 2,9 km/h (1 Bft) W-SW 258 ° 0 min 0 W/m² 10,6 °C 12,7 °C 4,8 km/h (1 Bft)
12.10.2025 05:55 21,0 °C 12,7 °C 64 % 86 % 1029,0 hPa 0,0 l/m² 4,3 km/h (1 Bft) W-SW 252 ° 0 min 0 W/m² 10,4 °C 12,7 °C 6,4 km/h (2 Bft)
12.10.2025 05:56 21,0 °C 12,7 °C 64 % 87 % 1029,0 hPa 0,0 l/m² 2,1 km/h (1 Bft) W-SW 254 ° 0 min 0 W/m² 10,6 °C 12,7 °C 3,2 km/h (1 Bft)
12.10.2025 05:57 21,0 °C 12,7 °C 64 % 87 % 1028,9 hPa 0,0 l/m² 2,1 km/h (1 Bft) W 259 ° 0 min 0 W/m² 10,6 °C 12,7 °C 4,8 km/h (1 Bft)
12.10.2025 05:58 21,0 °C 12,7 °C 64 % 87 % 1029,0 hPa 0,0 l/m² 4,4 km/h (1 Bft) W-SW 254 ° 0 min 0 W/m² 10,6 °C 12,7 °C 11,3 km/h (2 Bft)
12.10.2025 05:59 21,0 °C 12,7 °C 64 % 87 % 1029,0 hPa 0,0 l/m² 5,2 km/h (1 Bft) W-NW 286 ° 0 min 0 W/m² 10,6 °C 12,7 °C 9,7 km/h (2 Bft)
12.10.2025 06:00 21,0 °C 12,7 °C 64 % 87 % 1028,9 hPa 0,0 l/m² 3,2 km/h (1 Bft) W-NW 289 ° 0 min 0 W/m² 10,6 °C 12,7 °C 6,4 km/h (2 Bft)
12.10.2025 06:01 21,0 °C 12,7 °C 64 % 87 % 1028,9 hPa 0,0 l/m² 3,5 km/h (1 Bft) W 269 ° 0 min 0 W/m² 10,6 °C 12,7 °C 4,8 km/h (1 Bft)
12.10.2025 06:02 21,0 °C 12,7 °C 64 % 87 % 1028,9 hPa 0,0 l/m² 3,3 km/h (1 Bft) W-NW 288 ° 0 min 0 W/m² 10,6 °C 12,7 °C 9,7 km/h (2 Bft)
12.10.2025 06:03 21,0 °C 12,7 °C 64 % 87 % 1029,0 hPa 0,0 l/m² 4,0 km/h (1 Bft) W 278 ° 0 min 0 W/m² 10,6 °C 12,7 °C 6,4 km/h (2 Bft)
12.10.2025 06:04 21,0 °C 12,7 °C 64 % 87 % 1028,9 hPa 0,0 l/m² 2,9 km/h (1 Bft) W-SW 239 ° 0 min 0 W/m² 10,6 °C 12,7 °C 4,8 km/h (1 Bft)
12.10.2025 06:05 21,0 °C 12,7 °C 64 % 87 % 1028,9 hPa 0,0 l/m² 4,3 km/h (1 Bft) W-SW 250 ° 0 min 0 W/m² 10,6 °C 12,7 °C 9,7 km/h (2 Bft)
12.10.2025 06:06 21,0 °C 12,7 °C 64 % 87 % 1028,9 hPa 0,0 l/m² 2,1 km/h (1 Bft) W 267 ° 0 min 0 W/m² 10,6 °C 12,7 °C 4,8 km/h (1 Bft)
12.10.2025 06:07 21,0 °C 12,7 °C 64 % 87 % 1028,9 hPa 0,0 l/m² 3,0 km/h (1 Bft) W-NW 296 ° 0 min 0 W/m² 10,6 °C 12,7 °C 4,8 km/h (1 Bft)
12.10.2025 06:08 21,0 °C 12,7 °C 64 % 87 % 1028,8 hPa 0,0 l/m² 5,2 km/h (1 Bft) SW 231 ° 0 min 0 W/m² 10,6 °C 12,7 °C 12,9 km/h (3 Bft)
12.10.2025 06:09 21,0 °C 12,7 °C 64 % 87 % 1028,9 hPa 0,0 l/m² 4,0 km/h (1 Bft) SW 225 ° 0 min 0 W/m² 10,6 °C 12,7 °C 6,4 km/h (2 Bft)
12.10.2025 06:10 21,0 °C 12,7 °C 64 % 87 % 1028,8 hPa 0,0 l/m² 4,4 km/h (1 Bft) W 270 ° 0 min 0 W/m² 10,6 °C 12,7 °C 6,4 km/h (2 Bft)
12.10.2025 06:11 21,0 °C 12,7 °C 64 % 87 % 1028,8 hPa 0,0 l/m² 3,6 km/h (1 Bft) W 264 ° 0 min 0 W/m² 10,6 °C 12,7 °C 6,4 km/h (2 Bft)
12.10.2025 06:12 21,0 °C 12,7 °C 64 % 87 % 1028,8 hPa 0,0 l/m² 5,7 km/h (2 Bft) W 269 ° 0 min 0 W/m² 10,6 °C 12,7 °C 9,7 km/h (2 Bft)
12.10.2025 06:13 21,0 °C 12,7 °C 64 % 87 % 1028,8 hPa 0,0 l/m² 5,0 km/h (1 Bft) W 263 ° 0 min 0 W/m² 10,6 °C 12,7 °C 11,3 km/h (2 Bft)
12.10.2025 06:14 21,0 °C 12,7 °C 64 % 87 % 1028,8 hPa 0,0 l/m² 3,8 km/h (1 Bft) W 281 ° 0 min 0 W/m² 10,6 °C 12,7 °C 6,4 km/h (2 Bft)
12.10.2025 06:15 21,0 °C 12,7 °C 64 % 87 % 1028,8 hPa 0,0 l/m² 3,7 km/h (1 Bft) W-SW 256 ° 0 min 0 W/m² 10,6 °C 12,7 °C 9,7 km/h (2 Bft)
12.10.2025 06:16 21,0 °C 12,7 °C 64 % 87 % 1028,8 hPa 0,0 l/m² 3,6 km/h (1 Bft) SW 236 ° 0 min 0 W/m² 10,6 °C 12,7 °C 6,4 km/h (2 Bft)
12.10.2025 06:17 21,0 °C 12,7 °C 64 % 87 % 1028,8 hPa 0,0 l/m² 5,0 km/h (1 Bft) W 271 ° 0 min 0 W/m² 10,6 °C 12,7 °C 6,4 km/h (2 Bft)
12.10.2025 06:18 21,0 °C 12,7 °C 64 % 87 % 1028,8 hPa 0,0 l/m² 4,5 km/h (1 Bft) W 259 ° 0 min 0 W/m² 10,6 °C 12,7 °C 6,4 km/h (2 Bft)
12.10.2025 06:19 21,0 °C 12,7 °C 64 % 87 % 1028,8 hPa 0,0 l/m² 4,5 km/h (1 Bft) W 273 ° 0 min 0 W/m² 10,6 °C 12,7 °C 9,7 km/h (2 Bft)
12.10.2025 06:20 21,0 °C 12,7 °C 64 % 87 % 1028,8 hPa 0,0 l/m² 3,3 km/h (1 Bft) W 266 ° 0 min 0 W/m² 10,6 °C 12,7 °C 4,8 km/h (1 Bft)
12.10.2025 06:21 21,0 °C 12,7 °C 64 % 87 % 1028,8 hPa 0,0 l/m² 3,6 km/h (1 Bft) W 263 ° 0 min 0 W/m² 10,6 °C 12,7 °C 6,4 km/h (2 Bft)
12.10.2025 06:22 21,0 °C 12,7 °C 64 % 87 % 1028,8 hPa 0,0 l/m² 3,6 km/h (1 Bft) W 281 ° 0 min 0 W/m² 10,6 °C 12,7 °C 6,4 km/h (2 Bft)
12.10.2025 06:23 21,0 °C 12,7 °C 64 % 87 % 1028,8 hPa 0,0 l/m² 3,6 km/h (1 Bft) W 269 ° 0 min 0 W/m² 10,6 °C 12,7 °C 9,7 km/h (2 Bft)
12.10.2025 06:24 21,0 °C 12,7 °C 64 % 87 % 1028,7 hPa 0,0 l/m² 2,3 km/h (1 Bft) W 267 ° 0 min 0 W/m² 10,6 °C 12,7 °C 4,8 km/h (1 Bft)
12.10.2025 06:25 21,0 °C 12,7 °C 64 % 86 % 1028,8 hPa 0,0 l/m² 2,9 km/h (1 Bft) W 263 ° 0 min 0 W/m² 10,4 °C 12,7 °C 6,4 km/h (2 Bft)
12.10.2025 06:26 21,0 °C 12,7 °C 64 % 87 % 1028,8 hPa 0,0 l/m² 2,2 km/h (1 Bft) W 269 ° 0 min 0 W/m² 10,6 °C 12,7 °C 4,8 km/h (1 Bft)
12.10.2025 06:27 20,9 °C 12,7 °C 64 % 87 % 1028,8 hPa 0,0 l/m² 1,7 km/h (1 Bft) W 261 ° 0 min 0 W/m² 10,6 °C 12,7 °C 3,2 km/h (1 Bft)
12.10.2025 06:28 20,9 °C 12,7 °C 64 % 86 % 1028,8 hPa 0,0 l/m² 1,5 km/h (1 Bft) W 269 ° 0 min 0 W/m² 10,4 °C 12,7 °C 3,2 km/h (1 Bft)
12.10.2025 06:29 21,0 °C 12,7 °C 64 % 86 % 1028,7 hPa 0,0 l/m² 2,3 km/h (1 Bft) W 259 ° 0 min 0 W/m² 10,4 °C 12,7 °C 4,8 km/h (1 Bft)
12.10.2025 06:30 21,0 °C 12,7 °C 64 % 87 % 1028,7 hPa 0,0 l/m² 2,9 km/h (1 Bft) W 273 ° 0 min 0 W/m² 10,6 °C 12,7 °C 4,8 km/h (1 Bft)
12.10.2025 06:31 21,0 °C 12,7 °C 64 % 87 % 1028,7 hPa 0,0 l/m² 1,2 km/h (1 Bft) W 273 ° 0 min 0 W/m² 10,6 °C 12,7 °C 4,8 km/h (1 Bft)
12.10.2025 06:32 21,0 °C 12,7 °C 64 % 87 % 1028,8 hPa 0,0 l/m² 1,7 km/h (1 Bft) W 265 ° 0 min 0 W/m² 10,6 °C 12,7 °C 3,2 km/h (1 Bft)
12.10.2025 06:33 21,0 °C 12,7 °C 64 % 87 % 1028,8 hPa 0,0 l/m² 0,2 km/h (0 Bft) W 265 ° 0 min 0 W/m² 10,6 °C 12,7 °C 1,6 km/h (1 Bft)
12.10.2025 06:34 21,0 °C 12,7 °C 64 % 87 % 1028,7 hPa 0,0 l/m² 1,3 km/h (1 Bft) W 265 ° 0 min 0 W/m² 10,6 °C 12,7 °C 3,2 km/h (1 Bft)
12.10.2025 06:35 20,9 °C 12,6 °C 64 % 87 % 1028,7 hPa 0,0 l/m² 1,9 km/h (1 Bft) W 277 ° 0 min 0 W/m² 10,5 °C 12,6 °C 6,4 km/h (2 Bft)
12.10.2025 06:36 21,0 °C 12,7 °C 64 % 86 % 1028,7 hPa 0,0 l/m² 2,5 km/h (1 Bft) W 260 ° 0 min 0 W/m² 10,4 °C 12,7 °C 4,8 km/h (1 Bft)
12.10.2025 06:37 21,0 °C 12,7 °C 64 % 87 % 1028,8 hPa 0,0 l/m² 1,8 km/h (1 Bft) W 267 ° 0 min 0 W/m² 10,6 °C 12,7 °C 3,2 km/h (1 Bft)
12.10.2025 06:38 21,0 °C 12,6 °C 64 % 87 % 1028,8 hPa 0,0 l/m² 0,7 km/h (0 Bft) W 267 ° 0 min 0 W/m² 10,5 °C 12,6 °C 1,6 km/h (1 Bft)
12.10.2025 06:39 20,9 °C 12,6 °C 64 % 87 % 1028,8 hPa 0,0 l/m² 0,5 km/h (0 Bft) W 267 ° 0 min 0 W/m² 10,5 °C 12,6 °C 1,6 km/h (1 Bft)
12.10.2025 06:40 21,0 °C 12,6 °C 64 % 87 % 1028,8 hPa 0,0 l/m² 0,9 km/h (0 Bft) W 270 ° 0 min 0 W/m² 10,5 °C 12,6 °C 3,2 km/h (1 Bft)
12.10.2025 06:42 21,0 °C 12,6 °C 64 % 87 % 1028,8 hPa 0,0 l/m² 0,6 km/h (0 Bft) W 271 ° 0 min 0 W/m² 10,5 °C 12,6 °C 3,2 km/h (1 Bft)
12.10.2025 06:43 20,9 °C 12,6 °C 64 % 87 % 1028,8 hPa 0,0 l/m² 0,0 km/h (0 Bft) W 271 ° 0 min 0 W/m² 10,5 °C 12,6 °C 0,0 km/h (0 Bft)
12.10.2025 06:45 21,0 °C 12,6 °C 64 % 87 % 1028,8 hPa 0,0 l/m² 0,1 km/h (0 Bft) W 273 ° 0 min 0 W/m² 10,5 °C 12,6 °C 1,6 km/h (1 Bft)
12.10.2025 06:46 20,9 °C 12,6 °C 64 % 87 % 1028,9 hPa 0,0 l/m² 0,0 km/h (0 Bft) W 273 ° 0 min 0 W/m² 10,5 °C 12,6 °C 0,0 km/h (0 Bft)
12.10.2025 06:47 21,0 °C 12,6 °C 64 % 87 % 1028,8 hPa 0,0 l/m² 0,4 km/h (0 Bft) W 273 ° 0 min 0 W/m² 10,5 °C 12,6 °C 1,6 km/h (1 Bft)
12.10.2025 06:48 20,9 °C 12,6 °C 64 % 87 % 1028,9 hPa 0,0 l/m² 0,9 km/h (0 Bft) W 273 ° 0 min 0 W/m² 10,5 °C 12,6 °C 1,6 km/h (1 Bft)
12.10.2025 06:49 21,0 °C 12,6 °C 64 % 87 % 1028,8 hPa 0,0 l/m² 1,3 km/h (1 Bft) W 273 ° 0 min 0 W/m² 10,5 °C 12,6 °C 3,2 km/h (1 Bft)
12.10.2025 06:50 21,0 °C 12,6 °C 64 % 87 % 1028,8 hPa 0,0 l/m² 0,4 km/h (0 Bft) W 273 ° 0 min 0 W/m² 10,5 °C 12,6 °C 1,6 km/h (1 Bft)
12.10.2025 06:51 20,9 °C 12,6 °C 64 % 87 % 1028,8 hPa 0,0 l/m² 0,5 km/h (0 Bft) W 275 ° 0 min 0 W/m² 10,5 °C 12,6 °C 1,6 km/h (1 Bft)
12.10.2025 06:52 21,0 °C 12,6 °C 64 % 87 % 1028,8 hPa 0,0 l/m² 0,2 km/h (0 Bft) W 275 ° 0 min 0 W/m² 10,5 °C 12,6 °C 1,6 km/h (1 Bft)
12.10.2025 06:53 21,0 °C 12,6 °C 64 % 87 % 1028,8 hPa 0,0 l/m² 0,3 km/h (0 Bft) W 275 ° 0 min 0 W/m² 10,5 °C 12,6 °C 3,2 km/h (1 Bft)
12.10.2025 06:54 21,0 °C 12,6 °C 64 % 87 % 1028,8 hPa 0,0 l/m² 0,1 km/h (0 Bft) W 275 ° 0 min 0 W/m² 10,5 °C 12,6 °C 1,6 km/h (1 Bft)
12.10.2025 06:55 20,9 °C 12,6 °C 64 % 87 % 1028,8 hPa 0,0 l/m² 0,7 km/h (0 Bft) W 275 ° 0 min 0 W/m² 10,5 °C 12,6 °C 3,2 km/h (1 Bft)
12.10.2025 06:56 21,0 °C 12,6 °C 64 % 86 % 1028,7 hPa 0,0 l/m² 0,9 km/h (0 Bft) W 274 ° 0 min 0 W/m² 10,3 °C 12,6 °C 3,2 km/h (1 Bft)
12.10.2025 06:57 20,9 °C 12,6 °C 64 % 87 % 1028,7 hPa 0,0 l/m² 2,3 km/h (1 Bft) W 266 ° 0 min 0 W/m² 10,5 °C 12,6 °C 4,8 km/h (1 Bft)
12.10.2025 06:58 21,0 °C 12,6 °C 64 % 86 % 1028,7 hPa 0,0 l/m² 2,0 km/h (1 Bft) W 263 ° 0 min 0 W/m² 10,3 °C 12,6 °C 3,2 km/h (1 Bft)
12.10.2025 06:59 21,0 °C 12,6 °C 64 % 87 % 1028,8 hPa 0,0 l/m² 3,0 km/h (1 Bft) W-SW 238 ° 0 min 0 W/m² 10,5 °C 12,6 °C 8,0 km/h (2 Bft)
12.10.2025 07:00 21,0 °C 12,6 °C 64 % 87 % 1028,7 hPa 0,0 l/m² 4,0 km/h (1 Bft) W 263 ° 0 min 0 W/m² 10,5 °C 12,6 °C 6,4 km/h (2 Bft)
12.10.2025 07:01 21,0 °C 12,6 °C 64 % 87 % 1028,7 hPa 0,0 l/m² 3,3 km/h (1 Bft) W-SW 256 ° 0 min 0 W/m² 10,5 °C 12,6 °C 4,8 km/h (1 Bft)
12.10.2025 07:03 21,0 °C 12,6 °C 64 % 87 % 1028,6 hPa 0,0 l/m² 3,7 km/h (1 Bft) W-SW 258 ° 0 min 0 W/m² 10,5 °C 12,6 °C 6,4 km/h (2 Bft)
12.10.2025 07:04 20,9 °C 12,6 °C 64 % 87 % 1028,6 hPa 0,0 l/m² 2,3 km/h (1 Bft) W-SW 247 ° 0 min 0 W/m² 10,5 °C 12,6 °C 4,8 km/h (1 Bft)
12.10.2025 07:05 20,9 °C 12,6 °C 64 % 87 % 1028,6 hPa 0,0 l/m² 2,3 km/h (1 Bft) W-SW 254 ° 0 min 0 W/m² 10,5 °C 12,6 °C 6,4 km/h (2 Bft)
12.10.2025 07:06 21,0 °C 12,5 °C 64 % 87 % 1028,7 hPa 0,0 l/m² 5,0 km/h (1 Bft) W-SW 252 ° 0 min 0 W/m² 10,4 °C 12,5 °C 6,4 km/h (2 Bft)
12.10.2025 07:08 20,9 °C 12,5 °C 64 % 87 % 1028,6 hPa 0,0 l/m² 3,6 km/h (1 Bft) W-SW 252 ° 0 min 0 W/m² 10,4 °C 12,5 °C 4,8 km/h (1 Bft)
12.10.2025 07:09 20,9 °C 12,5 °C 64 % 87 % 1028,6 hPa 0,0 l/m² 3,7 km/h (1 Bft) W-SW 245 ° 0 min 0 W/m² 10,4 °C 12,5 °C 6,4 km/h (2 Bft)
12.10.2025 07:10 20,9 °C 12,5 °C 64 % 87 % 1028,6 hPa 0,0 l/m² 1,7 km/h (1 Bft) W-SW 245 ° 0 min 0 W/m² 10,4 °C 12,5 °C 3,2 km/h (1 Bft)
12.10.2025 07:11 20,9 °C 12,5 °C 64 % 87 % 1028,6 hPa 0,0 l/m² 1,5 km/h (1 Bft) W-SW 245 ° 0 min 0 W/m² 10,4 °C 12,5 °C 3,2 km/h (1 Bft)
12.10.2025 07:12 20,9 °C 12,5 °C 64 % 87 % 1028,6 hPa 0,0 l/m² 1,5 km/h (1 Bft) W-SW 245 ° 0 min 0 W/m² 10,4 °C 12,5 °C 3,2 km/h (1 Bft)
12.10.2025 07:13 21,0 °C 12,4 °C 64 % 87 % 1028,6 hPa 0,0 l/m² 0,4 km/h (0 Bft) W-SW 245 ° 0 min 0 W/m² 10,3 °C 12,4 °C 3,2 km/h (1 Bft)
12.10.2025 07:14 20,9 °C 12,4 °C 64 % 87 % 1028,6 hPa 0,0 l/m² 0,7 km/h (0 Bft) W-SW 245 ° 0 min 0 W/m² 10,3 °C 12,4 °C 3,2 km/h (1 Bft)
12.10.2025 07:15 20,9 °C 12,5 °C 64 % 87 % 1028,6 hPa 0,0 l/m² 2,0 km/h (1 Bft) W-SW 245 ° 0 min 0 W/m² 10,4 °C 12,5 °C 3,2 km/h (1 Bft)
12.10.2025 07:16 20,9 °C 12,4 °C 64 % 87 % 1028,6 hPa 0,0 l/m² 2,3 km/h (1 Bft) W-SW 246 ° 0 min 0 W/m² 10,3 °C 12,4 °C 3,2 km/h (1 Bft)
12.10.2025 07:17 20,9 °C 12,4 °C 64 % 87 % 1028,6 hPa 0,0 l/m² 1,7 km/h (1 Bft) W-SW 246 ° 0 min 0 W/m² 10,3 °C 12,4 °C 4,8 km/h (1 Bft)
12.10.2025 07:18 21,0 °C 12,4 °C 64 % 87 % 1028,6 hPa 0,0 l/m² 1,0 km/h (0 Bft) W-SW 246 ° 0 min 0 W/m² 10,3 °C 12,4 °C 1,6 km/h (1 Bft)
12.10.2025 07:19 20,9 °C 12,4 °C 64 % 87 % 1028,6 hPa 0,0 l/m² 1,7 km/h (1 Bft) W-SW 246 ° 0 min 0 W/m² 10,3 °C 12,4 °C 3,2 km/h (1 Bft)
12.10.2025 07:20 20,9 °C 12,4 °C 64 % 87 % 1028,6 hPa 0,0 l/m² 0,5 km/h (0 Bft) W-SW 246 ° 0 min 0 W/m² 10,3 °C 12,4 °C 3,2 km/h (1 Bft)
12.10.2025 07:21 20,9 °C 12,4 °C 64 % 87 % 1028,6 hPa 0,0 l/m² 1,1 km/h (1 Bft) W-SW 246 ° 0 min 0 W/m² 10,3 °C 12,4 °C 3,2 km/h (1 Bft)
12.10.2025 07:22 20,9 °C 12,4 °C 64 % 87 % 1028,5 hPa 0,0 l/m² 0,4 km/h (0 Bft) W-SW 246 ° 0 min 0 W/m² 10,3 °C 12,4 °C 1,6 km/h (1 Bft)
12.10.2025 07:23 20,9 °C 12,4 °C 64 % 87 % 1028,6 hPa 0,0 l/m² 1,7 km/h (1 Bft) W-SW 249 ° 0 min 0 W/m² 10,3 °C 12,4 °C 4,8 km/h (1 Bft)
12.10.2025 07:24 20,9 °C 12,4 °C 64 % 87 % 1028,6 hPa 0,0 l/m² 0,1 km/h (0 Bft) W-SW 249 ° 0 min 0 W/m² 10,3 °C 12,4 °C 1,6 km/h (1 Bft)
12.10.2025 07:25 20,9 °C 12,4 °C 64 % 87 % 1028,6 hPa 0,0 l/m² 0,8 km/h (0 Bft) W-SW 249 ° 0 min 0 W/m² 10,3 °C 12,4 °C 3,2 km/h (1 Bft)
12.10.2025 07:26 20,9 °C 12,4 °C 64 % 87 % 1028,6 hPa 0,0 l/m² 1,2 km/h (1 Bft) W-SW 249 ° 0 min 0 W/m² 10,3 °C 12,4 °C 3,2 km/h (1 Bft)
12.10.2025 07:27 20,9 °C 12,4 °C 64 % 87 % 1028,5 hPa 0,0 l/m² 2,6 km/h (1 Bft) W-SW 249 ° 0 min 0 W/m² 10,3 °C 12,4 °C 4,8 km/h (1 Bft)
12.10.2025 07:28 20,9 °C 12,4 °C 64 % 87 % 1028,6 hPa 0,0 l/m² 1,8 km/h (1 Bft) W-SW 251 ° 0 min 0 W/m² 10,3 °C 12,4 °C 3,2 km/h (1 Bft)
12.10.2025 07:29 20,9 °C 12,4 °C 64 % 87 % 1028,6 hPa 0,0 l/m² 3,0 km/h (1 Bft) W 274 ° 0 min 0 W/m² 10,3 °C 12,4 °C 4,8 km/h (1 Bft)
12.10.2025 07:30 20,9 °C 12,4 °C 64 % 87 % 1028,6 hPa 0,0 l/m² 1,7 km/h (1 Bft) W 275 ° 0 min 0 W/m² 10,3 °C 12,4 °C 3,2 km/h (1 Bft)
12.10.2025 07:31 20,9 °C 12,4 °C 64 % 87 % 1028,5 hPa 0,0 l/m² 2,1 km/h (1 Bft) W-SW 254 ° 0 min 0 W/m² 10,3 °C 12,4 °C 4,8 km/h (1 Bft)
12.10.2025 07:32 20,9 °C 12,4 °C 64 % 87 % 1028,5 hPa 0,0 l/m² 0,3 km/h (0 Bft) W-SW 254 ° 0 min 0 W/m² 10,3 °C 12,4 °C 1,6 km/h (1 Bft)
12.10.2025 07:33 20,9 °C 12,4 °C 64 % 87 % 1028,5 hPa 0,0 l/m² 0,2 km/h (0 Bft) W-SW 254 ° 0 min 0 W/m² 10,3 °C 12,4 °C 1,6 km/h (1 Bft)
12.10.2025 07:34 20,9 °C 12,3 °C 64 % 87 % 1028,6 hPa 0,0 l/m² 1,0 km/h (0 Bft) W 259 ° 0 min 0 W/m² 10,2 °C 12,3 °C 3,2 km/h (1 Bft)
12.10.2025 07:35 20,9 °C 12,3 °C 64 % 87 % 1028,5 hPa 0,0 l/m² 1,1 km/h (1 Bft) W 259 ° 0 min 0 W/m² 10,2 °C 12,3 °C 3,2 km/h (1 Bft)
12.10.2025 07:36 20,9 °C 12,3 °C 64 % 87 % 1028,5 hPa 0,0 l/m² 1,3 km/h (1 Bft) W 259 ° 0 min 0 W/m² 10,2 °C 12,3 °C 3,2 km/h (1 Bft)
12.10.2025 07:37 20,9 °C 12,3 °C 64 % 87 % 1028,6 hPa 0,0 l/m² 1,4 km/h (1 Bft) W 259 ° 0 min 0 W/m² 10,2 °C 12,3 °C 3,2 km/h (1 Bft)
12.10.2025 07:38 20,9 °C 12,3 °C 64 % 87 % 1028,6 hPa 0,0 l/m² 0,2 km/h (0 Bft) W 259 ° 0 min 0 W/m² 10,2 °C 12,3 °C 1,6 km/h (1 Bft)
12.10.2025 07:39 20,9 °C 12,3 °C 64 % 87 % 1028,6 hPa 0,0 l/m² 0,0 km/h (0 Bft) W 259 ° 0 min 0 W/m² 10,2 °C 12,3 °C 0,0 km/h (0 Bft)
12.10.2025 07:40 20,9 °C 12,3 °C 64 % 87 % 1028,6 hPa 0,0 l/m² 0,0 km/h (0 Bft) W 259 ° 0 min 0 W/m² 10,2 °C 12,3 °C 0,0 km/h (0 Bft)
12.10.2025 07:41 20,9 °C 12,3 °C 64 % 87 % 1028,6 hPa 0,0 l/m² 0,0 km/h (0 Bft) W 259 ° 0 min 0 W/m² 10,2 °C 12,3 °C 0,0 km/h (0 Bft)
12.10.2025 07:42 20,9 °C 12,3 °C 64 % 87 % 1028,7 hPa 0,0 l/m² 0,0 km/h (0 Bft) W 259 ° 0 min 5 W/m² 10,2 °C 12,3 °C 0,0 km/h (0 Bft)
12.10.2025 07:43 20,9 °C 12,3 °C 64 % 87 % 1028,7 hPa 0,0 l/m² 0,0 km/h (0 Bft) W 259 ° 0 min 5 W/m² 10,2 °C 12,3 °C 0,0 km/h (0 Bft)
12.10.2025 07:44 20,9 °C 12,3 °C 64 % 87 % 1028,7 hPa 0,0 l/m² 0,8 km/h (0 Bft) W 259 ° 0 min 5 W/m² 10,2 °C 12,3 °C 3,2 km/h (1 Bft)
12.10.2025 07:45 20,9 °C 12,3 °C 64 % 87 % 1028,6 hPa 0,0 l/m² 0,1 km/h (0 Bft) W 259 ° 0 min 5 W/m² 10,2 °C 12,3 °C 1,6 km/h (1 Bft)
12.10.2025 07:46 20,9 °C 12,3 °C 64 % 87 % 1028,7 hPa 0,0 l/m² 0,9 km/h (0 Bft) W 259 ° 0 min 7 W/m² 10,2 °C 12,3 °C 3,2 km/h (1 Bft)
12.10.2025 07:47 20,9 °C 12,3 °C 64 % 87 % 1028,6 hPa 0,0 l/m² 0,3 km/h (0 Bft) W 259 ° 0 min 7 W/m² 10,2 °C 12,3 °C 1,6 km/h (1 Bft)
12.10.2025 07:48 20,9 °C 12,3 °C 64 % 87 % 1028,6 hPa 0,0 l/m² 0,1 km/h (0 Bft) W 259 ° 0 min 7 W/m² 10,2 °C 12,3 °C 1,6 km/h (1 Bft)
12.10.2025 07:49 20,9 °C 12,3 °C 64 % 87 % 1028,6 hPa 0,0 l/m² 0,7 km/h (0 Bft) W 259 ° 0 min 7 W/m² 10,2 °C 12,3 °C 1,6 km/h (1 Bft)
12.10.2025 07:50 20,9 °C 12,3 °C 64 % 87 % 1028,6 hPa 0,0 l/m² 0,5 km/h (0 Bft) W 259 ° 0 min 7 W/m² 10,2 °C 12,3 °C 3,2 km/h (1 Bft)
12.10.2025 07:51 20,9 °C 12,3 °C 64 % 87 % 1028,6 hPa 0,0 l/m² 0,9 km/h (0 Bft) W 259 ° 0 min 7 W/m² 10,2 °C 12,3 °C 3,2 km/h (1 Bft)
12.10.2025 07:52 20,9 °C 12,3 °C 64 % 87 % 1028,6 hPa 0,0 l/m² 0,5 km/h (0 Bft) W 259 ° 0 min 9 W/m² 10,2 °C 12,3 °C 3,2 km/h (1 Bft)
12.10.2025 07:53 20,9 °C 12,3 °C 64 % 87 % 1028,5 hPa 0,0 l/m² 1,1 km/h (1 Bft) W 259 ° 0 min 9 W/m² 10,2 °C 12,3 °C 3,2 km/h (1 Bft)
12.10.2025 07:54 20,9 °C 12,3 °C 64 % 87 % 1028,6 hPa 0,0 l/m² 1,3 km/h (1 Bft) W 259 ° 0 min 11 W/m² 10,2 °C 12,3 °C 3,2 km/h (1 Bft)
12.10.2025 07:55 20,9 °C 12,3 °C 64 % 87 % 1028,6 hPa 0,0 l/m² 0,5 km/h (0 Bft) W 259 ° 0 min 11 W/m² 10,2 °C 12,3 °C 1,6 km/h (1 Bft)
12.10.2025 07:56 20,9 °C 12,3 °C 64 % 87 % 1028,6 hPa 0,0 l/m² 1,3 km/h (1 Bft) W 259 ° 0 min 11 W/m² 10,2 °C 12,3 °C 3,2 km/h (1 Bft)
12.10.2025 07:57 20,9 °C 12,3 °C 64 % 87 % 1028,7 hPa 0,0 l/m² 0,8 km/h (0 Bft) W 259 ° 0 min 11 W/m² 10,2 °C 12,3 °C 3,2 km/h (1 Bft)
12.10.2025 07:58 20,9 °C 12,3 °C 64 % 87 % 1028,7 hPa 0,0 l/m² 0,8 km/h (0 Bft) W 259 ° 0 min 12 W/m² 10,2 °C 12,3 °C 3,2 km/h (1 Bft)
12.10.2025 07:59 20,9 °C 12,3 °C 64 % 87 % 1028,6 hPa 0,0 l/m² 2,1 km/h (1 Bft) W 259 ° 0 min 12 W/m² 10,2 °C 12,3 °C 4,8 km/h (1 Bft)
12.10.2025 08:00 20,9 °C 12,3 °C 64 % 87 % 1028,6 hPa 0,0 l/m² 2,3 km/h (1 Bft) W 264 ° 0 min 12 W/m² 10,2 °C 12,3 °C 4,8 km/h (1 Bft)
12.10.2025 08:01 20,9 °C 12,2 °C 64 % 87 % 1028,6 hPa 0,0 l/m² 2,5 km/h (1 Bft) W 265 ° 0 min 14 W/m² 10,1 °C 12,2 °C 4,8 km/h (1 Bft)
12.10.2025 08:02 20,9 °C 12,3 °C 64 % 87 % 1028,6 hPa 0,0 l/m² 2,0 km/h (1 Bft) W 261 ° 0 min 14 W/m² 10,2 °C 12,3 °C 4,8 km/h (1 Bft)
12.10.2025 08:03 20,9 °C 12,2 °C 64 % 87 % 1028,5 hPa 0,0 l/m² 2,0 km/h (1 Bft) W 264 ° 0 min 12 W/m² 10,1 °C 12,2 °C 3,2 km/h (1 Bft)
12.10.2025 08:04 20,9 °C 12,2 °C 64 % 87 % 1028,6 hPa 0,0 l/m² 3,5 km/h (1 Bft) W 262 ° 0 min 14 W/m² 10,1 °C 12,2 °C 6,4 km/h (2 Bft)
12.10.2025 08:05 20,9 °C 12,3 °C 64 % 87 % 1028,6 hPa 0,0 l/m² 3,3 km/h (1 Bft) W 264 ° 0 min 14 W/m² 10,2 °C 12,3 °C 4,8 km/h (1 Bft)
12.10.2025 08:06 20,9 °C 12,2 °C 64 % 87 % 1028,7 hPa 0,0 l/m² 3,2 km/h (1 Bft) W 267 ° 0 min 16 W/m² 10,1 °C 12,2 °C 4,8 km/h (1 Bft)
12.10.2025 08:07 20,9 °C 12,2 °C 64 % 87 % 1028,6 hPa 0,0 l/m² 2,5 km/h (1 Bft) W 266 ° 0 min 18 W/m² 10,1 °C 12,2 °C 4,8 km/h (1 Bft)
12.10.2025 08:08 20,9 °C 12,3 °C 64 % 87 % 1028,6 hPa 0,0 l/m² 0,9 km/h (0 Bft) W 266 ° 0 min 19 W/m² 10,2 °C 12,3 °C 3,2 km/h (1 Bft)
12.10.2025 08:09 20,9 °C 12,3 °C 64 % 87 % 1028,7 hPa 0,0 l/m² 0,4 km/h (0 Bft) W 266 ° 0 min 19 W/m² 10,2 °C 12,3 °C 1,6 km/h (1 Bft)
12.10.2025 08:10 20,9 °C 12,2 °C 64 % 87 % 1028,7 hPa 0,0 l/m² 3,3 km/h (1 Bft) W 259 ° 0 min 21 W/m² 10,1 °C 12,2 °C 6,4 km/h (2 Bft)
12.10.2025 08:11 20,9 °C 12,3 °C 64 % 87 % 1028,7 hPa 0,0 l/m² 3,8 km/h (1 Bft) SW 227 ° 0 min 21 W/m² 10,2 °C 12,3 °C 4,8 km/h (1 Bft)
12.10.2025 08:12 20,9 °C 12,3 °C 64 % 87 % 1028,6 hPa 0,0 l/m² 4,0 km/h (1 Bft) W-SW 251 ° 0 min 23 W/m² 10,2 °C 12,3 °C 9,7 km/h (2 Bft)
12.10.2025 08:13 20,9 °C 12,2 °C 64 % 87 % 1028,6 hPa 0,0 l/m² 4,2 km/h (1 Bft) W-SW 254 ° 0 min 23 W/m² 10,1 °C 12,2 °C 4,8 km/h (1 Bft)
12.10.2025 08:14 20,9 °C 12,3 °C 64 % 87 % 1028,6 hPa 0,0 l/m² 1,8 km/h (1 Bft) W-SW 254 ° 0 min 25 W/m² 10,2 °C 12,3 °C 4,8 km/h (1 Bft)
12.10.2025 08:15 20,9 °C 12,3 °C 64 % 87 % 1028,6 hPa 0,0 l/m² 3,1 km/h (1 Bft) W-SW 256 ° 0 min 26 W/m² 10,2 °C 12,3 °C 6,4 km/h (2 Bft)
12.10.2025 08:16 20,9 °C 12,3 °C 64 % 87 % 1028,6 hPa 0,0 l/m² 1,5 km/h (1 Bft) W-SW 256 ° 0 min 30 W/m² 10,2 °C 12,3 °C 4,8 km/h (1 Bft)
12.10.2025 08:17 20,9 °C 12,2 °C 64 % 87 % 1028,7 hPa 0,0 l/m² 2,8 km/h (1 Bft) W 261 ° 0 min 32 W/m² 10,1 °C 12,2 °C 6,4 km/h (2 Bft)
12.10.2025 08:18 20,9 °C 12,3 °C 64 % 87 % 1028,7 hPa 0,0 l/m² 3,4 km/h (1 Bft) W 266 ° 0 min 33 W/m² 10,2 °C 12,3 °C 4,8 km/h (1 Bft)
12.10.2025 08:19 20,9 °C 12,3 °C 64 % 87 % 1028,8 hPa 0,0 l/m² 4,5 km/h (1 Bft) W 264 ° 0 min 37 W/m² 10,2 °C 12,3 °C 11,3 km/h (2 Bft)
12.10.2025 08:20 20,9 °C 12,3 °C 64 % 87 % 1028,7 hPa 0,0 l/m² 5,4 km/h (2 Bft) W-SW 243 ° 0 min 39 W/m² 10,2 °C 12,3 °C 11,3 km/h (2 Bft)
12.10.2025 08:21 20,9 °C 12,3 °C 64 % 87 % 1028,7 hPa 0,0 l/m² 5,0 km/h (1 Bft) W 265 ° 0 min 44 W/m² 10,2 °C 12,3 °C 11,3 km/h (2 Bft)
12.10.2025 08:22 20,9 °C 12,3 °C 64 % 87 % 1028,7 hPa 0,0 l/m² 5,2 km/h (1 Bft) W 262 ° 0 min 46 W/m² 10,2 °C 12,3 °C 9,7 km/h (2 Bft)
12.10.2025 08:23 20,9 °C 12,3 °C 64 % 87 % 1028,8 hPa 0,0 l/m² 4,1 km/h (1 Bft) W 264 ° 0 min 47 W/m² 10,2 °C 12,3 °C 9,7 km/h (2 Bft)
12.10.2025 08:24 20,9 °C 12,3 °C 64 % 87 % 1028,8 hPa 0,0 l/m² 1,8 km/h (1 Bft) W 266 ° 0 min 47 W/m² 10,2 °C 12,3 °C 6,4 km/h (2 Bft)
12.10.2025 08:25 20,9 °C 12,3 °C 64 % 87 % 1028,8 hPa 0,0 l/m² 3,5 km/h (1 Bft) W 269 ° 0 min 47 W/m² 10,2 °C 12,3 °C 4,8 km/h (1 Bft)
12.10.2025 08:26 20,9 °C 12,3 °C 64 % 87 % 1028,8 hPa 0,0 l/m² 3,9 km/h (1 Bft) W 269 ° 0 min 49 W/m² 10,2 °C 12,3 °C 4,8 km/h (1 Bft)
12.10.2025 08:27 20,9 °C 12,3 °C 64 % 87 % 1028,8 hPa 0,0 l/m² 3,4 km/h (1 Bft) W 267 ° 1 min 53 W/m² 10,2 °C 12,3 °C 4,8 km/h (1 Bft)
12.10.2025 08:28 20,9 °C 12,3 °C 64 % 87 % 1028,8 hPa 0,0 l/m² 3,7 km/h (1 Bft) W 264 ° 1 min 53 W/m² 10,2 °C 12,3 °C 4,8 km/h (1 Bft)
12.10.2025 08:29 21,0 °C 12,4 °C 64 % 87 % 1028,8 hPa 0,0 l/m² 4,0 km/h (1 Bft) W 261 ° 1 min 54 W/m² 10,3 °C 12,4 °C 8,0 km/h (2 Bft)
12.10.2025 08:30 20,9 °C 12,4 °C 64 % 87 % 1028,7 hPa 0,0 l/m² 2,5 km/h (1 Bft) W 259 ° 1 min 56 W/m² 10,3 °C 12,4 °C 4,8 km/h (1 Bft)
12.10.2025 08:31 20,9 °C 12,4 °C 64 % 87 % 1028,7 hPa 0,0 l/m² 1,9 km/h (1 Bft) W 259 ° 1 min 56 W/m² 10,3 °C 12,4 °C 4,8 km/h (1 Bft)
12.10.2025 08:32 20,9 °C 12,4 °C 64 % 87 % 1028,8 hPa 0,0 l/m² 3,2 km/h (1 Bft) W 261 ° 1 min 60 W/m² 10,3 °C 12,4 °C 6,4 km/h (2 Bft)
12.10.2025 08:33 20,9 °C 12,4 °C 64 % 87 % 1028,8 hPa 0,0 l/m² 5,7 km/h (2 Bft) W-SW 246 ° 1 min 67 W/m² 10,3 °C 12,4 °C 9,7 km/h (2 Bft)
12.10.2025 08:34 20,9 °C 12,4 °C 64 % 87 % 1028,8 hPa 0,0 l/m² 3,9 km/h (1 Bft) W 273 ° 1 min 69 W/m² 10,3 °C 12,4 °C 9,7 km/h (2 Bft)
12.10.2025 08:35 20,9 °C 12,5 °C 64 % 87 % 1028,8 hPa 0,0 l/m² 4,5 km/h (1 Bft) W-SW 252 ° 1 min 70 W/m² 10,4 °C 12,5 °C 9,7 km/h (2 Bft)
12.10.2025 08:36 20,9 °C 12,5 °C 64 % 87 % 1028,8 hPa 0,0 l/m² 3,8 km/h (1 Bft) W 263 ° 1 min 70 W/m² 10,4 °C 12,5 °C 6,4 km/h (2 Bft)
12.10.2025 08:37 20,9 °C 12,5 °C 64 % 87 % 1028,8 hPa 0,0 l/m² 6,0 km/h (2 Bft) W-SW 244 ° 1 min 72 W/m² 10,4 °C 12,5 °C 11,3 km/h (2 Bft)
12.10.2025 08:38 20,9 °C 12,5 °C 64 % 87 % 1028,8 hPa 0,0 l/m² 6,9 km/h (2 Bft) W 273 ° 1 min 72 W/m² 10,4 °C 12,2 °C 11,3 km/h (2 Bft)
12.10.2025 08:39 21,0 °C 12,5 °C 64 % 87 % 1028,8 hPa 0,0 l/m² 4,6 km/h (1 Bft) W 269 ° 1 min 74 W/m² 10,4 °C 12,5 °C 11,3 km/h (2 Bft)
12.10.2025 08:40 21,0 °C 12,6 °C 64 % 87 % 1028,8 hPa 0,0 l/m² 6,6 km/h (2 Bft) W-SW 254 ° 1 min 70 W/m² 10,5 °C 12,5 °C 11,3 km/h (2 Bft)
12.10.2025 08:41 20,9 °C 12,6 °C 64 % 87 % 1028,8 hPa 0,0 l/m² 3,3 km/h (1 Bft) W 261 ° 1 min 67 W/m² 10,5 °C 12,6 °C 8,0 km/h (2 Bft)
12.10.2025 08:42 21,0 °C 12,6 °C 64 % 87 % 1028,8 hPa 0,0 l/m² 4,1 km/h (1 Bft) W 260 ° 1 min 67 W/m² 10,5 °C 12,6 °C 6,4 km/h (2 Bft)
12.10.2025 08:43 21,0 °C 12,6 °C 64 % 87 % 1028,8 hPa 0,0 l/m² 5,2 km/h (1 Bft) W 259 ° 1 min 69 W/m² 10,5 °C 12,6 °C 9,7 km/h (2 Bft)
12.10.2025 08:44 21,0 °C 12,7 °C 64 % 87 % 1028,8 hPa 0,0 l/m² 4,6 km/h (1 Bft) W-SW 240 ° 1 min 72 W/m² 10,6 °C 12,7 °C 8,0 km/h (2 Bft)
12.10.2025 08:45 21,0 °C 12,7 °C 64 % 87 % 1028,8 hPa 0,0 l/m² 4,8 km/h (1 Bft) W 266 ° 1 min 76 W/m² 10,6 °C 12,7 °C 8,0 km/h (2 Bft)
12.10.2025 08:46 21,0 °C 12,7 °C 64 % 87 % 1028,8 hPa 0,0 l/m² 5,8 km/h (2 Bft) W 266 ° 1 min 79 W/m² 10,6 °C 12,7 °C 11,3 km/h (2 Bft)
12.10.2025 08:47 21,0 °C 12,7 °C 64 % 87 % 1028,7 hPa 0,0 l/m² 6,0 km/h (2 Bft) W-SW 256 ° 1 min 81 W/m² 10,6 °C 12,7 °C 11,3 km/h (2 Bft)
12.10.2025 08:48 21,0 °C 12,7 °C 64 % 87 % 1028,8 hPa 0,0 l/m² 6,8 km/h (2 Bft) W-SW 245 ° 1 min 84 W/m² 10,6 °C 12,5 °C 12,9 km/h (3 Bft)
12.10.2025 08:49 21,0 °C 12,7 °C 64 % 87 % 1028,8 hPa 0,0 l/m² 8,0 km/h (2 Bft) W-SW 257 ° 1 min 88 W/m² 10,6 °C 11,7 °C 12,9 km/h (3 Bft)
12.10.2025 08:50 21,0 °C 12,7 °C 64 % 87 % 1028,7 hPa 0,0 l/m² 8,9 km/h (2 Bft) W-NW 289 ° 1 min 97 W/m² 10,6 °C 11,2 °C 16,1 km/h (3 Bft)
12.10.2025 08:51 21,0 °C 12,8 °C 64 % 87 % 1028,7 hPa 0,0 l/m² 8,8 km/h (2 Bft) W-NW 290 ° 1 min 91 W/m² 10,7 °C 11,3 °C 14,5 km/h (3 Bft)
12.10.2025 08:52 21,0 °C 12,8 °C 64 % 87 % 1028,8 hPa 0,0 l/m² 9,7 km/h (2 Bft) SW 234 ° 1 min 90 W/m² 10,7 °C 10,8 °C 16,1 km/h (3 Bft)
12.10.2025 08:53 21,0 °C 12,8 °C 64 % 86 % 1028,8 hPa 0,0 l/m² 9,5 km/h (2 Bft) W-SW 246 ° 1 min 93 W/m² 10,5 °C 10,9 °C 16,1 km/h (3 Bft)
12.10.2025 08:54 21,0 °C 12,8 °C 64 % 86 % 1028,8 hPa 0,0 l/m² 11,4 km/h (2 Bft) W 277 ° 1 min 95 W/m² 10,5 °C 10,0 °C 17,7 km/h (3 Bft)
12.10.2025 08:55 21,0 °C 12,8 °C 64 % 86 % 1028,8 hPa 0,0 l/m² 8,8 km/h (2 Bft) W-NW 292 ° 1 min 95 W/m² 10,5 °C 11,3 °C 12,9 km/h (3 Bft)
12.10.2025 08:56 21,0 °C 12,8 °C 64 % 86 % 1028,8 hPa 0,0 l/m² 8,0 km/h (2 Bft) W-SW 254 ° 1 min 79 W/m² 10,5 °C 11,8 °C 12,9 km/h (3 Bft)
12.10.2025 08:57 21,0 °C 12,8 °C 65 % 86 % 1028,8 hPa 0,0 l/m² 9,9 km/h (2 Bft) W-SW 256 ° 1 min 76 W/m² 10,5 °C 10,7 °C 17,7 km/h (3 Bft)
12.10.2025 08:58 21,1 °C 12,8 °C 65 % 86 % 1028,8 hPa 0,0 l/m² 10,5 km/h (2 Bft) W-SW 243 ° 1 min 72 W/m² 10,5 °C 10,4 °C 16,1 km/h (3 Bft)
12.10.2025 08:59 21,1 °C 12,8 °C 65 % 86 % 1028,6 hPa 0,0 l/m² 13,3 km/h (3 Bft) NW 315 ° 1 min 67 W/m² 10,5 °C 9,2 °C 20,9 km/h (4 Bft)
12.10.2025 09:00 21,1 °C 12,9 °C 65 % 86 % 1028,8 hPa 0,0 l/m² 11,5 km/h (2 Bft) W-NW 296 ° 1 min 63 W/m² 10,6 °C 10,1 °C 19,3 km/h (3 Bft)
12.10.2025 09:01 21,1 °C 12,9 °C 65 % 85 % 1028,7 hPa 0,0 l/m² 9,9 km/h (2 Bft) W-NW 290 ° 1 min 60 W/m² 10,4 °C 10,8 °C 14,5 km/h (3 Bft)
12.10.2025 09:03 21,1 °C 12,9 °C 65 % 85 % 1028,8 hPa 0,0 l/m² 13,6 km/h (3 Bft) W 278 ° 2 min 53 W/m² 10,4 °C 9,2 °C 20,9 km/h (4 Bft)
12.10.2025 09:04 21,1 °C 12,9 °C 65 % 85 % 1028,8 hPa 0,0 l/m² 9,4 km/h (2 Bft) W 265 ° 0 min 51 W/m² 10,4 °C 11,1 °C 14,5 km/h (3 Bft)
12.10.2025 09:05 21,1 °C 12,9 °C 65 % 85 % 1028,8 hPa 0,0 l/m² 9,7 km/h (2 Bft) W 275 ° 0 min 51 W/m² 10,4 °C 11,0 °C 14,5 km/h (3 Bft)
12.10.2025 09:06 21,1 °C 12,9 °C 65 % 85 % 1028,7 hPa 0,0 l/m² 10,9 km/h (2 Bft) W 259 ° 0 min 51 W/m² 10,4 °C 10,4 °C 16,1 km/h (3 Bft)
12.10.2025 09:08 21,1 °C 12,9 °C 65 % 84 % 1028,7 hPa 0,0 l/m² 7,9 km/h (2 Bft) W-SW 257 ° 0 min 51 W/m² 10,3 °C 12,0 °C 14,5 km/h (3 Bft)
12.10.2025 09:09 21,1 °C 13,0 °C 65 % 84 % 1028,8 hPa 0,0 l/m² 5,7 km/h (2 Bft) W-NW 288 ° 0 min 51 W/m² 10,4 °C 13,0 °C 9,7 km/h (2 Bft)
12.10.2025 09:10 21,1 °C 13,0 °C 65 % 84 % 1028,8 hPa 0,0 l/m² 8,2 km/h (2 Bft) W 261 ° 0 min 51 W/m² 10,4 °C 11,9 °C 11,3 km/h (2 Bft)
12.10.2025 09:11 21,1 °C 13,0 °C 65 % 84 % 1028,7 hPa 0,0 l/m² 7,6 km/h (2 Bft) W 269 ° 0 min 51 W/m² 10,4 °C 12,2 °C 12,9 km/h (3 Bft)
12.10.2025 09:12 21,1 °C 13,0 °C 65 % 84 % 1028,8 hPa 0,0 l/m² 7,1 km/h (2 Bft) W 265 ° 1 min 53 W/m² 10,4 °C 12,6 °C 11,3 km/h (2 Bft)
12.10.2025 09:13 21,1 °C 13,0 °C 65 % 84 % 1028,8 hPa 0,0 l/m² 5,4 km/h (2 Bft) W-NW 284 ° 1 min 54 W/m² 10,4 °C 13,0 °C 11,3 km/h (2 Bft)
12.10.2025 09:14 21,1 °C 13,0 °C 64 % 84 % 1028,9 hPa 0,0 l/m² 9,8 km/h (2 Bft) W 271 ° 1 min 58 W/m² 10,4 °C 11,0 °C 17,7 km/h (3 Bft)
12.10.2025 09:15 21,1 °C 13,0 °C 64 % 84 % 1028,8 hPa 0,0 l/m² 9,3 km/h (2 Bft) W 281 ° 1 min 62 W/m² 10,4 °C 11,3 °C 14,5 km/h (3 Bft)
12.10.2025 09:16 21,1 °C 13,0 °C 64 % 84 % 1028,8 hPa 0,0 l/m² 7,4 km/h (2 Bft) W 274 ° 1 min 63 W/m² 10,4 °C 12,4 °C 11,3 km/h (2 Bft)
12.10.2025 09:17 21,1 °C 13,1 °C 64 % 84 % 1028,7 hPa 0,0 l/m² 6,8 km/h (2 Bft) W 261 ° 1 min 65 W/m² 10,5 °C 12,9 °C 12,9 km/h (3 Bft)
12.10.2025 09:18 21,1 °C 13,1 °C 64 % 84 % 1028,7 hPa 0,0 l/m² 5,2 km/h (1 Bft) W 273 ° 1 min 63 W/m² 10,5 °C 13,1 °C 9,7 km/h (2 Bft)
12.10.2025 09:19 21,1 °C 13,1 °C 64 % 84 % 1028,7 hPa 0,0 l/m² 7,4 km/h (2 Bft) NW 312 ° 1 min 58 W/m² 10,5 °C 12,5 °C 12,9 km/h (3 Bft)
12.10.2025 09:20 21,1 °C 13,1 °C 63 % 84 % 1028,8 hPa 0,0 l/m² 10,2 km/h (2 Bft) W 261 ° 0 min 51 W/m² 10,5 °C 10,9 °C 12,9 km/h (3 Bft)
12.10.2025 09:21 21,1 °C 13,1 °C 63 % 84 % 1028,6 hPa 0,0 l/m² 9,2 km/h (2 Bft) W 277 ° 0 min 51 W/m² 10,5 °C 11,4 °C 14,5 km/h (3 Bft)
12.10.2025 09:22 21,1 °C 13,1 °C 63 % 84 % 1028,6 hPa 0,0 l/m² 8,8 km/h (2 Bft) W 273 ° 0 min 49 W/m² 10,5 °C 11,7 °C 12,9 km/h (3 Bft)
12.10.2025 09:23 21,1 °C 13,1 °C 63 % 84 % 1028,8 hPa 0,0 l/m² 7,2 km/h (2 Bft) W 271 ° 0 min 49 W/m² 10,5 °C 12,6 °C 12,9 km/h (3 Bft)
12.10.2025 09:24 21,1 °C 13,1 °C 63 % 84 % 1028,8 hPa 0,0 l/m² 7,4 km/h (2 Bft) W 277 ° 0 min 49 W/m² 10,5 °C 12,5 °C 11,3 km/h (2 Bft)
12.10.2025 09:25 21,1 °C 13,1 °C 63 % 84 % 1028,7 hPa 0,0 l/m² 7,6 km/h (2 Bft) W 266 ° 0 min 49 W/m² 10,5 °C 12,3 °C 14,5 km/h (3 Bft)
12.10.2025 09:26 21,1 °C 13,1 °C 63 % 84 % 1028,8 hPa 0,0 l/m² 4,8 km/h (1 Bft) W 267 ° 1 min 54 W/m² 10,5 °C 13,1 °C 9,7 km/h (2 Bft)
12.10.2025 09:27 21,1 °C 13,1 °C 63 % 84 % 1028,8 hPa 0,0 l/m² 6,8 km/h (2 Bft) W 259 ° 1 min 58 W/m² 10,5 °C 12,9 °C 11,3 km/h (2 Bft)
12.10.2025 09:28 21,1 °C 13,1 °C 62 % 84 % 1028,9 hPa 0,0 l/m² 11,1 km/h (2 Bft) W 278 ° 1 min 62 W/m² 10,5 °C 10,5 °C 16,1 km/h (3 Bft)
12.10.2025 09:29 21,1 °C 13,1 °C 62 % 84 % 1028,7 hPa 0,0 l/m² 7,8 km/h (2 Bft) W 281 ° 1 min 63 W/m² 10,5 °C 12,2 °C 12,9 km/h (3 Bft)
12.10.2025 09:30 21,1 °C 13,1 °C 62 % 84 % 1028,7 hPa 0,0 l/m² 11,3 km/h (2 Bft) W 281 ° 1 min 69 W/m² 10,5 °C 10,4 °C 16,1 km/h (3 Bft)
12.10.2025 09:31 21,0 °C 13,1 °C 62 % 83 % 1028,7 hPa 0,0 l/m² 4,4 km/h (1 Bft) W 278 ° 1 min 72 W/m² 10,3 °C 13,1 °C 9,7 km/h (2 Bft)
12.10.2025 09:32 21,1 °C 13,1 °C 62 % 83 % 1028,8 hPa 0,0 l/m² 9,5 km/h (2 Bft) W-SW 253 ° 1 min 74 W/m² 10,3 °C 11,3 °C 14,5 km/h (3 Bft)
12.10.2025 09:33 21,0 °C 13,1 °C 62 % 83 % 1028,7 hPa 0,0 l/m² 7,4 km/h (2 Bft) W-SW 250 ° 1 min 74 W/m² 10,3 °C 12,5 °C 12,9 km/h (3 Bft)
12.10.2025 09:34 21,0 °C 13,1 °C 62 % 83 % 1028,8 hPa 0,0 l/m² 10,9 km/h (2 Bft) W 278 ° 1 min 76 W/m² 10,3 °C 10,6 °C 14,5 km/h (3 Bft)
12.10.2025 09:35 21,0 °C 13,1 °C 62 % 83 % 1028,7 hPa 0,0 l/m² 9,9 km/h (2 Bft) W-NW 289 ° 1 min 77 W/m² 10,3 °C 11,1 °C 14,5 km/h (3 Bft)
12.10.2025 09:36 21,0 °C 13,1 °C 62 % 83 % 1028,8 hPa 0,0 l/m² 5,8 km/h (2 Bft) W 265 ° 1 min 77 W/m² 10,3 °C 13,1 °C 11,3 km/h (2 Bft)
12.10.2025 09:37 21,0 °C 13,1 °C 61 % 83 % 1028,8 hPa 0,0 l/m² 5,2 km/h (1 Bft) W-SW 238 ° 1 min 72 W/m² 10,3 °C 13,1 °C 9,7 km/h (2 Bft)
12.10.2025 09:38 21,0 °C 13,1 °C 61 % 84 % 1028,7 hPa 0,0 l/m² 9,6 km/h (2 Bft) W 272 ° 1 min 70 W/m² 10,5 °C 11,2 °C 14,5 km/h (3 Bft)
12.10.2025 09:39 21,0 °C 13,1 °C 61 % 83 % 1028,7 hPa 0,0 l/m² 5,8 km/h (2 Bft) W-NW 285 ° 1 min 70 W/m² 10,3 °C 13,1 °C 11,3 km/h (2 Bft)
12.10.2025 09:40 21,0 °C 13,1 °C 61 % 83 % 1028,7 hPa 0,0 l/m² 6,9 km/h (2 Bft) W 277 ° 1 min 72 W/m² 10,3 °C 12,8 °C 16,1 km/h (3 Bft)
12.10.2025 09:41 21,0 °C 13,1 °C 61 % 83 % 1028,6 hPa 0,0 l/m² 8,9 km/h (2 Bft) W-NW 283 ° 1 min 72 W/m² 10,3 °C 11,6 °C 14,5 km/h (3 Bft)
12.10.2025 09:42 21,0 °C 13,1 °C 61 % 83 % 1028,6 hPa 0,0 l/m² 8,0 km/h (2 Bft) W 269 ° 1 min 74 W/m² 10,3 °C 12,1 °C 14,5 km/h (3 Bft)
12.10.2025 09:43 21,0 °C 13,1 °C 61 % 83 % 1028,6 hPa 0,0 l/m² 10,9 km/h (2 Bft) W 269 ° 1 min 81 W/m² 10,3 °C 10,6 °C 17,7 km/h (3 Bft)
12.10.2025 09:44 21,0 °C 13,1 °C 61 % 83 % 1028,6 hPa 0,0 l/m² 7,5 km/h (2 Bft) W 270 ° 1 min 86 W/m² 10,3 °C 12,4 °C 12,9 km/h (3 Bft)
12.10.2025 09:46 21,0 °C 13,1 °C 61 % 83 % 1028,6 hPa 0,0 l/m² 7,7 km/h (2 Bft) W 267 ° 2 min 93 W/m² 10,3 °C 12,3 °C 14,5 km/h (3 Bft)
12.10.2025 09:47 21,0 °C 13,1 °C 61 % 83 % 1028,6 hPa 0,0 l/m² 9,8 km/h (2 Bft) W-NW 289 ° 1 min 95 W/m² 10,3 °C 11,1 °C 14,5 km/h (3 Bft)
12.10.2025 09:48 21,0 °C 13,2 °C 61 % 83 % 1028,6 hPa 0,0 l/m² 5,5 km/h (2 Bft) W 265 ° 1 min 98 W/m² 10,4 °C 13,2 °C 11,3 km/h (2 Bft)
12.10.2025 09:49 21,0 °C 13,1 °C 61 % 83 % 1028,6 hPa 0,0 l/m² 6,3 km/h (2 Bft) W 266 ° 1 min 107 W/m² 10,3 °C 13,1 °C 11,3 km/h (2 Bft)
12.10.2025 09:50 20,9 °C 13,2 °C 61 % 83 % 1028,6 hPa 0,0 l/m² 7,1 km/h (2 Bft) W-SW 250 ° 1 min 114 W/m² 10,4 °C 12,8 °C 17,7 km/h (3 Bft)
12.10.2025 09:51 20,9 °C 13,1 °C 61 % 83 % 1028,5 hPa 0,0 l/m² 11,0 km/h (2 Bft) W 273 ° 1 min 121 W/m² 10,3 °C 10,5 °C 14,5 km/h (3 Bft)
12.10.2025 09:52 20,9 °C 13,2 °C 61 % 83 % 1028,5 hPa 0,0 l/m² 7,0 km/h (2 Bft) W 261 ° 1 min 125 W/m² 10,4 °C 12,8 °C 11,3 km/h (2 Bft)
12.10.2025 09:53 21,0 °C 13,2 °C 61 % 83 % 1028,6 hPa 0,0 l/m² 8,2 km/h (2 Bft) W-SW 249 ° 1 min 128 W/m² 10,4 °C 12,1 °C 17,7 km/h (3 Bft)
12.10.2025 09:54 21,0 °C 13,2 °C 61 % 83 % 1028,5 hPa 0,0 l/m² 7,6 km/h (2 Bft) W 265 ° 1 min 132 W/m² 10,4 °C 12,5 °C 12,9 km/h (3 Bft)
12.10.2025 09:55 20,9 °C 13,2 °C 61 % 83 % 1028,5 hPa 0,0 l/m² 8,6 km/h (2 Bft) W 279 ° 1 min 134 W/m² 10,4 °C 11,9 °C 14,5 km/h (3 Bft)
12.10.2025 09:56 21,0 °C 13,2 °C 61 % 83 % 1028,5 hPa 0,0 l/m² 7,1 km/h (2 Bft) NW 318 ° 1 min 139 W/m² 10,4 °C 12,8 °C 11,3 km/h (2 Bft)
12.10.2025 09:57 21,0 °C 13,2 °C 61 % 83 % 1028,5 hPa 0,0 l/m² 6,1 km/h (2 Bft) W-SW 252 ° 1 min 142 W/m² 10,4 °C 13,2 °C 11,3 km/h (2 Bft)
12.10.2025 09:58 21,0 °C 13,2 °C 61 % 83 % 1028,5 hPa 0,0 l/m² 9,8 km/h (2 Bft) W 265 ° 1 min 142 W/m² 10,4 °C 11,2 °C 14,5 km/h (3 Bft)
12.10.2025 09:59 21,0 °C 13,3 °C 61 % 83 % 1028,5 hPa 0,0 l/m² 11,0 km/h (2 Bft) W 265 ° 1 min 139 W/m² 10,5 °C 10,8 °C 14,5 km/h (3 Bft)
12.10.2025 10:00 21,0 °C 13,3 °C 61 % 83 % 1028,5 hPa 0,0 l/m² 8,1 km/h (2 Bft) NW 304 ° 1 min 137 W/m² 10,5 °C 12,3 °C 14,5 km/h (3 Bft)
12.10.2025 10:01 20,9 °C 13,3 °C 61 % 83 % 1028,5 hPa 0,0 l/m² 10,5 km/h (2 Bft) W-NW 292 ° 1 min 139 W/m² 10,5 °C 11,0 °C 17,7 km/h (3 Bft)
12.10.2025 10:02 21,0 °C 13,3 °C 61 % 83 % 1028,6 hPa 0,0 l/m² 10,2 km/h (2 Bft) W 267 ° 1 min 141 W/m² 10,5 °C 11,1 °C 16,1 km/h (3 Bft)
12.10.2025 10:03 21,0 °C 13,3 °C 61 % 83 % 1028,6 hPa 0,0 l/m² 5,5 km/h (2 Bft) W-NW 288 ° 1 min 142 W/m² 10,5 °C 13,3 °C 12,9 km/h (3 Bft)
12.10.2025 10:04 21,0 °C 13,3 °C 61 % 82 % 1028,6 hPa 0,0 l/m² 11,7 km/h (2 Bft) W-NW 283 ° 1 min 142 W/m² 10,3 °C 10,4 °C 17,7 km/h (3 Bft)
12.10.2025 10:05 21,0 °C 13,3 °C 61 % 82 % 1028,5 hPa 0,0 l/m² 10,9 km/h (2 Bft) W 267 ° 1 min 146 W/m² 10,3 °C 10,8 °C 14,5 km/h (3 Bft)
12.10.2025 10:06 21,0 °C 13,3 °C 61 % 82 % 1028,5 hPa 0,0 l/m² 10,2 km/h (2 Bft) W 261 ° 1 min 146 W/m² 10,3 °C 11,1 °C 16,1 km/h (3 Bft)
12.10.2025 10:07 21,0 °C 13,3 °C 61 % 82 % 1028,5 hPa 0,0 l/m² 10,6 km/h (2 Bft) W-NW 285 ° 1 min 153 W/m² 10,3 °C 10,9 °C 17,7 km/h (3 Bft)
12.10.2025 10:08 21,0 °C 13,4 °C 61 % 82 % 1028,5 hPa 0,0 l/m² 9,7 km/h (2 Bft) NW 308 ° 1 min 156 W/m² 10,4 °C 11,5 °C 14,5 km/h (3 Bft)
12.10.2025 10:09 21,0 °C 13,4 °C 61 % 82 % 1028,6 hPa 0,0 l/m² 8,0 km/h (2 Bft) W 269 ° 1 min 156 W/m² 10,4 °C 12,4 °C 16,1 km/h (3 Bft)
12.10.2025 10:10 21,0 °C 13,4 °C 61 % 82 % 1028,5 hPa 0,0 l/m² 8,6 km/h (2 Bft) W-NW 284 ° 1 min 158 W/m² 10,4 °C 12,1 °C 19,3 km/h (3 Bft)
12.10.2025 10:11 20,9 °C 13,4 °C 61 % 82 % 1028,5 hPa 0,0 l/m² 13,3 km/h (3 Bft) W-NW 300 ° 1 min 158 W/m² 10,4 °C 9,9 °C 17,7 km/h (3 Bft)
12.10.2025 10:12 21,0 °C 13,4 °C 61 % 82 % 1028,5 hPa 0,0 l/m² 10,7 km/h (2 Bft) W 271 ° 1 min 156 W/m² 10,4 °C 11,0 °C 17,7 km/h (3 Bft)
12.10.2025 10:13 21,0 °C 13,4 °C 61 % 82 % 1028,5 hPa 0,0 l/m² 7,8 km/h (2 Bft) W-SW 240 ° 1 min 151 W/m² 10,4 °C 12,5 °C 14,5 km/h (3 Bft)
12.10.2025 10:14 21,0 °C 13,5 °C 61 % 82 % 1028,5 hPa 0,0 l/m² 9,0 km/h (2 Bft) W 267 ° 1 min 151 W/m² 10,5 °C 12,0 °C 16,1 km/h (3 Bft)
12.10.2025 10:15 20,9 °C 13,5 °C 61 % 82 % 1028,5 hPa 0,0 l/m² 8,5 km/h (2 Bft) W 280 ° 1 min 151 W/m² 10,5 °C 12,2 °C 14,5 km/h (3 Bft)
12.10.2025 10:16 20,9 °C 13,5 °C 61 % 82 % 1028,5 hPa 0,0 l/m² 8,7 km/h (2 Bft) W-SW 257 ° 1 min 149 W/m² 10,5 °C 12,1 °C 16,1 km/h (3 Bft)
12.10.2025 10:17 20,9 °C 13,6 °C 61 % 82 % 1028,5 hPa 0,0 l/m² 9,0 km/h (2 Bft) W 261 ° 1 min 144 W/m² 10,6 °C 12,1 °C 16,1 km/h (3 Bft)
12.10.2025 10:18 21,0 °C 13,6 °C 61 % 82 % 1028,4 hPa 0,0 l/m² 7,6 km/h (2 Bft) W-SW 252 ° 1 min 128 W/m² 10,6 °C 12,9 °C 14,5 km/h (3 Bft)
12.10.2025 10:19 21,0 °C 13,6 °C 61 % 82 % 1028,4 hPa 0,0 l/m² 9,0 km/h (2 Bft) W 261 ° 1 min 123 W/m² 10,6 °C 12,1 °C 16,1 km/h (3 Bft)
12.10.2025 10:20 21,0 °C 13,6 °C 61 % 82 % 1028,4 hPa 0,0 l/m² 8,6 km/h (2 Bft) W 259 ° 1 min 120 W/m² 10,6 °C 12,3 °C 12,9 km/h (3 Bft)
12.10.2025 10:21 21,0 °C 13,6 °C 61 % 82 % 1028,4 hPa 0,0 l/m² 8,0 km/h (2 Bft) W-NW 284 ° 1 min 120 W/m² 10,6 °C 12,6 °C 14,5 km/h (3 Bft)
12.10.2025 10:22 21,0 °C 13,6 °C 61 % 81 % 1028,4 hPa 0,0 l/m² 11,6 km/h (2 Bft) W 279 ° 1 min 121 W/m² 10,4 °C 10,8 °C 16,1 km/h (3 Bft)
12.10.2025 10:23 21,0 °C 13,6 °C 61 % 81 % 1028,4 hPa 0,0 l/m² 10,8 km/h (2 Bft) W 263 ° 1 min 123 W/m² 10,4 °C 11,2 °C 19,3 km/h (3 Bft)
12.10.2025 10:24 21,0 °C 13,6 °C 61 % 81 % 1028,4 hPa 0,0 l/m² 14,3 km/h (3 Bft) W-NW 286 ° 1 min 134 W/m² 10,4 °C 9,7 °C 19,3 km/h (3 Bft)
12.10.2025 10:25 21,0 °C 13,6 °C 61 % 81 % 1028,5 hPa 0,0 l/m² 8,4 km/h (2 Bft) W 276 ° 1 min 144 W/m² 10,4 °C 12,4 °C 17,7 km/h (3 Bft)
12.10.2025 10:26 21,0 °C 13,6 °C 61 % 81 % 1028,5 hPa 0,0 l/m² 4,4 km/h (1 Bft) W 265 ° 1 min 153 W/m² 10,4 °C 13,6 °C 6,4 km/h (2 Bft)
12.10.2025 10:27 21,0 °C 13,6 °C 61 % 81 % 1028,4 hPa 0,0 l/m² 7,0 km/h (2 Bft) W 263 ° 1 min 155 W/m² 10,4 °C 13,2 °C 12,9 km/h (3 Bft)
12.10.2025 10:28 21,0 °C 13,6 °C 61 % 81 % 1028,4 hPa 0,0 l/m² 6,8 km/h (2 Bft) W 259 ° 1 min 158 W/m² 10,4 °C 13,4 °C 11,3 km/h (2 Bft)
12.10.2025 10:29 21,0 °C 13,7 °C 61 % 81 % 1028,4 hPa 0,0 l/m² 10,9 km/h (2 Bft) W-NW 288 ° 1 min 181 W/m² 10,5 °C 11,3 °C 19,3 km/h (3 Bft)
12.10.2025 10:30 21,0 °C 13,7 °C 61 % 81 % 1028,4 hPa 0,0 l/m² 11,1 km/h (2 Bft) W 265 ° 1 min 202 W/m² 10,5 °C 11,2 °C 17,7 km/h (3 Bft)
12.10.2025 10:31 21,0 °C 13,7 °C 61 % 81 % 1028,4 hPa 0,0 l/m² 10,1 km/h (2 Bft) W-SW 252 ° 1 min 214 W/m² 10,5 °C 11,6 °C 16,1 km/h (3 Bft)
12.10.2025 10:32 21,0 °C 13,7 °C 61 % 81 % 1028,4 hPa 0,0 l/m² 8,0 km/h (2 Bft) W 259 ° 1 min 262 W/m² 10,5 °C 12,7 °C 14,5 km/h (3 Bft)
12.10.2025 10:33 21,0 °C 13,7 °C 61 % 81 % 1028,4 hPa 0,0 l/m² 12,0 km/h (2 Bft) W 261 ° 1 min 285 W/m² 10,5 °C 10,8 °C 17,7 km/h (3 Bft)
12.10.2025 10:34 21,0 °C 13,7 °C 61 % 81 % 1028,3 hPa 0,0 l/m² 9,2 km/h (2 Bft) W 274 ° 1 min 343 W/m² 10,5 °C 12,1 °C 16,1 km/h (3 Bft)
12.10.2025 10:35 21,0 °C 13,8 °C 61 % 81 % 1028,3 hPa 0,0 l/m² 8,7 km/h (2 Bft) W-SW 255 ° 1 min 436 W/m² 10,6 °C 12,5 °C 12,9 km/h (3 Bft)
12.10.2025 10:36 21,0 °C 13,8 °C 61 % 81 % 1028,4 hPa 0,0 l/m² 7,2 km/h (2 Bft) W-SW 251 ° 1 min 508 W/m² 10,6 °C 13,3 °C 16,1 km/h (3 Bft)
12.10.2025 10:37 21,0 °C 13,8 °C 61 % 81 % 1028,4 hPa 0,0 l/m² 14,3 km/h (3 Bft) W-SW 257 ° 1 min 352 W/m² 10,6 °C 10,0 °C 17,7 km/h (3 Bft)
12.10.2025 10:38 21,0 °C 13,9 °C 61 % 81 % 1028,4 hPa 0,0 l/m² 11,1 km/h (2 Bft) W-NW 291 ° 1 min 352 W/m² 10,7 °C 11,4 °C 14,5 km/h (3 Bft)
12.10.2025 10:39 21,0 °C 13,9 °C 61 % 80 % 1028,4 hPa 0,0 l/m² 9,3 km/h (2 Bft) W-NW 282 ° 1 min 218 W/m² 10,5 °C 12,2 °C 12,9 km/h (3 Bft)
12.10.2025 10:40 21,0 °C 13,9 °C 61 % 80 % 1028,4 hPa 0,0 l/m² 4,8 km/h (1 Bft) W 267 ° 1 min 220 W/m² 10,5 °C 13,9 °C 9,7 km/h (2 Bft)
12.10.2025 10:41 21,0 °C 14,0 °C 61 % 80 % 1028,4 hPa 0,0 l/m² 8,9 km/h (2 Bft) W-SW 252 ° 1 min 237 W/m² 10,6 °C 12,6 °C 14,5 km/h (3 Bft)
12.10.2025 10:42 21,0 °C 14,1 °C 61 % 80 % 1028,3 hPa 0,0 l/m² 9,4 km/h (2 Bft) W 269 ° 1 min 237 W/m² 10,7 °C 12,4 °C 14,5 km/h (3 Bft)
12.10.2025 10:43 21,0 °C 14,1 °C 61 % 80 % 1028,4 hPa 0,0 l/m² 10,7 km/h (2 Bft) W 279 ° 1 min 195 W/m² 10,7 °C 11,8 °C 17,7 km/h (3 Bft)
12.10.2025 10:44 21,0 °C 14,1 °C 61 % 80 % 1028,4 hPa 0,0 l/m² 11,8 km/h (2 Bft) W 280 ° 1 min 211 W/m² 10,7 °C 11,3 °C 14,5 km/h (3 Bft)
12.10.2025 10:45 21,0 °C 14,2 °C 61 % 80 % 1028,3 hPa 0,0 l/m² 8,5 km/h (2 Bft) SW 230 ° 1 min 171 W/m² 10,8 °C 13,0 °C 12,9 km/h (3 Bft)
12.10.2025 10:46 21,0 °C 14,2 °C 61 % 79 % 1028,4 hPa 0,0 l/m² 11,8 km/h (2 Bft) W-NW 292 ° 1 min 176 W/m² 10,6 °C 11,4 °C 17,7 km/h (3 Bft)
12.10.2025 10:47 21,0 °C 14,2 °C 61 % 79 % 1028,4 hPa 0,0 l/m² 9,0 km/h (2 Bft) W-SW 254 ° 1 min 232 W/m² 10,6 °C 12,7 °C 16,1 km/h (3 Bft)
12.10.2025 10:48 21,0 °C 14,2 °C 61 % 79 % 1028,4 hPa 0,0 l/m² 12,4 km/h (2 Bft) NW 315 ° 1 min 318 W/m² 10,6 °C 11,2 °C 19,3 km/h (3 Bft)
12.10.2025 10:49 21,0 °C 14,2 °C 61 % 79 % 1028,4 hPa 0,0 l/m² 7,0 km/h (2 Bft) W 277 ° 1 min 392 W/m² 10,6 °C 13,8 °C 14,5 km/h (3 Bft)
12.10.2025 10:50 21,0 °C 14,3 °C 61 % 79 % 1028,3 hPa 0,0 l/m² 9,1 km/h (2 Bft) W 261 ° 1 min 392 W/m² 10,7 °C 12,8 °C 17,7 km/h (3 Bft)
12.10.2025 10:51 21,0 °C 14,3 °C 61 % 79 % 1028,3 hPa 0,0 l/m² 8,3 km/h (2 Bft) W 267 ° 1 min 278 W/m² 10,7 °C 13,2 °C 14,5 km/h (3 Bft)
12.10.2025 10:52 21,0 °C 14,3 °C 61 % 79 % 1028,3 hPa 0,0 l/m² 14,0 km/h (3 Bft) W 276 ° 1 min 206 W/m² 10,7 °C 10,7 °C 17,7 km/h (3 Bft)
12.10.2025 10:53 21,0 °C 14,3 °C 61 % 79 % 1028,3 hPa 0,0 l/m² 10,0 km/h (2 Bft) W 281 ° 1 min 204 W/m² 10,7 °C 12,3 °C 17,7 km/h (3 Bft)
12.10.2025 10:54 21,1 °C 14,3 °C 61 % 78 % 1028,3 hPa 0,0 l/m² 9,3 km/h (2 Bft) W 274 ° 1 min 200 W/m² 10,5 °C 12,7 °C 14,5 km/h (3 Bft)
12.10.2025 10:55 21,1 °C 14,4 °C 61 % 78 % 1028,4 hPa 0,0 l/m² 9,1 km/h (2 Bft) W 267 ° 1 min 192 W/m² 10,6 °C 12,9 °C 14,5 km/h (3 Bft)
12.10.2025 10:56 21,1 °C 14,4 °C 61 % 78 % 1028,3 hPa 0,0 l/m² 11,9 km/h (2 Bft) W 265 ° 1 min 207 W/m² 10,6 °C 11,6 °C 20,9 km/h (4 Bft)
12.10.2025 10:57 21,1 °C 14,4 °C 61 % 77 % 1028,4 hPa 0,0 l/m² 7,9 km/h (2 Bft) W 275 ° 1 min 237 W/m² 10,4 °C 13,5 °C 11,3 km/h (2 Bft)
12.10.2025 10:58 21,1 °C 14,4 °C 61 % 78 % 1028,3 hPa 0,0 l/m² 11,8 km/h (2 Bft) W 277 ° 1 min 243 W/m² 10,6 °C 11,7 °C 17,7 km/h (3 Bft)
12.10.2025 10:59 21,1 °C 14,5 °C 61 % 78 % 1028,3 hPa 0,0 l/m² 8,7 km/h (2 Bft) W-SW 258 ° 1 min 243 W/m² 10,7 °C 13,2 °C 16,1 km/h (3 Bft)
12.10.2025 11:00 21,0 °C 14,5 °C 61 % 77 % 1028,3 hPa 0,0 l/m² 9,5 km/h (2 Bft) W 265 ° 1 min 214 W/m² 10,5 °C 12,8 °C 14,5 km/h (3 Bft)
12.10.2025 11:01 21,0 °C 14,5 °C 61 % 77 % 1028,4 hPa 0,0 l/m² 11,3 km/h (2 Bft) W 273 ° 1 min 200 W/m² 10,5 °C 12,0 °C 16,1 km/h (3 Bft)
12.10.2025 11:03 21,1 °C 14,6 °C 61 % 78 % 1028,3 hPa 0,0 l/m² 7,0 km/h (2 Bft) W 271 ° 2 min 171 W/m² 10,8 °C 14,3 °C 16,1 km/h (3 Bft)
12.10.2025 11:04 21,1 °C 14,6 °C 61 % 78 % 1028,3 hPa 0,0 l/m² 10,9 km/h (2 Bft) W 277 ° 1 min 163 W/m² 10,8 °C 12,3 °C 14,5 km/h (3 Bft)
12.10.2025 11:05 21,1 °C 14,6 °C 61 % 77 % 1028,3 hPa 0,0 l/m² 10,3 km/h (2 Bft) W-SW 241 ° 1 min 174 W/m² 10,6 °C 12,5 °C 19,3 km/h (3 Bft)
12.10.2025 11:06 21,0 °C 14,6 °C 61 % 77 % 1028,3 hPa 0,0 l/m² 8,4 km/h (2 Bft) W 279 ° 1 min 200 W/m² 10,6 °C 13,5 °C 12,9 km/h (3 Bft)
12.10.2025 11:08 21,0 °C 14,6 °C 61 % 77 % 1028,3 hPa 0,0 l/m² 11,3 km/h (2 Bft) W 274 ° 2 min 232 W/m² 10,6 °C 12,1 °C 20,9 km/h (4 Bft)
12.10.2025 11:09 21,0 °C 14,7 °C 61 % 77 % 1028,3 hPa 0,0 l/m² 12,0 km/h (2 Bft) W 281 ° 1 min 232 W/m² 10,7 °C 11,9 °C 20,9 km/h (4 Bft)
12.10.2025 11:10 21,0 °C 14,6 °C 61 % 77 % 1028,3 hPa 0,0 l/m² 13,0 km/h (3 Bft) W 260 ° 1 min 234 W/m² 10,6 °C 11,4 °C 19,3 km/h (3 Bft)
12.10.2025 11:11 21,1 °C 14,7 °C 61 % 76 % 1028,3 hPa 0,0 l/m² 10,9 km/h (2 Bft) W-SW 251 ° 1 min 223 W/m² 10,5 °C 12,4 °C 17,7 km/h (3 Bft)
12.10.2025 11:13 21,0 °C 14,7 °C 61 % 76 % 1028,2 hPa 0,0 l/m² 12,5 km/h (2 Bft) NW 309 ° 2 min 202 W/m² 10,5 °C 11,7 °C 19,3 km/h (3 Bft)
12.10.2025 11:14 21,0 °C 14,7 °C 61 % 75 % 1028,2 hPa 0,0 l/m² 10,3 km/h (2 Bft) W-NW 294 ° 1 min 190 W/m² 10,3 °C 12,6 °C 16,1 km/h (3 Bft)
12.10.2025 11:15 21,0 °C 14,7 °C 61 % 75 % 1028,2 hPa 0,0 l/m² 12,5 km/h (2 Bft) W-NW 286 ° 1 min 183 W/m² 10,3 °C 11,7 °C 19,3 km/h (3 Bft)
12.10.2025 11:16 21,1 °C 14,7 °C 61 % 75 % 1028,2 hPa 0,0 l/m² 12,3 km/h (2 Bft) W-NW 294 ° 1 min 185 W/m² 10,3 °C 11,8 °C 16,1 km/h (3 Bft)
12.10.2025 11:17 21,0 °C 14,7 °C 61 % 75 % 1028,2 hPa 0,0 l/m² 9,7 km/h (2 Bft) W 275 ° 1 min 200 W/m² 10,3 °C 12,9 °C 14,5 km/h (3 Bft)
12.10.2025 11:18 21,0 °C 14,7 °C 61 % 75 % 1028,2 hPa 0,0 l/m² 6,4 km/h (2 Bft) W-NW 292 ° 1 min 197 W/m² 10,3 °C 14,7 °C 12,9 km/h (3 Bft)
12.10.2025 11:19 21,1 °C 14,7 °C 61 % 75 % 1028,2 hPa 0,0 l/m² 14,4 km/h (3 Bft) W-NW 283 ° 1 min 193 W/m² 10,3 °C 11,0 °C 20,9 km/h (4 Bft)
12.10.2025 11:20 21,1 °C 14,7 °C 61 % 75 % 1028,2 hPa 0,0 l/m² 8,7 km/h (2 Bft) W-NW 284 ° 1 min 188 W/m² 10,3 °C 13,4 °C 16,1 km/h (3 Bft)
12.10.2025 11:21 21,1 °C 14,7 °C 61 % 75 % 1028,1 hPa 0,0 l/m² 7,0 km/h (2 Bft) SW 231 ° 1 min 188 W/m² 10,3 °C 14,4 °C 16,1 km/h (3 Bft)
12.10.2025 11:22 21,0 °C 14,7 °C 61 % 75 % 1028,2 hPa 0,0 l/m² 8,2 km/h (2 Bft) W-NW 285 ° 1 min 197 W/m² 10,3 °C 13,7 °C 17,7 km/h (3 Bft)
12.10.2025 11:23 21,0 °C 14,7 °C 61 % 75 % 1028,3 hPa 0,0 l/m² 12,6 km/h (3 Bft) NW 309 ° 1 min 225 W/m² 10,3 °C 11,7 °C 17,7 km/h (3 Bft)
12.10.2025 11:24 21,0 °C 14,7 °C 61 % 75 % 1028,2 hPa 0,0 l/m² 10,9 km/h (2 Bft) W 274 ° 1 min 234 W/m² 10,3 °C 12,4 °C 16,1 km/h (3 Bft)
12.10.2025 11:25 21,0 °C 14,7 °C 61 % 74 % 1028,2 hPa 0,0 l/m² 6,6 km/h (2 Bft) W 259 ° 1 min 257 W/m² 10,1 °C 14,6 °C 11,3 km/h (2 Bft)
12.10.2025 11:26 21,0 °C 14,8 °C 61 % 75 % 1028,2 hPa 0,0 l/m² 3,2 km/h (1 Bft) W-NW 287 ° 1 min 244 W/m² 10,4 °C 14,8 °C 8,0 km/h (2 Bft)
12.10.2025 11:27 21,1 °C 14,8 °C 61 % 75 % 1028,1 hPa 0,0 l/m² 10,0 km/h (2 Bft) W 265 ° 1 min 229 W/m² 10,4 °C 12,9 °C 16,1 km/h (3 Bft)
12.10.2025 11:28 21,1 °C 14,8 °C 61 % 75 % 1028,1 hPa 0,0 l/m² 6,8 km/h (2 Bft) W-NW 282 ° 1 min 227 W/m² 10,4 °C 14,6 °C 14,5 km/h (3 Bft)
12.10.2025 11:29 21,1 °C 14,8 °C 61 % 75 % 1028,1 hPa 0,0 l/m² 7,7 km/h (2 Bft) W-NW 291 ° 1 min 223 W/m² 10,4 °C 14,1 °C 12,9 km/h (3 Bft)
12.10.2025 11:30 21,1 °C 14,8 °C 61 % 74 % 1028,1 hPa 0,0 l/m² 8,0 km/h (2 Bft) W-NW 283 ° 1 min 216 W/m² 10,2 °C 13,9 °C 12,9 km/h (3 Bft)
12.10.2025 11:31 21,1 °C 14,8 °C 61 % 74 % 1028,2 hPa 0,0 l/m² 12,9 km/h (3 Bft) W-SW 255 ° 1 min 211 W/m² 10,2 °C 11,7 °C 17,7 km/h (3 Bft)
12.10.2025 11:32 21,0 °C 14,8 °C 61 % 74 % 1028,1 hPa 0,0 l/m² 12,8 km/h (3 Bft) W-NW 292 ° 1 min 207 W/m² 10,2 °C 11,7 °C 17,7 km/h (3 Bft)
12.10.2025 11:33 21,1 °C 14,8 °C 61 % 74 % 1028,1 hPa 0,0 l/m² 10,7 km/h (2 Bft) W-NW 290 ° 1 min 206 W/m² 10,2 °C 12,6 °C 20,9 km/h (4 Bft)
12.10.2025 11:34 21,0 °C 14,8 °C 61 % 74 % 1028,2 hPa 0,0 l/m² 14,1 km/h (3 Bft) NW 309 ° 1 min 209 W/m² 10,2 °C 11,3 °C 19,3 km/h (3 Bft)
12.10.2025 11:35 21,0 °C 14,8 °C 61 % 73 % 1028,2 hPa 0,0 l/m² 12,6 km/h (3 Bft) NW 306 ° 1 min 211 W/m² 10,0 °C 11,8 °C 20,9 km/h (4 Bft)
12.10.2025 11:36 21,1 °C 14,8 °C 61 % 73 % 1028,1 hPa 0,0 l/m² 17,1 km/h (3 Bft) W-SW 252 ° 1 min 206 W/m² 10,0 °C 10,3 °C 22,5 km/h (4 Bft)
12.10.2025 11:37 21,1 °C 14,8 °C 61 % 73 % 1028,1 hPa 0,0 l/m² 11,5 km/h (2 Bft) W-NW 297 ° 1 min 206 W/m² 10,0 °C 12,2 °C 22,5 km/h (4 Bft)
12.10.2025 11:38 21,1 °C 14,8 °C 61 % 73 % 1028,1 hPa 0,0 l/m² 13,1 km/h (3 Bft) W 272 ° 1 min 204 W/m² 10,0 °C 11,6 °C 20,9 km/h (4 Bft)
12.10.2025 11:39 21,1 °C 14,8 °C 61 % 73 % 1028,1 hPa 0,0 l/m² 11,7 km/h (2 Bft) W-NW 292 ° 1 min 190 W/m² 10,0 °C 12,2 °C 17,7 km/h (3 Bft)
12.10.2025 11:40 21,0 °C 14,9 °C 61 % 73 % 1028,1 hPa 0,0 l/m² 11,5 km/h (2 Bft) W-SW 248 ° 1 min 149 W/m² 10,1 °C 12,4 °C 19,3 km/h (3 Bft)
12.10.2025 11:41 21,0 °C 14,9 °C 61 % 73 % 1028,0 hPa 0,0 l/m² 9,6 km/h (2 Bft) W 280 ° 1 min 139 W/m² 10,1 °C 13,2 °C 14,5 km/h (3 Bft)
12.10.2025 11:42 21,1 °C 14,9 °C 61 % 74 % 1028,1 hPa 0,0 l/m² 6,5 km/h (2 Bft) W 274 ° 1 min 135 W/m² 10,3 °C 14,9 °C 16,1 km/h (3 Bft)
12.10.2025 11:43 21,1 °C 14,9 °C 61 % 74 % 1028,0 hPa 0,0 l/m² 15,0 km/h (3 Bft) W 278 ° 1 min 127 W/m² 10,3 °C 11,1 °C 20,9 km/h (4 Bft)
12.10.2025 11:44 21,0 °C 14,9 °C 61 % 74 % 1028,0 hPa 0,0 l/m² 9,1 km/h (2 Bft) W 261 ° 1 min 118 W/m² 10,3 °C 13,4 °C 14,5 km/h (3 Bft)
12.10.2025 11:45 21,0 °C 14,9 °C 61 % 74 % 1028,0 hPa 0,0 l/m² 10,0 km/h (2 Bft) W-SW 248 ° 1 min 118 W/m² 10,3 °C 13,0 °C 16,1 km/h (3 Bft)
12.10.2025 11:46 21,0 °C 14,9 °C 61 % 74 % 1028,0 hPa 0,0 l/m² 11,7 km/h (2 Bft) W-SW 253 ° 1 min 127 W/m² 10,3 °C 12,3 °C 16,1 km/h (3 Bft)
12.10.2025 11:47 21,0 °C 14,9 °C 61 % 74 % 1028,0 hPa 0,0 l/m² 12,7 km/h (3 Bft) W-SW 252 ° 1 min 123 W/m² 10,3 °C 11,9 °C 20,9 km/h (4 Bft)
12.10.2025 11:48 21,0 °C 14,8 °C 61 % 74 % 1028,0 hPa 0,0 l/m² 8,6 km/h (2 Bft) W 262 ° 1 min 123 W/m² 10,2 °C 13,6 °C 16,1 km/h (3 Bft)
12.10.2025 11:49 21,0 °C 14,8 °C 61 % 74 % 1027,9 hPa 0,0 l/m² 16,3 km/h (3 Bft) W-SW 251 ° 1 min 127 W/m² 10,2 °C 10,5 °C 22,5 km/h (4 Bft)
12.10.2025 11:50 21,0 °C 14,8 °C 61 % 74 % 1028,0 hPa 0,0 l/m² 14,3 km/h (3 Bft) W 281 ° 1 min 130 W/m² 10,2 °C 11,2 °C 20,9 km/h (4 Bft)
12.10.2025 11:51 21,1 °C 14,8 °C 61 % 74 % 1027,9 hPa 0,0 l/m² 13,9 km/h (3 Bft) W-SW 250 ° 1 min 134 W/m² 10,2 °C 11,3 °C 20,9 km/h (4 Bft)
12.10.2025 11:52 21,0 °C 14,8 °C 61 % 74 % 1028,0 hPa 0,0 l/m² 12,9 km/h (3 Bft) W 267 ° 1 min 146 W/m² 10,2 °C 11,7 °C 17,7 km/h (3 Bft)
12.10.2025 11:53 21,0 °C 14,8 °C 61 % 74 % 1028,0 hPa 0,0 l/m² 11,5 km/h (2 Bft) W 278 ° 1 min 142 W/m² 10,2 °C 12,2 °C 19,3 km/h (3 Bft)
12.10.2025 11:54 21,1 °C 14,8 °C 61 % 75 % 1028,0 hPa 0,0 l/m² 8,3 km/h (2 Bft) W-NW 285 ° 1 min 130 W/m² 10,4 °C 13,7 °C 12,9 km/h (3 Bft)
12.10.2025 11:55 21,1 °C 14,8 °C 61 % 75 % 1028,0 hPa 0,0 l/m² 5,2 km/h (1 Bft) W 277 ° 1 min 120 W/m² 10,4 °C 14,8 °C 8,0 km/h (2 Bft)
12.10.2025 11:56 21,1 °C 14,8 °C 61 % 75 % 1028,0 hPa 0,0 l/m² 10,1 km/h (2 Bft) W 278 ° 1 min 116 W/m² 10,4 °C 12,9 °C 17,7 km/h (3 Bft)
12.10.2025 11:57 21,1 °C 14,8 °C 61 % 75 % 1027,9 hPa 0,0 l/m² 15,0 km/h (3 Bft) W-NW 288 ° 1 min 125 W/m² 10,4 °C 10,9 °C 22,5 km/h (4 Bft)
12.10.2025 11:58 21,1 °C 14,8 °C 61 % 75 % 1027,9 hPa 0,0 l/m² 8,3 km/h (2 Bft) W-NW 303 ° 1 min 132 W/m² 10,4 °C 13,7 °C 14,5 km/h (3 Bft)
12.10.2025 11:59 21,0 °C 14,8 °C 61 % 75 % 1028,0 hPa 0,0 l/m² 7,2 km/h (2 Bft) W-NW 284 ° 1 min 144 W/m² 10,4 °C 14,3 °C 12,9 km/h (3 Bft)
12.10.2025 12:00 21,0 °C 14,8 °C 61 % 75 % 1028,0 hPa 0,0 l/m² 6,7 km/h (2 Bft) W 268 ° 1 min 153 W/m² 10,4 °C 14,6 °C 11,3 km/h (2 Bft)
12.10.2025 12:01 21,0 °C 14,8 °C 62 % 75 % 1027,9 hPa 0,0 l/m² 9,7 km/h (2 Bft) W 270 ° 1 min 160 W/m² 10,4 °C 13,0 °C 16,1 km/h (3 Bft)
12.10.2025 12:07 21,0 °C 14,7 °C 61 % 75 % 1027,8 hPa 0,0 l/m² 13,0 km/h (3 Bft) W 263 ° 6 min 223 W/m² 10,3 °C 11,5 °C 14,5 km/h (3 Bft)
12.10.2025 12:09 21,0 °C 14,8 °C 62 % 75 % 1027,8 hPa 0,0 l/m² 8,2 km/h (2 Bft) W 271 ° 2 min 160 W/m² 10,4 °C 13,8 °C 16,1 km/h (3 Bft)
12.10.2025 12:11 21,0 °C 14,8 °C 62 % 75 % 1027,7 hPa 0,0 l/m² 11,4 km/h (2 Bft) W-NW 303 ° 2 min 127 W/m² 10,4 °C 12,3 °C 19,3 km/h (3 Bft)
12.10.2025 12:12 21,1 °C 14,8 °C 62 % 75 % 1027,7 hPa 0,0 l/m² 11,6 km/h (2 Bft) W-SW 255 ° 1 min 120 W/m² 10,4 °C 12,2 °C 17,7 km/h (3 Bft)
12.10.2025 12:13 21,1 °C 14,8 °C 62 % 75 % 1027,7 hPa 0,0 l/m² 13,7 km/h (3 Bft) W-NW 284 ° 1 min 120 W/m² 10,4 °C 11,4 °C 17,7 km/h (3 Bft)
12.10.2025 12:15 21,1 °C 14,8 °C 62 % 75 % 1027,8 hPa 0,0 l/m² 10,1 km/h (2 Bft) W-NW 291 ° 2 min 120 W/m² 10,4 °C 12,9 °C 16,1 km/h (3 Bft)
12.10.2025 12:16 21,1 °C 14,8 °C 62 % 75 % 1027,8 hPa 0,0 l/m² 10,9 km/h (2 Bft) W 278 ° 1 min 127 W/m² 10,4 °C 12,5 °C 17,7 km/h (3 Bft)
12.10.2025 12:18 21,1 °C 14,8 °C 62 % 75 % 1027,8 hPa 0,0 l/m² 9,2 km/h (2 Bft) W 267 ° 2 min 146 W/m² 10,4 °C 13,3 °C 16,1 km/h (3 Bft)
12.10.2025 12:20 21,1 °C 14,8 °C 61 % 75 % 1027,8 hPa 0,0 l/m² 13,0 km/h (3 Bft) W 278 ° 2 min 151 W/m² 10,4 °C 11,7 °C 22,5 km/h (4 Bft)
12.10.2025 12:21 21,1 °C 14,8 °C 61 % 75 % 1027,8 hPa 0,0 l/m² 13,7 km/h (3 Bft) W 273 ° 1 min 160 W/m² 10,4 °C 11,4 °C 20,9 km/h (4 Bft)
12.10.2025 12:22 21,1 °C 14,8 °C 61 % 75 % 1027,8 hPa 0,0 l/m² 10,3 km/h (2 Bft) W 273 ° 1 min 163 W/m² 10,4 °C 12,8 °C 16,1 km/h (3 Bft)
12.10.2025 12:23 21,2 °C 14,8 °C 61 % 75 % 1027,8 hPa 0,0 l/m² 9,9 km/h (2 Bft) W-NW 291 ° 1 min 162 W/m² 10,4 °C 12,9 °C 16,1 km/h (3 Bft)
12.10.2025 12:24 21,2 °C 14,8 °C 61 % 75 % 1027,8 hPa 0,0 l/m² 11,2 km/h (2 Bft) W 265 ° 1 min 151 W/m² 10,4 °C 12,4 °C 14,5 km/h (3 Bft)
12.10.2025 12:26 21,2 °C 14,8 °C 61 % 76 % 1027,9 hPa 0,0 l/m² 11,6 km/h (2 Bft) W 271 ° 2 min 139 W/m² 10,6 °C 12,2 °C 22,5 km/h (4 Bft)
12.10.2025 12:28 21,2 °C 14,8 °C 61 % 75 % 1027,9 hPa 0,0 l/m² 11,2 km/h (2 Bft) W 279 ° 2 min 134 W/m² 10,4 °C 12,4 °C 19,3 km/h (3 Bft)
12.10.2025 12:30 21,3 °C 14,8 °C 61 % 75 % 1027,9 hPa 0,0 l/m² 9,3 km/h (2 Bft) W 267 ° 2 min 132 W/m² 10,4 °C 13,2 °C 17,7 km/h (3 Bft)
12.10.2025 12:31 21,4 °C 14,8 °C 61 % 75 % 1027,9 hPa 0,0 l/m² 13,6 km/h (3 Bft) W 281 ° 1 min 132 W/m² 10,4 °C 11,4 °C 17,7 km/h (3 Bft)
12.10.2025 12:32 21,4 °C 14,8 °C 61 % 75 % 1027,9 hPa 0,0 l/m² 7,4 km/h (2 Bft) W-NW 290 ° 1 min 132 W/m² 10,4 °C 14,2 °C 12,9 km/h (3 Bft)
12.10.2025 12:33 21,5 °C 14,8 °C 61 % 75 % 1028,0 hPa 0,0 l/m² 8,4 km/h (2 Bft) W 281 ° 1 min 142 W/m² 10,4 °C 13,7 °C 12,9 km/h (3 Bft)
12.10.2025 12:34 21,6 °C 14,8 °C 61 % 75 % 1028,0 hPa 0,0 l/m² 10,4 km/h (2 Bft) NW 309 ° 1 min 151 W/m² 10,4 °C 12,7 °C 19,3 km/h (3 Bft)
12.10.2025 12:36 21,7 °C 14,8 °C 61 % 75 % 1027,9 hPa 0,0 l/m² 8,9 km/h (2 Bft) W 275 ° 2 min 156 W/m² 10,4 °C 13,4 °C 16,1 km/h (3 Bft)
12.10.2025 12:38 22,1 °C 14,8 °C 60 % 75 % 1027,9 hPa 0,0 l/m² 14,6 km/h (3 Bft) W 269 ° 2 min 148 W/m² 10,4 °C 11,1 °C 24,1 km/h (4 Bft)
12.10.2025 12:40 22,3 °C 14,8 °C 60 % 75 % 1027,8 hPa 0,0 l/m² 14,1 km/h (3 Bft) W-SW 255 ° 2 min 142 W/m² 10,4 °C 11,3 °C 19,3 km/h (3 Bft)
12.10.2025 12:41 22,4 °C 14,8 °C 59 % 75 % 1027,8 hPa 0,0 l/m² 11,1 km/h (2 Bft) W-NW 288 ° 1 min 142 W/m² 10,4 °C 12,4 °C 16,1 km/h (3 Bft)
12.10.2025 12:42 22,4 °C 14,8 °C 59 % 75 % 1027,8 hPa 0,0 l/m² 9,8 km/h (2 Bft) W 260 ° 1 min 142 W/m² 10,4 °C 13,0 °C 17,7 km/h (3 Bft)
12.10.2025 12:43 22,5 °C 14,8 °C 59 % 75 % 1027,9 hPa 0,0 l/m² 14,6 km/h (3 Bft) NW 304 ° 1 min 146 W/m² 10,4 °C 11,1 °C 20,9 km/h (4 Bft)
12.10.2025 12:46 22,8 °C 14,7 °C 58 % 75 % 1027,9 hPa 0,0 l/m² 14,2 km/h (3 Bft) W 279 ° 3 min 174 W/m² 10,3 °C 11,1 °C 24,1 km/h (4 Bft)
12.10.2025 12:48 23,2 °C 14,8 °C 57 % 75 % 1027,7 hPa 0,0 l/m² 11,4 km/h (2 Bft) W 263 ° 2 min 169 W/m² 10,4 °C 12,3 °C 19,3 km/h (3 Bft)
12.10.2025 12:50 23,3 °C 14,7 °C 57 % 75 % 1027,7 hPa 0,0 l/m² 13,9 km/h (3 Bft) W-SW 258 ° 2 min 178 W/m² 10,3 °C 11,2 °C 20,9 km/h (4 Bft)
12.10.2025 12:51 23,6 °C 14,8 °C 56 % 75 % 1027,7 hPa 0,0 l/m² 9,2 km/h (2 Bft) W-SW 250 ° 1 min 181 W/m² 10,4 °C 13,3 °C 17,7 km/h (3 Bft)
12.10.2025 12:52 23,6 °C 14,8 °C 56 % 76 % 1027,7 hPa 0,0 l/m² 8,2 km/h (2 Bft) W-SW 254 ° 1 min 193 W/m² 10,6 °C 13,8 °C 14,5 km/h (3 Bft)
12.10.2025 12:53 23,7 °C 14,8 °C 56 % 76 % 1027,8 hPa 0,0 l/m² 5,6 km/h (2 Bft) W-NW 290 ° 1 min 207 W/m² 10,6 °C 14,8 °C 11,3 km/h (2 Bft)
12.10.2025 12:54 23,8 °C 14,8 °C 55 % 76 % 1027,9 hPa 0,0 l/m² 9,1 km/h (2 Bft) W 274 ° 1 min 214 W/m² 10,6 °C 13,3 °C 16,1 km/h (3 Bft)
12.10.2025 12:56 24,2 °C 14,8 °C 54 % 76 % 1027,8 hPa 0,0 l/m² 9,2 km/h (2 Bft) W 276 ° 2 min 211 W/m² 10,6 °C 13,3 °C 17,7 km/h (3 Bft)
12.10.2025 12:57 24,4 °C 14,8 °C 54 % 76 % 1027,8 hPa 0,0 l/m² 11,5 km/h (2 Bft) W-NW 285 ° 1 min 220 W/m² 10,6 °C 12,2 °C 19,3 km/h (3 Bft)
12.10.2025 12:58 24,4 °C 14,8 °C 54 % 76 % 1027,8 hPa 0,0 l/m² 9,7 km/h (2 Bft) W-NW 282 ° 1 min 223 W/m² 10,6 °C 13,0 °C 16,1 km/h (3 Bft)
12.10.2025 13:00 24,7 °C 14,8 °C 54 % 75 % 1027,8 hPa 0,0 l/m² 14,0 km/h (3 Bft) W 269 ° 2 min 211 W/m² 10,4 °C 11,3 °C 22,5 km/h (4 Bft)
12.10.2025 13:01 24,9 °C 14,8 °C 53 % 75 % 1027,8 hPa 0,0 l/m² 11,4 km/h (2 Bft) W 266 ° 1 min 207 W/m² 10,4 °C 12,3 °C 16,1 km/h (3 Bft)
12.10.2025 13:02 25,1 °C 14,8 °C 53 % 75 % 1027,8 hPa 0,0 l/m² 7,6 km/h (2 Bft) W-NW 282 ° 1 min 185 W/m² 10,4 °C 14,1 °C 12,9 km/h (3 Bft)
12.10.2025 13:03 25,1 °C 14,9 °C 53 % 75 % 1027,8 hPa 0,0 l/m² 8,3 km/h (2 Bft) W 261 ° 1 min 174 W/m² 10,5 °C 13,8 °C 17,7 km/h (3 Bft)
12.10.2025 13:04 25,2 °C 14,9 °C 53 % 75 % 1027,8 hPa 0,0 l/m² 7,4 km/h (2 Bft) W-NW 284 ° 1 min 169 W/m² 10,5 °C 14,3 °C 14,5 km/h (3 Bft)
12.10.2025 13:05 25,3 °C 14,9 °C 53 % 75 % 1027,8 hPa 0,0 l/m² 14,7 km/h (3 Bft) W-NW 296 ° 1 min 171 W/m² 10,5 °C 11,2 °C 20,9 km/h (4 Bft)
12.10.2025 13:07 25,6 °C 14,9 °C 52 % 74 % 1027,7 hPa 0,0 l/m² 13,8 km/h (3 Bft) W-NW 289 ° 2 min 186 W/m² 10,3 °C 11,5 °C 24,1 km/h (4 Bft)
12.10.2025 13:09 25,8 °C 14,9 °C 52 % 74 % 1027,7 hPa 0,0 l/m² 12,4 km/h (2 Bft) W-NW 298 ° 2 min 211 W/m² 10,3 °C 12,0 °C 22,5 km/h (4 Bft)
12.10.2025 13:10 26,1 °C 14,9 °C 51 % 74 % 1027,6 hPa 0,0 l/m² 14,5 km/h (3 Bft) W-SW 251 ° 1 min 220 W/m² 10,3 °C 11,2 °C 19,3 km/h (3 Bft)
12.10.2025 13:11 26,2 °C 14,9 °C 51 % 74 % 1027,5 hPa 0,0 l/m² 14,6 km/h (3 Bft) W-NW 290 ° 1 min 241 W/m² 10,3 °C 11,2 °C 20,9 km/h (4 Bft)
12.10.2025 13:12 26,2 °C 15,0 °C 51 % 74 % 1027,5 hPa 0,0 l/m² 15,2 km/h (3 Bft) W 281 ° 1 min 253 W/m² 10,4 °C 11,1 °C 19,3 km/h (3 Bft)
12.10.2025 13:13 26,2 °C 14,9 °C 51 % 74 % 1027,4 hPa 0,0 l/m² 10,8 km/h (2 Bft) W 260 ° 1 min 255 W/m² 10,3 °C 12,7 °C 20,9 km/h (4 Bft)
12.10.2025 13:14 26,4 °C 15,1 °C 50 % 74 % 1027,4 hPa 0,0 l/m² 9,3 km/h (2 Bft) W 274 ° 1 min 237 W/m² 10,5 °C 13,6 °C 14,5 km/h (3 Bft)
12.10.2025 13:15 26,6 °C 15,1 °C 50 % 75 % 1027,4 hPa 0,0 l/m² 10,3 km/h (2 Bft) W-SW 257 ° 1 min 229 W/m² 10,7 °C 13,1 °C 16,1 km/h (3 Bft)
12.10.2025 13:16 26,6 °C 15,1 °C 50 % 75 % 1027,5 hPa 0,0 l/m² 11,5 km/h (2 Bft) W 264 ° 1 min 225 W/m² 10,7 °C 12,6 °C 16,1 km/h (3 Bft)
12.10.2025 13:17 26,7 °C 15,1 °C 50 % 75 % 1027,5 hPa 0,0 l/m² 15,3 km/h (3 Bft) W 264 ° 1 min 223 W/m² 10,7 °C 11,2 °C 22,5 km/h (4 Bft)
12.10.2025 13:18 26,8 °C 15,1 °C 49 % 75 % 1027,5 hPa 0,0 l/m² 12,1 km/h (2 Bft) W 259 ° 1 min 218 W/m² 10,7 °C 12,3 °C 20,9 km/h (4 Bft)
12.10.2025 13:19 26,8 °C 15,1 °C 49 % 75 % 1027,5 hPa 0,0 l/m² 10,6 km/h (2 Bft) W-NW 285 ° 1 min 209 W/m² 10,7 °C 13,0 °C 17,7 km/h (3 Bft)
12.10.2025 13:21 27,1 °C 15,1 °C 49 % 75 % 1027,6 hPa 0,0 l/m² 13,3 km/h (3 Bft) W-NW 300 ° 2 min 190 W/m² 10,7 °C 11,9 °C 20,9 km/h (4 Bft)
12.10.2025 13:23 27,2 °C 15,2 °C 48 % 74 % 1027,6 hPa 0,0 l/m² 12,2 km/h (2 Bft) W-SW 246 ° 2 min 179 W/m² 10,6 °C 12,4 °C 17,7 km/h (3 Bft)
12.10.2025 13:24 27,2 °C 15,2 °C 48 % 74 % 1027,6 hPa 0,0 l/m² 14,0 km/h (3 Bft) W 277 ° 1 min 178 W/m² 10,6 °C 11,8 °C 20,9 km/h (4 Bft)
12.10.2025 13:25 27,4 °C 15,2 °C 48 % 75 % 1027,6 hPa 0,0 l/m² 8,9 km/h (2 Bft) W 275 ° 1 min 179 W/m² 10,8 °C 13,9 °C 14,5 km/h (3 Bft)
12.10.2025 13:26 27,4 °C 15,2 °C 48 % 75 % 1027,6 hPa 0,0 l/m² 12,5 km/h (2 Bft) W 267 ° 1 min 183 W/m² 10,8 °C 12,3 °C 17,7 km/h (3 Bft)
12.10.2025 13:27 27,4 °C 15,2 °C 48 % 74 % 1027,6 hPa 0,0 l/m² 13,0 km/h (3 Bft) W-NW 292 ° 1 min 179 W/m² 10,6 °C 12,1 °C 20,9 km/h (4 Bft)
12.10.2025 13:28 27,5 °C 15,2 °C 48 % 74 % 1027,5 hPa 0,0 l/m² 12,8 km/h (3 Bft) W 265 ° 1 min 174 W/m² 10,6 °C 12,2 °C 19,3 km/h (3 Bft)
12.10.2025 13:29 27,6 °C 15,2 °C 48 % 74 % 1027,5 hPa 0,0 l/m² 10,1 km/h (2 Bft) W 263 ° 1 min 172 W/m² 10,6 °C 13,3 °C 14,5 km/h (3 Bft)
12.10.2025 13:31 27,7 °C 15,2 °C 47 % 74 % 1027,5 hPa 0,0 l/m² 12,9 km/h (3 Bft) W 270 ° 2 min 165 W/m² 10,6 °C 12,2 °C 24,1 km/h (4 Bft)
12.10.2025 13:33 27,9 °C 15,2 °C 47 % 74 % 1027,4 hPa 0,0 l/m² 16,0 km/h (3 Bft) W-NW 299 ° 2 min 130 W/m² 10,6 °C 11,1 °C 20,9 km/h (4 Bft)
12.10.2025 13:34 28,1 °C 15,2 °C 47 % 74 % 1027,4 hPa 0,0 l/m² 11,7 km/h (2 Bft) W 275 ° 1 min 120 W/m² 10,6 °C 12,6 °C 17,7 km/h (3 Bft)
12.10.2025 13:35 28,1 °C 15,2 °C 47 % 73 % 1027,4 hPa 0,0 l/m² 14,3 km/h (3 Bft) W 274 ° 1 min 113 W/m² 10,4 °C 11,7 °C 20,9 km/h (4 Bft)
12.10.2025 13:36 28,2 °C 15,2 °C 47 % 73 % 1027,4 hPa 0,0 l/m² 12,7 km/h (3 Bft) W-NW 294 ° 1 min 107 W/m² 10,4 °C 12,2 °C 19,3 km/h (3 Bft)
12.10.2025 13:37 28,3 °C 15,2 °C 46 % 73 % 1027,4 hPa 0,0 l/m² 12,0 km/h (2 Bft) W 276 ° 1 min 104 W/m² 10,4 °C 12,5 °C 19,3 km/h (3 Bft)
12.10.2025 13:38 28,4 °C 15,1 °C 46 % 73 % 1027,5 hPa 0,0 l/m² 10,0 km/h (2 Bft) W 267 ° 1 min 109 W/m² 10,3 °C 13,2 °C 16,1 km/h (3 Bft)
12.10.2025 13:39 28,6 °C 15,2 °C 46 % 73 % 1027,4 hPa 0,0 l/m² 14,6 km/h (3 Bft) W 275 ° 1 min 121 W/m² 10,4 °C 11,6 °C 19,3 km/h (3 Bft)
12.10.2025 13:41 28,8 °C 15,1 °C 46 % 73 % 1027,5 hPa 0,0 l/m² 13,2 km/h (3 Bft) W 271 ° 2 min 156 W/m² 10,3 °C 11,9 °C 19,3 km/h (3 Bft)
12.10.2025 13:43 29,1 °C 15,1 °C 45 % 73 % 1027,4 hPa 0,0 l/m² 9,5 km/h (2 Bft) NW 315 ° 2 min 221 W/m² 10,3 °C 13,5 °C 16,1 km/h (3 Bft)
12.10.2025 13:44 29,2 °C 15,1 °C 45 % 74 % 1027,4 hPa 0,0 l/m² 8,6 km/h (2 Bft) W 261 ° 1 min 218 W/m² 10,5 °C 13,9 °C 14,5 km/h (3 Bft)
12.10.2025 13:45 29,2 °C 15,1 °C 45 % 74 % 1027,4 hPa 0,0 l/m² 13,2 km/h (3 Bft) W-NW 291 ° 1 min 216 W/m² 10,5 °C 11,9 °C 22,5 km/h (4 Bft)
12.10.2025 13:46 29,3 °C 15,1 °C 45 % 74 % 1027,5 hPa 0,0 l/m² 11,3 km/h (2 Bft) W-NW 300 ° 1 min 218 W/m² 10,5 °C 12,7 °C 17,7 km/h (3 Bft)
12.10.2025 13:47 29,3 °C 15,1 °C 45 % 74 % 1027,5 hPa 0,0 l/m² 11,7 km/h (2 Bft) W-NW 284 ° 1 min 220 W/m² 10,5 °C 12,5 °C 17,7 km/h (3 Bft)
12.10.2025 13:48 29,4 °C 15,1 °C 45 % 74 % 1027,5 hPa 0,0 l/m² 14,2 km/h (3 Bft) W 265 ° 1 min 216 W/m² 10,5 °C 11,6 °C 22,5 km/h (4 Bft)
12.10.2025 13:49 29,4 °C 15,2 °C 45 % 74 % 1027,5 hPa 0,0 l/m² 13,1 km/h (3 Bft) NW 309 ° 1 min 211 W/m² 10,6 °C 12,1 °C 22,5 km/h (4 Bft)
12.10.2025 13:51 29,6 °C 15,2 °C 45 % 74 % 1027,5 hPa 0,0 l/m² 12,2 km/h (2 Bft) W-SW 257 ° 2 min 204 W/m² 10,6 °C 12,4 °C 19,3 km/h (3 Bft)
12.10.2025 13:53 29,7 °C 15,1 °C 45 % 73 % 1027,6 hPa 0,0 l/m² 13,0 km/h (3 Bft) W 277 ° 2 min 188 W/m² 10,3 °C 12,0 °C 19,3 km/h (3 Bft)
12.10.2025 13:54 29,7 °C 15,2 °C 44 % 73 % 1027,5 hPa 0,0 l/m² 8,5 km/h (2 Bft) W 276 ° 1 min 178 W/m² 10,4 °C 14,1 °C 14,5 km/h (3 Bft)
12.10.2025 13:55 29,7 °C 15,2 °C 44 % 73 % 1027,5 hPa 0,0 l/m² 11,7 km/h (2 Bft) W-NW 290 ° 1 min 165 W/m² 10,4 °C 12,6 °C 17,7 km/h (3 Bft)
12.10.2025 13:56 29,7 °C 15,1 °C 44 % 73 % 1027,6 hPa 0,0 l/m² 7,2 km/h (2 Bft) W-NW 300 ° 1 min 167 W/m² 10,3 °C 14,6 °C 12,9 km/h (3 Bft)
12.10.2025 13:57 29,8 °C 15,2 °C 44 % 74 % 1027,6 hPa 0,0 l/m² 7,2 km/h (2 Bft) W 281 ° 1 min 174 W/m² 10,6 °C 14,8 °C 12,9 km/h (3 Bft)
12.10.2025 13:58 29,8 °C 15,2 °C 44 % 74 % 1027,6 hPa 0,0 l/m² 13,9 km/h (3 Bft) W 281 ° 1 min 179 W/m² 10,6 °C 11,8 °C 19,3 km/h (3 Bft)
12.10.2025 13:59 29,8 °C 15,2 °C 44 % 73 % 1027,6 hPa 0,0 l/m² 12,1 km/h (2 Bft) W-NW 291 ° 1 min 186 W/m² 10,4 °C 12,5 °C 19,3 km/h (3 Bft)
12.10.2025 14:01 29,9 °C 15,2 °C 44 % 73 % 1027,4 hPa 0,0 l/m² 6,7 km/h (2 Bft) NW 315 ° 2 min 223 W/m² 10,4 °C 15,0 °C 17,7 km/h (3 Bft)
12.10.2025 14:03 29,9 °C 15,2 °C 44 % 74 % 1027,5 hPa 0,0 l/m² 7,7 km/h (2 Bft) NW 306 ° 2 min 230 W/m² 10,6 °C 14,5 °C 19,3 km/h (3 Bft)
12.10.2025 14:04 29,9 °C 15,3 °C 44 % 74 % 1027,4 hPa 0,0 l/m² 5,9 km/h (2 Bft) N-NW 336 ° 1 min 218 W/m² 10,7 °C 15,3 °C 16,1 km/h (3 Bft)
12.10.2025 14:05 29,9 °C 15,3 °C 44 % 74 % 1027,4 hPa 0,0 l/m² 8,5 km/h (2 Bft) W-NW 303 ° 1 min 207 W/m² 10,7 °C 14,2 °C 14,5 km/h (3 Bft)
12.10.2025 14:06 29,9 °C 15,3 °C 44 % 74 % 1027,3 hPa 0,0 l/m² 12,3 km/h (2 Bft) W-NW 288 ° 1 min 202 W/m² 10,7 °C 12,5 °C 17,7 km/h (3 Bft)
12.10.2025 14:07 29,9 °C 15,3 °C 44 % 74 % 1027,3 hPa 0,0 l/m² 6,0 km/h (2 Bft) NW 311 ° 1 min 195 W/m² 10,7 °C 15,3 °C 12,9 km/h (3 Bft)
12.10.2025 14:08 29,9 °C 15,3 °C 44 % 74 % 1027,3 hPa 0,0 l/m² 12,6 km/h (3 Bft) W 277 ° 1 min 193 W/m² 10,7 °C 12,4 °C 20,9 km/h (4 Bft)
12.10.2025 14:09 29,9 °C 15,3 °C 44 % 73 % 1027,3 hPa 0,0 l/m² 15,1 km/h (3 Bft) NW 316 ° 1 min 199 W/m² 10,5 °C 11,5 °C 20,9 km/h (4 Bft)
12.10.2025 14:11 29,9 °C 15,3 °C 44 % 73 % 1027,3 hPa 0,0 l/m² 8,6 km/h (2 Bft) W-NW 291 ° 2 min 213 W/m² 10,5 °C 14,1 °C 16,1 km/h (3 Bft)
12.10.2025 14:13 29,8 °C 15,3 °C 45 % 74 % 1027,3 hPa 0,0 l/m² 5,7 km/h (2 Bft) NW 309 ° 2 min 186 W/m² 10,7 °C 15,3 °C 12,9 km/h (3 Bft)
12.10.2025 14:14 29,8 °C 15,3 °C 45 % 74 % 1027,3 hPa 0,0 l/m² 4,3 km/h (1 Bft) W-NW 288 ° 1 min 174 W/m² 10,7 °C 15,3 °C 8,0 km/h (2 Bft)
12.10.2025 14:15 29,8 °C 15,4 °C 45 % 74 % 1027,3 hPa 0,0 l/m² 7,9 km/h (2 Bft) W-NW 292 ° 1 min 165 W/m² 10,8 °C 14,6 °C 17,7 km/h (3 Bft)
12.10.2025 14:16 29,8 °C 15,4 °C 45 % 74 % 1027,3 hPa 0,0 l/m² 6,1 km/h (2 Bft) W-SW 255 ° 1 min 158 W/m² 10,8 °C 15,4 °C 14,5 km/h (3 Bft)
12.10.2025 14:17 29,8 °C 15,4 °C 45 % 74 % 1027,3 hPa 0,0 l/m² 7,6 km/h (2 Bft) W 263 ° 1 min 148 W/m² 10,8 °C 14,7 °C 14,5 km/h (3 Bft)
12.10.2025 14:18 29,7 °C 15,4 °C 45 % 74 % 1027,3 hPa 0,0 l/m² 8,0 km/h (2 Bft) W-SW 254 ° 1 min 135 W/m² 10,8 °C 14,5 °C 14,5 km/h (3 Bft)
12.10.2025 14:19 29,7 °C 15,4 °C 45 % 74 % 1027,3 hPa 0,0 l/m² 10,8 km/h (2 Bft) W 281 ° 1 min 116 W/m² 10,8 °C 13,2 °C 16,1 km/h (3 Bft)
12.10.2025 14:21 29,7 °C 15,4 °C 45 % 73 % 1027,3 hPa 0,0 l/m² 6,3 km/h (2 Bft) W-NW 286 ° 2 min 104 W/m² 10,6 °C 15,4 °C 14,5 km/h (3 Bft)
12.10.2025 14:23 29,7 °C 15,4 °C 45 % 73 % 1027,3 hPa 0,0 l/m² 5,7 km/h (2 Bft) W-NW 286 ° 2 min 95 W/m² 10,6 °C 15,4 °C 12,9 km/h (3 Bft)
12.10.2025 14:24 29,6 °C 15,4 °C 45 % 73 % 1027,3 hPa 0,0 l/m² 2,9 km/h (1 Bft) W 281 ° 1 min 91 W/m² 10,6 °C 15,4 °C 6,4 km/h (2 Bft)
12.10.2025 14:25 29,6 °C 15,4 °C 46 % 74 % 1027,3 hPa 0,0 l/m² 3,7 km/h (1 Bft) W 265 ° 1 min 91 W/m² 10,8 °C 15,4 °C 9,7 km/h (2 Bft)
12.10.2025 14:26 29,6 °C 15,4 °C 46 % 74 % 1027,4 hPa 0,0 l/m² 4,4 km/h (1 Bft) W-NW 294 ° 1 min 97 W/m² 10,8 °C 15,4 °C 11,3 km/h (2 Bft)
12.10.2025 14:27 29,6 °C 15,4 °C 46 % 74 % 1027,3 hPa 0,0 l/m² 7,0 km/h (2 Bft) W 265 ° 1 min 102 W/m² 10,8 °C 15,1 °C 14,5 km/h (3 Bft)
12.10.2025 14:28 29,4 °C 15,4 °C 46 % 74 % 1027,3 hPa 0,0 l/m² 8,2 km/h (2 Bft) W-NW 303 ° 1 min 111 W/m² 10,8 °C 14,4 °C 12,9 km/h (3 Bft)
12.10.2025 14:29 29,4 °C 15,4 °C 46 % 73 % 1027,3 hPa 0,0 l/m² 9,0 km/h (2 Bft) W 271 ° 1 min 121 W/m² 10,6 °C 14,0 °C 16,1 km/h (3 Bft)
12.10.2025 14:31 29,4 °C 15,4 °C 46 % 73 % 1027,3 hPa 0,0 l/m² 5,0 km/h (1 Bft) NW 309 ° 2 min 153 W/m² 10,6 °C 15,4 °C 11,3 km/h (2 Bft)
12.10.2025 14:33 29,3 °C 15,4 °C 46 % 74 % 1027,2 hPa 0,0 l/m² 8,3 km/h (2 Bft) W-NW 288 ° 2 min 178 W/m² 10,8 °C 14,4 °C 19,3 km/h (3 Bft)
12.10.2025 14:34 29,3 °C 15,4 °C 46 % 74 % 1027,1 hPa 0,0 l/m² 8,6 km/h (2 Bft) NW 311 ° 1 min 188 W/m² 10,8 °C 14,2 °C 17,7 km/h (3 Bft)
12.10.2025 14:35 29,3 °C 15,4 °C 46 % 74 % 1027,2 hPa 0,0 l/m² 7,3 km/h (2 Bft) W 261 ° 1 min 193 W/m² 10,8 °C 14,9 °C 14,5 km/h (3 Bft)
12.10.2025 14:36 29,2 °C 15,4 °C 46 % 74 % 1027,1 hPa 0,0 l/m² 7,3 km/h (2 Bft) W-NW 290 ° 1 min 188 W/m² 10,8 °C 14,9 °C 14,5 km/h (3 Bft)
12.10.2025 14:37 29,2 °C 15,4 °C 46 % 74 % 1027,1 hPa 0,0 l/m² 6,8 km/h (2 Bft) W-NW 292 ° 1 min 178 W/m² 10,8 °C 15,2 °C 12,9 km/h (3 Bft)
12.10.2025 14:38 29,2 °C 15,4 °C 46 % 74 % 1027,1 hPa 0,0 l/m² 6,2 km/h (2 Bft) W-NW 293 ° 1 min 163 W/m² 10,8 °C 15,4 °C 14,5 km/h (3 Bft)
12.10.2025 14:39 29,2 °C 15,4 °C 46 % 74 % 1027,1 hPa 0,0 l/m² 3,0 km/h (1 Bft) W 267 ° 1 min 156 W/m² 10,8 °C 15,4 °C 6,4 km/h (2 Bft)
12.10.2025 14:41 29,1 °C 15,4 °C 46 % 74 % 1027,1 hPa 0,0 l/m² 8,1 km/h (2 Bft) NW 315 ° 2 min 156 W/m² 10,8 °C 14,5 °C 17,7 km/h (3 Bft)
12.10.2025 14:43 28,9 °C 15,4 °C 46 % 74 % 1027,1 hPa 0,0 l/m² 7,1 km/h (2 Bft) W 278 ° 2 min 169 W/m² 10,8 °C 15,0 °C 12,9 km/h (3 Bft)
12.10.2025 14:44 28,9 °C 15,4 °C 46 % 74 % 1027,1 hPa 0,0 l/m² 5,7 km/h (2 Bft) W-NW 291 ° 1 min 176 W/m² 10,8 °C 15,4 °C 14,5 km/h (3 Bft)
12.10.2025 14:45 28,9 °C 15,4 °C 46 % 74 % 1027,1 hPa 0,0 l/m² 6,4 km/h (2 Bft) W 269 ° 1 min 178 W/m² 10,8 °C 15,4 °C 17,7 km/h (3 Bft)
12.10.2025 14:46 28,8 °C 15,4 °C 46 % 74 % 1027,0 hPa 0,0 l/m² 7,8 km/h (2 Bft) W 261 ° 1 min 172 W/m² 10,8 °C 14,6 °C 14,5 km/h (3 Bft)
12.10.2025 14:47 28,8 °C 15,4 °C 46 % 74 % 1027,0 hPa 0,0 l/m² 11,7 km/h (2 Bft) W 270 ° 1 min 162 W/m² 10,8 °C 12,8 °C 16,1 km/h (3 Bft)
12.10.2025 14:48 28,8 °C 15,4 °C 46 % 74 % 1027,1 hPa 0,0 l/m² 11,2 km/h (2 Bft) W 267 ° 1 min 139 W/m² 10,8 °C 13,0 °C 16,1 km/h (3 Bft)
12.10.2025 14:49 28,7 °C 15,4 °C 46 % 74 % 1027,0 hPa 0,0 l/m² 4,4 km/h (1 Bft) W-NW 286 ° 1 min 130 W/m² 10,8 °C 15,4 °C 8,0 km/h (2 Bft)
12.10.2025 14:51 28,7 °C 15,4 °C 46 % 74 % 1027,1 hPa 0,0 l/m² 10,1 km/h (2 Bft) W 265 ° 2 min 116 W/m² 10,8 °C 13,5 °C 20,9 km/h (4 Bft)
12.10.2025 14:53 28,6 °C 15,4 °C 46 % 73 % 1027,1 hPa 0,0 l/m² 9,6 km/h (2 Bft) W-NW 302 ° 2 min 104 W/m² 10,6 °C 13,7 °C 19,3 km/h (3 Bft)
12.10.2025 14:54 28,6 °C 15,4 °C 46 % 74 % 1027,1 hPa 0,0 l/m² 6,2 km/h (2 Bft) W 279 ° 1 min 95 W/m² 10,8 °C 15,4 °C 12,9 km/h (3 Bft)
12.10.2025 14:55 28,4 °C 15,4 °C 46 % 74 % 1027,1 hPa 0,0 l/m² 5,9 km/h (2 Bft) W 260 ° 1 min 91 W/m² 10,8 °C 15,4 °C 11,3 km/h (2 Bft)
12.10.2025 14:56 28,4 °C 15,4 °C 46 % 74 % 1027,1 hPa 0,0 l/m² 5,6 km/h (2 Bft) NW 309 ° 1 min 90 W/m² 10,8 °C 15,4 °C 11,3 km/h (2 Bft)
12.10.2025 14:57 28,4 °C 15,4 °C 46 % 74 % 1027,1 hPa 0,0 l/m² 7,3 km/h (2 Bft) W 259 ° 1 min 86 W/m² 10,8 °C 14,9 °C 12,9 km/h (3 Bft)
12.10.2025 14:58 28,3 °C 15,4 °C 46 % 74 % 1027,1 hPa 0,0 l/m² 8,5 km/h (2 Bft) W-NW 299 ° 1 min 84 W/m² 10,8 °C 14,3 °C 16,1 km/h (3 Bft)
12.10.2025 14:59 28,3 °C 15,4 °C 46 % 74 % 1027,0 hPa 0,0 l/m² 8,9 km/h (2 Bft) W 263 ° 1 min 84 W/m² 10,8 °C 14,1 °C 14,5 km/h (3 Bft)
12.10.2025 15:01 28,2 °C 15,3 °C 46 % 74 % 1027,0 hPa 0,0 l/m² 9,4 km/h (2 Bft) W 281 ° 2 min 86 W/m² 10,7 °C 13,7 °C 14,5 km/h (3 Bft)
12.10.2025 15:03 28,1 °C 15,3 °C 47 % 74 % 1027,0 hPa 0,0 l/m² 7,7 km/h (2 Bft) W 281 ° 2 min 81 W/m² 10,7 °C 14,6 °C 16,1 km/h (3 Bft)
12.10.2025 15:04 28,1 °C 15,3 °C 47 % 74 % 1026,9 hPa 0,0 l/m² 9,4 km/h (2 Bft) W 273 ° 1 min 81 W/m² 10,7 °C 13,7 °C 12,9 km/h (3 Bft)
12.10.2025 15:05 28,1 °C 15,3 °C 47 % 74 % 1026,9 hPa 0,0 l/m² 5,1 km/h (1 Bft) W-SW 257 ° 1 min 81 W/m² 10,7 °C 15,3 °C 11,3 km/h (2 Bft)
12.10.2025 15:06 28,0 °C 15,3 °C 47 % 74 % 1026,9 hPa 0,0 l/m² 8,6 km/h (2 Bft) W-NW 288 ° 1 min 81 W/m² 10,7 °C 14,1 °C 16,1 km/h (3 Bft)
12.10.2025 15:08 27,9 °C 15,3 °C 47 % 74 % 1026,9 hPa 0,0 l/m² 6,2 km/h (2 Bft) W 259 ° 2 min 81 W/m² 10,7 °C 15,3 °C 12,9 km/h (3 Bft)
12.10.2025 15:09 27,9 °C 15,3 °C 47 % 74 % 1026,9 hPa 0,0 l/m² 6,1 km/h (2 Bft) W 268 ° 1 min 81 W/m² 10,7 °C 15,3 °C 14,5 km/h (3 Bft)
12.10.2025 15:11 27,8 °C 15,3 °C 47 % 75 % 1026,8 hPa 0,0 l/m² 6,9 km/h (2 Bft) W-NW 290 ° 2 min 79 W/m² 10,9 °C 15,0 °C 12,9 km/h (3 Bft)
12.10.2025 15:12 27,7 °C 15,2 °C 47 % 75 % 1026,9 hPa 0,0 l/m² 9,5 km/h (2 Bft) W-SW 254 ° 1 min 79 W/m² 10,8 °C 13,6 °C 14,5 km/h (3 Bft)
12.10.2025 15:13 27,7 °C 15,2 °C 47 % 75 % 1026,9 hPa 0,0 l/m² 10,2 km/h (2 Bft) W 279 ° 1 min 79 W/m² 10,8 °C 13,2 °C 14,5 km/h (3 Bft)
12.10.2025 15:14 27,7 °C 15,2 °C 46 % 75 % 1026,8 hPa 0,0 l/m² 9,7 km/h (2 Bft) W-NW 282 ° 1 min 77 W/m² 10,8 °C 13,5 °C 12,9 km/h (3 Bft)
12.10.2025 15:15 27,6 °C 15,2 °C 46 % 75 % 1026,9 hPa 0,0 l/m² 5,3 km/h (1 Bft) W 261 ° 1 min 77 W/m² 10,8 °C 15,2 °C 11,3 km/h (2 Bft)
12.10.2025 15:16 27,6 °C 15,2 °C 46 % 75 % 1026,9 hPa 0,0 l/m² 4,5 km/h (1 Bft) W-SW 255 ° 1 min 77 W/m² 10,8 °C 15,2 °C 6,4 km/h (2 Bft)
12.10.2025 15:17 27,5 °C 15,2 °C 46 % 75 % 1026,9 hPa 0,0 l/m² 4,7 km/h (1 Bft) W-NW 284 ° 1 min 76 W/m² 10,8 °C 15,2 °C 6,4 km/h (2 Bft)
12.10.2025 15:18 27,4 °C 15,2 °C 46 % 75 % 1026,9 hPa 0,0 l/m² 5,3 km/h (1 Bft) W 269 ° 1 min 74 W/m² 10,8 °C 15,2 °C 9,7 km/h (2 Bft)
12.10.2025 15:19 27,4 °C 15,2 °C 46 % 75 % 1026,9 hPa 0,0 l/m² 5,4 km/h (2 Bft) W-NW 290 ° 1 min 74 W/m² 10,8 °C 15,2 °C 12,9 km/h (3 Bft)
12.10.2025 15:21 27,3 °C 15,2 °C 46 % 76 % 1027,0 hPa 0,0 l/m² 4,3 km/h (1 Bft) W-SW 256 ° 2 min 72 W/m² 11,0 °C 15,2 °C 12,9 km/h (3 Bft)
12.10.2025 15:23 27,2 °C 15,2 °C 46 % 76 % 1026,9 hPa 0,0 l/m² 5,8 km/h (2 Bft) W 261 ° 2 min 67 W/m² 11,0 °C 15,2 °C 11,3 km/h (2 Bft)
12.10.2025 15:24 27,2 °C 15,2 °C 46 % 76 % 1026,8 hPa 0,0 l/m² 4,9 km/h (1 Bft) W-SW 256 ° 1 min 65 W/m² 11,0 °C 15,2 °C 11,3 km/h (2 Bft)
12.10.2025 15:25 27,2 °C 15,2 °C 46 % 76 % 1026,9 hPa 0,0 l/m² 3,8 km/h (1 Bft) W-SW 241 ° 1 min 63 W/m² 11,0 °C 15,2 °C 8,0 km/h (2 Bft)
12.10.2025 15:26 27,2 °C 15,2 °C 46 % 76 % 1026,9 hPa 0,0 l/m² 4,7 km/h (1 Bft) W 268 ° 1 min 62 W/m² 11,0 °C 15,2 °C 8,0 km/h (2 Bft)
12.10.2025 15:27 27,2 °C 15,2 °C 46 % 76 % 1026,9 hPa 0,0 l/m² 3,2 km/h (1 Bft) W 271 ° 1 min 58 W/m² 11,0 °C 15,2 °C 9,7 km/h (2 Bft)
12.10.2025 15:28 27,1 °C 15,2 °C 46 % 76 % 1026,9 hPa 0,0 l/m² 2,2 km/h (1 Bft) W 262 ° 1 min 56 W/m² 11,0 °C 15,2 °C 4,8 km/h (1 Bft)
12.10.2025 15:29 27,1 °C 15,2 °C 46 % 76 % 1026,9 hPa 0,0 l/m² 5,4 km/h (2 Bft) W 274 ° 1 min 54 W/m² 11,0 °C 15,2 °C 9,7 km/h (2 Bft)
12.10.2025 15:31 27,1 °C 15,2 °C 46 % 76 % 1026,8 hPa 0,0 l/m² 4,7 km/h (1 Bft) W 264 ° 2 min 56 W/m² 11,0 °C 15,2 °C 9,7 km/h (2 Bft)
12.10.2025 15:33 27,1 °C 15,1 °C 47 % 76 % 1026,8 hPa 0,0 l/m² 5,5 km/h (2 Bft) W-SW 250 ° 2 min 62 W/m² 10,9 °C 15,1 °C 11,3 km/h (2 Bft)
12.10.2025 15:34 27,1 °C 15,2 °C 47 % 76 % 1026,9 hPa 0,0 l/m² 5,0 km/h (1 Bft) W-SW 246 ° 1 min 63 W/m² 11,0 °C 15,2 °C 11,3 km/h (2 Bft)
12.10.2025 15:35 27,2 °C 15,1 °C 47 % 76 % 1026,9 hPa 0,0 l/m² 5,6 km/h (2 Bft) W 262 ° 1 min 70 W/m² 10,9 °C 15,1 °C 11,3 km/h (2 Bft)
12.10.2025 15:36 27,2 °C 15,1 °C 47 % 76 % 1026,8 hPa 0,0 l/m² 4,7 km/h (1 Bft) W 269 ° 1 min 69 W/m² 10,9 °C 15,1 °C 6,4 km/h (2 Bft)
12.10.2025 15:37 27,2 °C 15,1 °C 47 % 76 % 1026,7 hPa 0,0 l/m² 4,9 km/h (1 Bft) W 276 ° 1 min 69 W/m² 10,9 °C 15,1 °C 6,4 km/h (2 Bft)
12.10.2025 15:38 27,3 °C 15,1 °C 47 % 76 % 1026,8 hPa 0,0 l/m² 2,3 km/h (1 Bft) W-SW 255 ° 1 min 76 W/m² 10,9 °C 15,1 °C 4,8 km/h (1 Bft)
12.10.2025 15:39 27,3 °C 15,1 °C 47 % 76 % 1026,8 hPa 0,0 l/m² 2,1 km/h (1 Bft) W-SW 258 ° 1 min 79 W/m² 10,9 °C 15,1 °C 4,8 km/h (1 Bft)
12.10.2025 15:41 27,6 °C 15,1 °C 47 % 76 % 1026,7 hPa 0,0 l/m² 4,3 km/h (1 Bft) W-SW 252 ° 2 min 65 W/m² 10,9 °C 15,1 °C 9,7 km/h (2 Bft)
12.10.2025 15:43 27,7 °C 15,1 °C 47 % 76 % 1026,7 hPa 0,0 l/m² 4,9 km/h (1 Bft) N-NW 333 ° 2 min 58 W/m² 10,9 °C 15,1 °C 9,7 km/h (2 Bft)
12.10.2025 15:44 27,8 °C 15,1 °C 46 % 76 % 1026,7 hPa 0,0 l/m² 4,3 km/h (1 Bft) W 272 ° 1 min 54 W/m² 10,9 °C 15,1 °C 9,7 km/h (2 Bft)
12.10.2025 15:46 28,1 °C 15,1 °C 46 % 76 % 1026,8 hPa 0,0 l/m² 8,6 km/h (2 Bft) W-NW 291 ° 0 min 49 W/m² 10,9 °C 13,9 °C 20,9 km/h (4 Bft)
12.10.2025 15:47 28,2 °C 15,1 °C 46 % 76 % 1026,8 hPa 0,0 l/m² 11,9 km/h (2 Bft) SW 234 ° 0 min 49 W/m² 10,9 °C 12,4 °C 19,3 km/h (3 Bft)
12.10.2025 15:48 28,3 °C 15,1 °C 46 % 76 % 1026,8 hPa 0,0 l/m² 12,3 km/h (2 Bft) W-NW 289 ° 0 min 51 W/m² 10,9 °C 12,3 °C 22,5 km/h (4 Bft)
12.10.2025 15:49 28,4 °C 15,0 °C 46 % 76 % 1026,8 hPa 0,0 l/m² 12,4 km/h (2 Bft) W 267 ° 1 min 53 W/m² 10,8 °C 12,1 °C 17,7 km/h (3 Bft)
12.10.2025 15:50 28,5 °C 15,0 °C 45 % 76 % 1026,8 hPa 0,0 l/m² 12,1 km/h (2 Bft) W-NW 289 ° 1 min 54 W/m² 10,8 °C 12,2 °C 16,1 km/h (3 Bft)
12.10.2025 15:52 28,7 °C 14,9 °C 45 % 76 % 1026,7 hPa 0,0 l/m² 8,0 km/h (2 Bft) W-SW 248 ° 2 min 62 W/m² 10,7 °C 14,0 °C 14,5 km/h (3 Bft)
12.10.2025 15:53 28,8 °C 14,9 °C 45 % 76 % 1026,7 hPa 0,0 l/m² 7,2 km/h (2 Bft) W-SW 245 ° 1 min 62 W/m² 10,7 °C 14,4 °C 12,9 km/h (3 Bft)
12.10.2025 15:54 28,9 °C 14,9 °C 45 % 76 % 1026,7 hPa 0,0 l/m² 6,2 km/h (2 Bft) W-NW 284 ° 1 min 60 W/m² 10,7 °C 14,9 °C 11,3 km/h (2 Bft)
12.10.2025 15:55 29,0 °C 14,9 °C 44 % 76 % 1026,8 hPa 0,0 l/m² 8,6 km/h (2 Bft) W-SW 250 ° 1 min 60 W/m² 10,7 °C 13,7 °C 14,5 km/h (3 Bft)
12.10.2025 15:56 29,1 °C 14,9 °C 44 % 76 % 1026,8 hPa 0,0 l/m² 10,9 km/h (2 Bft) W-SW 256 ° 1 min 60 W/m² 10,7 °C 12,6 °C 14,5 km/h (3 Bft)
12.10.2025 15:57 29,2 °C 14,9 °C 44 % 76 % 1026,8 hPa 0,0 l/m² 11,9 km/h (2 Bft) W-NW 288 ° 1 min 60 W/m² 10,7 °C 12,2 °C 17,7 km/h (3 Bft)
12.10.2025 15:58 29,3 °C 14,9 °C 44 % 77 % 1026,8 hPa 0,0 l/m² 8,8 km/h (2 Bft) W-SW 240 ° 1 min 60 W/m² 10,9 °C 13,6 °C 14,5 km/h (3 Bft)
12.10.2025 15:59 29,3 °C 14,9 °C 44 % 77 % 1026,8 hPa 0,0 l/m² 11,0 km/h (2 Bft) W-SW 254 ° 1 min 60 W/m² 10,9 °C 12,6 °C 17,7 km/h (3 Bft)
12.10.2025 16:00 29,4 °C 14,9 °C 44 % 77 % 1027,0 hPa 0,0 l/m² 9,0 km/h (2 Bft) W-SW 240 ° 1 min 58 W/m² 10,9 °C 13,5 °C 14,5 km/h (3 Bft)
12.10.2025 16:02 29,5 °C 14,9 °C 44 % 77 % 1026,9 hPa 0,0 l/m² 6,2 km/h (2 Bft) W-SW 251 ° 2 min 58 W/m² 10,9 °C 14,9 °C 11,3 km/h (2 Bft)
12.10.2025 16:03 29,6 °C 14,9 °C 43 % 77 % 1026,9 hPa 0,0 l/m² 7,7 km/h (2 Bft) W-SW 238 ° 1 min 58 W/m² 10,9 °C 14,2 °C 12,9 km/h (3 Bft)
12.10.2025 16:04 29,6 °C 14,8 °C 43 % 77 % 1026,9 hPa 0,0 l/m² 12,5 km/h (2 Bft) W-SW 246 ° 1 min 58 W/m² 10,8 °C 11,8 °C 16,1 km/h (3 Bft)
12.10.2025 16:05 29,7 °C 14,9 °C 43 % 77 % 1026,9 hPa 0,0 l/m² 11,7 km/h (2 Bft) W-SW 248 ° 1 min 56 W/m² 10,9 °C 12,3 °C 16,1 km/h (3 Bft)
12.10.2025 16:06 29,7 °C 14,8 °C 43 % 78 % 1026,8 hPa 0,0 l/m² 10,1 km/h (2 Bft) W-SW 251 ° 1 min 54 W/m² 11,0 °C 12,9 °C 12,9 km/h (3 Bft)
12.10.2025 16:07 29,7 °C 14,9 °C 43 % 78 % 1026,8 hPa 0,0 l/m² 8,6 km/h (2 Bft) SW 236 ° 1 min 53 W/m² 11,1 °C 13,7 °C 11,3 km/h (2 Bft)
12.10.2025 16:08 29,8 °C 14,9 °C 43 % 78 % 1026,7 hPa 0,0 l/m² 12,2 km/h (2 Bft) W-SW 238 ° 1 min 53 W/m² 11,1 °C 12,1 °C 16,1 km/h (3 Bft)
12.10.2025 16:09 29,8 °C 14,8 °C 43 % 78 % 1026,7 hPa 0,0 l/m² 14,8 km/h (3 Bft) SW 230 ° 0 min 51 W/m² 11,0 °C 11,0 °C 17,7 km/h (3 Bft)
12.10.2025 16:10 29,8 °C 14,8 °C 43 % 78 % 1026,8 hPa 0,0 l/m² 13,9 km/h (3 Bft) W-SW 258 ° 0 min 49 W/m² 11,0 °C 11,3 °C 17,7 km/h (3 Bft)
12.10.2025 16:12 29,9 °C 14,8 °C 43 % 78 % 1026,7 hPa 0,0 l/m² 12,3 km/h (2 Bft) W-SW 239 ° 0 min 47 W/m² 11,0 °C 11,9 °C 16,1 km/h (3 Bft)
12.10.2025 16:13 29,9 °C 14,8 °C 43 % 78 % 1026,7 hPa 0,0 l/m² 11,9 km/h (2 Bft) W-SW 250 ° 0 min 47 W/m² 11,0 °C 12,1 °C 16,1 km/h (3 Bft)
12.10.2025 16:14 30,0 °C 14,8 °C 43 % 78 % 1026,7 hPa 0,0 l/m² 12,3 km/h (2 Bft) SW 236 ° 0 min 47 W/m² 11,0 °C 11,9 °C 14,5 km/h (3 Bft)
12.10.2025 16:15 30,0 °C 14,8 °C 43 % 78 % 1026,7 hPa 0,0 l/m² 9,4 km/h (2 Bft) W-SW 242 ° 0 min 46 W/m² 11,0 °C 13,2 °C 12,9 km/h (3 Bft)
12.10.2025 16:16 30,0 °C 14,8 °C 43 % 78 % 1026,7 hPa 0,0 l/m² 8,8 km/h (2 Bft) W-SW 250 ° 0 min 46 W/m² 11,0 °C 13,5 °C 12,9 km/h (3 Bft)
12.10.2025 16:17 30,1 °C 14,8 °C 43 % 79 % 1026,6 hPa 0,0 l/m² 7,2 km/h (2 Bft) W-SW 239 ° 0 min 46 W/m² 11,2 °C 14,3 °C 11,3 km/h (2 Bft)
12.10.2025 16:18 30,1 °C 14,7 °C 42 % 79 % 1026,7 hPa 0,0 l/m² 9,0 km/h (2 Bft) SW 215 ° 0 min 44 W/m² 11,1 °C 13,3 °C 11,3 km/h (2 Bft)
12.10.2025 16:19 30,1 °C 14,8 °C 42 % 79 % 1026,6 hPa 0,0 l/m² 8,0 km/h (2 Bft) SW 222 ° 0 min 44 W/m² 11,2 °C 13,9 °C 11,3 km/h (2 Bft)
12.10.2025 16:21 30,1 °C 14,7 °C 42 % 79 % 1026,7 hPa 0,0 l/m² 8,1 km/h (2 Bft) SW 236 ° 0 min 40 W/m² 11,1 °C 13,7 °C 14,5 km/h (3 Bft)
12.10.2025 16:23 30,2 °C 14,7 °C 42 % 79 % 1026,7 hPa 0,0 l/m² 8,2 km/h (2 Bft) SW 236 ° 0 min 37 W/m² 11,1 °C 13,7 °C 11,3 km/h (2 Bft)
12.10.2025 16:24 30,2 °C 14,7 °C 42 % 79 % 1026,5 hPa 0,0 l/m² 7,0 km/h (2 Bft) W-SW 238 ° 0 min 37 W/m² 11,1 °C 14,4 °C 11,3 km/h (2 Bft)
12.10.2025 16:25 30,2 °C 14,7 °C 42 % 79 % 1026,6 hPa 0,0 l/m² 7,0 km/h (2 Bft) W-SW 244 ° 0 min 35 W/m² 11,1 °C 14,4 °C 9,7 km/h (2 Bft)
12.10.2025 16:26 30,2 °C 14,7 °C 42 % 79 % 1026,6 hPa 0,0 l/m² 7,2 km/h (2 Bft) SW 236 ° 0 min 35 W/m² 11,1 °C 14,2 °C 8,0 km/h (2 Bft)
12.10.2025 16:27 30,2 °C 14,7 °C 42 % 79 % 1026,5 hPa 0,0 l/m² 6,9 km/h (2 Bft) SW 233 ° 0 min 33 W/m² 11,1 °C 14,4 °C 9,7 km/h (2 Bft)
12.10.2025 16:28 30,2 °C 14,6 °C 42 % 79 % 1026,5 hPa 0,0 l/m² 7,5 km/h (2 Bft) W-SW 253 ° 0 min 33 W/m² 11,0 °C 14,0 °C 9,7 km/h (2 Bft)
12.10.2025 16:29 30,2 °C 14,6 °C 42 % 79 % 1026,6 hPa 0,0 l/m² 6,5 km/h (2 Bft) SW 227 ° 0 min 32 W/m² 11,0 °C 14,6 °C 8,0 km/h (2 Bft)
12.10.2025 16:31 30,2 °C 14,6 °C 42 % 79 % 1026,5 hPa 0,0 l/m² 6,2 km/h (2 Bft) W-SW 246 ° 0 min 32 W/m² 11,0 °C 14,6 °C 9,7 km/h (2 Bft)
12.10.2025 16:33 30,2 °C 14,6 °C 42 % 80 % 1026,5 hPa 0,0 l/m² 6,1 km/h (2 Bft) SW 236 ° 0 min 32 W/m² 11,2 °C 14,6 °C 9,7 km/h (2 Bft)
12.10.2025 16:34 30,2 °C 14,6 °C 43 % 80 % 1026,6 hPa 0,0 l/m² 5,0 km/h (1 Bft) SW 236 ° 0 min 32 W/m² 11,2 °C 14,6 °C 8,0 km/h (2 Bft)
12.10.2025 16:35 30,2 °C 14,6 °C 43 % 80 % 1026,5 hPa 0,0 l/m² 6,0 km/h (2 Bft) SW 228 ° 0 min 33 W/m² 11,2 °C 14,6 °C 11,3 km/h (2 Bft)
12.10.2025 16:36 30,2 °C 14,6 °C 43 % 80 % 1026,5 hPa 0,0 l/m² 7,3 km/h (2 Bft) SW 233 ° 0 min 32 W/m² 11,2 °C 14,1 °C 9,7 km/h (2 Bft)
12.10.2025 16:37 30,2 °C 14,6 °C 43 % 80 % 1026,6 hPa 0,0 l/m² 7,6 km/h (2 Bft) SW 225 ° 0 min 32 W/m² 11,2 °C 13,9 °C 9,7 km/h (2 Bft)
12.10.2025 16:38 30,2 °C 14,5 °C 43 % 80 % 1026,7 hPa 0,0 l/m² 6,6 km/h (2 Bft) SW 234 ° 0 min 30 W/m² 11,1 °C 14,4 °C 8,0 km/h (2 Bft)
12.10.2025 16:39 30,2 °C 14,6 °C 43 % 80 % 1026,6 hPa 0,0 l/m² 6,2 km/h (2 Bft) W-SW 243 ° 0 min 28 W/m² 11,2 °C 14,6 °C 8,0 km/h (2 Bft)
12.10.2025 16:41 30,2 °C 14,5 °C 43 % 80 % 1026,5 hPa 0,0 l/m² 5,0 km/h (1 Bft) SW 232 ° 0 min 28 W/m² 11,1 °C 14,5 °C 8,0 km/h (2 Bft)
12.10.2025 16:43 30,1 °C 14,5 °C 43 % 80 % 1026,5 hPa 0,0 l/m² 6,1 km/h (2 Bft) SW 222 ° 0 min 30 W/m² 11,1 °C 14,5 °C 9,7 km/h (2 Bft)
12.10.2025 16:44 30,1 °C 14,5 °C 43 % 80 % 1026,5 hPa 0,0 l/m² 7,0 km/h (2 Bft) SW 225 ° 0 min 30 W/m² 11,1 °C 14,2 °C 11,3 km/h (2 Bft)
12.10.2025 16:45 30,1 °C 14,4 °C 44 % 80 % 1026,5 hPa 0,0 l/m² 9,3 km/h (2 Bft) SW 222 ° 0 min 32 W/m² 11,0 °C 12,8 °C 11,3 km/h (2 Bft)
12.10.2025 16:46 30,1 °C 14,4 °C 44 % 80 % 1026,5 hPa 0,0 l/m² 8,6 km/h (2 Bft) SW 229 ° 0 min 32 W/m² 11,0 °C 13,1 °C 11,3 km/h (2 Bft)
12.10.2025 16:47 30,1 °C 14,4 °C 44 % 80 % 1026,5 hPa 0,0 l/m² 5,7 km/h (2 Bft) SW 235 ° 0 min 32 W/m² 11,0 °C 14,4 °C 8,0 km/h (2 Bft)
12.10.2025 16:48 30,0 °C 14,4 °C 44 % 80 % 1026,5 hPa 0,0 l/m² 5,6 km/h (2 Bft) SW 229 ° 0 min 33 W/m² 11,0 °C 14,4 °C 8,0 km/h (2 Bft)
12.10.2025 16:49 30,0 °C 14,4 °C 44 % 80 % 1026,4 hPa 0,0 l/m² 5,2 km/h (1 Bft) SW 232 ° 0 min 33 W/m² 11,0 °C 14,4 °C 6,4 km/h (2 Bft)
12.10.2025 16:51 29,9 °C 14,4 °C 44 % 80 % 1026,5 hPa 0,0 l/m² 5,4 km/h (2 Bft) SW 230 ° 0 min 33 W/m² 11,0 °C 14,4 °C 8,0 km/h (2 Bft)
12.10.2025 16:53 29,9 °C 14,4 °C 44 % 81 % 1026,4 hPa 0,0 l/m² 3,4 km/h (1 Bft) SW 231 ° 0 min 30 W/m² 11,2 °C 14,4 °C 6,4 km/h (2 Bft)
12.10.2025 16:54 29,9 °C 14,4 °C 44 % 81 % 1026,5 hPa 0,0 l/m² 3,0 km/h (1 Bft) W-SW 239 ° 0 min 30 W/m² 11,2 °C 14,4 °C 4,8 km/h (1 Bft)
12.10.2025 16:55 29,8 °C 14,4 °C 44 % 81 % 1026,4 hPa 0,0 l/m² 4,4 km/h (1 Bft) W-SW 239 ° 0 min 30 W/m² 11,2 °C 14,4 °C 6,4 km/h (2 Bft)
12.10.2025 16:56 29,8 °C 14,4 °C 44 % 81 % 1026,5 hPa 0,0 l/m² 3,3 km/h (1 Bft) W-SW 239 ° 0 min 28 W/m² 11,2 °C 14,4 °C 4,8 km/h (1 Bft)
12.10.2025 16:57 29,8 °C 14,4 °C 44 % 81 % 1026,5 hPa 0,0 l/m² 3,1 km/h (1 Bft) W-SW 239 ° 0 min 28 W/m² 11,2 °C 14,4 °C 3,2 km/h (1 Bft)
12.10.2025 16:58 29,7 °C 14,4 °C 44 % 81 % 1026,5 hPa 0,0 l/m² 3,4 km/h (1 Bft) W-SW 239 ° 0 min 30 W/m² 11,2 °C 14,4 °C 4,8 km/h (1 Bft)
12.10.2025 16:59 29,7 °C 14,4 °C 44 % 81 % 1026,5 hPa 0,0 l/m² 5,1 km/h (1 Bft) SW 229 ° 0 min 30 W/m² 11,2 °C 14,4 °C 6,4 km/h (2 Bft)
12.10.2025 17:01 29,7 °C 14,4 °C 44 % 81 % 1026,4 hPa 0,0 l/m² 4,9 km/h (1 Bft) SW 221 ° 0 min 28 W/m² 11,2 °C 14,4 °C 6,4 km/h (2 Bft)
12.10.2025 17:02 29,6 °C 14,4 °C 44 % 81 % 1026,4 hPa 0,0 l/m² 3,7 km/h (1 Bft) SW 222 ° 0 min 25 W/m² 11,2 °C 14,4 °C 4,8 km/h (1 Bft)
12.10.2025 17:03 29,6 °C 14,3 °C 43 % 81 % 1026,4 hPa 0,0 l/m² 3,3 km/h (1 Bft) SW 225 ° 0 min 23 W/m² 11,1 °C 14,3 °C 6,4 km/h (2 Bft)
12.10.2025 17:04 29,6 °C 14,4 °C 43 % 81 % 1026,4 hPa 0,0 l/m² 2,6 km/h (1 Bft) SW 225 ° 0 min 23 W/m² 11,2 °C 14,4 °C 3,2 km/h (1 Bft)
12.10.2025 17:05 29,6 °C 14,3 °C 43 % 81 % 1026,4 hPa 0,0 l/m² 1,4 km/h (1 Bft) SW 225 ° 0 min 23 W/m² 11,1 °C 14,3 °C 3,2 km/h (1 Bft)
12.10.2025 17:06 29,5 °C 14,3 °C 43 % 81 % 1026,4 hPa 0,0 l/m² 3,8 km/h (1 Bft) SW 225 ° 0 min 21 W/m² 11,1 °C 14,3 °C 4,8 km/h (1 Bft)
12.10.2025 17:08 29,4 °C 14,3 °C 43 % 81 % 1026,5 hPa 0,0 l/m² 4,2 km/h (1 Bft) SW 225 ° 0 min 21 W/m² 11,1 °C 14,3 °C 6,4 km/h (2 Bft)
12.10.2025 17:09 29,4 °C 14,3 °C 43 % 81 % 1026,5 hPa 0,0 l/m² 5,3 km/h (1 Bft) SW 225 ° 0 min 21 W/m² 11,1 °C 14,3 °C 6,4 km/h (2 Bft)
12.10.2025 17:11 29,3 °C 14,3 °C 43 % 82 % 1026,5 hPa 0,0 l/m² 2,1 km/h (1 Bft) W-SW 240 ° 0 min 23 W/m² 11,3 °C 14,3 °C 6,4 km/h (2 Bft)
12.10.2025 17:13 29,2 °C 14,3 °C 43 % 82 % 1026,4 hPa 0,0 l/m² 0,8 km/h (0 Bft) W-SW 240 ° 0 min 26 W/m² 11,3 °C 14,3 °C 4,8 km/h (1 Bft)
12.10.2025 17:14 29,2 °C 14,3 °C 43 % 82 % 1026,4 hPa 0,0 l/m² 0,2 km/h (0 Bft) W-SW 240 ° 0 min 28 W/m² 11,3 °C 14,3 °C 1,6 km/h (1 Bft)
12.10.2025 17:15 29,2 °C 14,3 °C 43 % 82 % 1026,4 hPa 0,0 l/m² 0,2 km/h (0 Bft) W-SW 240 ° 0 min 28 W/m² 11,3 °C 14,3 °C 1,6 km/h (1 Bft)
12.10.2025 17:16 29,1 °C 14,3 °C 43 % 82 % 1026,4 hPa 0,0 l/m² 1,2 km/h (1 Bft) W-SW 240 ° 0 min 28 W/m² 11,3 °C 14,3 °C 3,2 km/h (1 Bft)
12.10.2025 17:18 29,0 °C 14,3 °C 43 % 82 % 1026,4 hPa 0,0 l/m² 2,4 km/h (1 Bft) W-SW 240 ° 0 min 28 W/m² 11,3 °C 14,3 °C 4,8 km/h (1 Bft)
12.10.2025 17:19 29,0 °C 14,3 °C 43 % 82 % 1026,4 hPa 0,0 l/m² 1,9 km/h (1 Bft) W-SW 240 ° 0 min 26 W/m² 11,3 °C 14,3 °C 3,2 km/h (1 Bft)
12.10.2025 17:20 28,9 °C 14,3 °C 43 % 82 % 1026,3 hPa 0,0 l/m² 0,5 km/h (0 Bft) W-SW 240 ° 0 min 26 W/m² 11,3 °C 14,3 °C 1,6 km/h (1 Bft)
12.10.2025 17:21 28,9 °C 14,3 °C 43 % 82 % 1026,2 hPa 0,0 l/m² 1,8 km/h (1 Bft) W-SW 240 ° 0 min 26 W/m² 11,3 °C 14,3 °C 3,2 km/h (1 Bft)
12.10.2025 17:23 28,8 °C 14,3 °C 43 % 82 % 1026,1 hPa 0,0 l/m² 2,4 km/h (1 Bft) W-SW 257 ° 0 min 25 W/m² 11,3 °C 14,3 °C 4,8 km/h (1 Bft)
12.10.2025 17:24 28,8 °C 14,3 °C 43 % 82 % 1026,1 hPa 0,0 l/m² 1,4 km/h (1 Bft) W-SW 257 ° 0 min 23 W/m² 11,3 °C 14,3 °C 3,2 km/h (1 Bft)
12.10.2025 17:25 28,8 °C 14,3 °C 43 % 82 % 1026,3 hPa 0,0 l/m² 6,1 km/h (2 Bft) W 265 ° 0 min 21 W/m² 11,3 °C 14,3 °C 12,9 km/h (3 Bft)
12.10.2025 17:26 28,7 °C 14,3 °C 43 % 82 % 1026,2 hPa 0,0 l/m² 7,5 km/h (2 Bft) W 277 ° 0 min 19 W/m² 11,3 °C 13,7 °C 12,9 km/h (3 Bft)
12.10.2025 17:27 28,7 °C 14,3 °C 43 % 82 % 1026,2 hPa 0,0 l/m² 9,3 km/h (2 Bft) W-SW 258 ° 0 min 19 W/m² 11,3 °C 12,7 °C 14,5 km/h (3 Bft)
12.10.2025 17:28 28,7 °C 14,3 °C 43 % 82 % 1026,3 hPa 0,0 l/m² 6,4 km/h (2 Bft) W-NW 286 ° 0 min 18 W/m² 11,3 °C 14,3 °C 11,3 km/h (2 Bft)
12.10.2025 17:29 28,6 °C 14,3 °C 43 % 82 % 1026,3 hPa 0,0 l/m² 8,4 km/h (2 Bft) W 267 ° 0 min 18 W/m² 11,3 °C 13,1 °C 12,9 km/h (3 Bft)
12.10.2025 17:30 28,6 °C 14,3 °C 43 % 82 % 1026,2 hPa 0,0 l/m² 6,5 km/h (2 Bft) W-NW 292 ° 0 min 18 W/m² 11,3 °C 14,3 °C 11,3 km/h (2 Bft)
12.10.2025 17:31 28,6 °C 14,3 °C 43 % 81 % 1026,2 hPa 0,0 l/m² 8,2 km/h (2 Bft) W-NW 300 ° 0 min 18 W/m² 11,1 °C 13,3 °C 16,1 km/h (3 Bft)
12.10.2025 17:32 28,6 °C 14,3 °C 43 % 81 % 1026,3 hPa 0,0 l/m² 4,0 km/h (1 Bft) W-NW 291 ° 0 min 16 W/m² 11,1 °C 14,3 °C 9,7 km/h (2 Bft)
12.10.2025 17:33 28,4 °C 14,3 °C 43 % 81 % 1026,3 hPa 0,0 l/m² 3,4 km/h (1 Bft) W-NW 300 ° 0 min 14 W/m² 11,1 °C 14,3 °C 8,0 km/h (2 Bft)
12.10.2025 17:34 28,4 °C 14,3 °C 43 % 81 % 1026,3 hPa 0,0 l/m² 3,6 km/h (1 Bft) W-NW 299 ° 0 min 14 W/m² 11,1 °C 14,3 °C 6,4 km/h (2 Bft)
12.10.2025 17:35 28,4 °C 14,3 °C 44 % 81 % 1026,3 hPa 0,0 l/m² 2,7 km/h (1 Bft) W 281 ° 0 min 14 W/m² 11,1 °C 14,3 °C 4,8 km/h (1 Bft)
12.10.2025 17:36 28,4 °C 14,3 °C 44 % 81 % 1026,2 hPa 0,0 l/m² 2,5 km/h (1 Bft) W-NW 286 ° 0 min 14 W/m² 11,1 °C 14,3 °C 6,4 km/h (2 Bft)
12.10.2025 17:37 28,3 °C 14,3 °C 44 % 81 % 1026,2 hPa 0,0 l/m² 1,1 km/h (1 Bft) W 271 ° 0 min 14 W/m² 11,1 °C 14,3 °C 3,2 km/h (1 Bft)
12.10.2025 17:38 28,3 °C 14,3 °C 44 % 81 % 1026,2 hPa 0,0 l/m² 3,5 km/h (1 Bft) NW 310 ° 0 min 12 W/m² 11,1 °C 14,3 °C 4,8 km/h (1 Bft)
12.10.2025 17:39 28,3 °C 14,3 °C 44 % 81 % 1026,3 hPa 0,0 l/m² 4,9 km/h (1 Bft) NW 312 ° 0 min 14 W/m² 11,1 °C 14,3 °C 8,0 km/h (2 Bft)
12.10.2025 17:40 28,2 °C 14,3 °C 44 % 81 % 1026,3 hPa 0,0 l/m² 4,9 km/h (1 Bft) NW 320 ° 0 min 14 W/m² 11,1 °C 14,3 °C 8,0 km/h (2 Bft)
12.10.2025 17:41 28,2 °C 14,3 °C 44 % 81 % 1026,3 hPa 0,0 l/m² 1,0 km/h (0 Bft) N-NW 347 ° 0 min 14 W/m² 11,1 °C 14,3 °C 3,2 km/h (1 Bft)
12.10.2025 17:42 28,2 °C 14,3 °C 44 % 81 % 1026,3 hPa 0,0 l/m² 5,2 km/h (1 Bft) NW 309 ° 0 min 16 W/m² 11,1 °C 14,3 °C 8,0 km/h (2 Bft)
12.10.2025 17:43 28,2 °C 14,3 °C 44 % 81 % 1026,4 hPa 0,0 l/m² 1,7 km/h (1 Bft) W 272 ° 0 min 18 W/m² 11,1 °C 14,3 °C 4,8 km/h (1 Bft)
12.10.2025 17:44 28,1 °C 14,3 °C 44 % 81 % 1026,4 hPa 0,0 l/m² 1,2 km/h (1 Bft) NW 306 ° 0 min 18 W/m² 11,1 °C 14,3 °C 6,4 km/h (2 Bft)
12.10.2025 17:45 28,1 °C 14,3 °C 44 % 81 % 1026,4 hPa 0,0 l/m² 1,7 km/h (1 Bft) W-NW 300 ° 0 min 16 W/m² 11,1 °C 14,3 °C 6,4 km/h (2 Bft)
12.10.2025 17:46 28,1 °C 14,3 °C 44 % 81 % 1026,3 hPa 0,0 l/m² 3,0 km/h (1 Bft) NW 304 ° 0 min 14 W/m² 11,1 °C 14,3 °C 6,4 km/h (2 Bft)
12.10.2025 17:47 28,1 °C 14,3 °C 44 % 81 % 1026,3 hPa 0,0 l/m² 4,8 km/h (1 Bft) NW 310 ° 0 min 12 W/m² 11,1 °C 14,3 °C 9,7 km/h (2 Bft)
12.10.2025 17:48 28,0 °C 14,3 °C 44 % 81 % 1026,4 hPa 0,0 l/m² 6,7 km/h (2 Bft) NW 306 ° 0 min 12 W/m² 11,1 °C 14,1 °C 9,7 km/h (2 Bft)
12.10.2025 17:49 28,0 °C 14,3 °C 44 % 81 % 1026,3 hPa 0,0 l/m² 7,0 km/h (2 Bft) W 271 ° 0 min 12 W/m² 11,1 °C 13,9 °C 12,9 km/h (3 Bft)
12.10.2025 17:50 27,9 °C 14,3 °C 44 % 81 % 1026,4 hPa 0,0 l/m² 6,3 km/h (2 Bft) NW 304 ° 0 min 12 W/m² 11,1 °C 14,3 °C 14,5 km/h (3 Bft)
12.10.2025 17:51 27,9 °C 14,3 °C 44 % 81 % 1026,3 hPa 0,0 l/m² 5,5 km/h (2 Bft) N-NW 327 ° 0 min 12 W/m² 11,1 °C 14,3 °C 11,3 km/h (2 Bft)
12.10.2025 17:52 27,9 °C 14,3 °C 45 % 81 % 1026,3 hPa 0,0 l/m² 6,3 km/h (2 Bft) W 277 ° 0 min 12 W/m² 11,1 °C 14,3 °C 12,9 km/h (3 Bft)
12.10.2025 17:53 27,8 °C 14,3 °C 45 % 80 % 1026,3 hPa 0,0 l/m² 3,8 km/h (1 Bft) W-NW 298 ° 0 min 11 W/m² 10,9 °C 14,3 °C 9,7 km/h (2 Bft)
12.10.2025 17:54 27,8 °C 14,3 °C 45 % 80 % 1026,3 hPa 0,0 l/m² 7,4 km/h (2 Bft) W 274 ° 0 min 11 W/m² 10,9 °C 13,7 °C 12,9 km/h (3 Bft)
12.10.2025 17:55 27,8 °C 14,3 °C 45 % 80 % 1026,3 hPa 0,0 l/m² 5,4 km/h (2 Bft) W-NW 294 ° 0 min 11 W/m² 10,9 °C 14,3 °C 11,3 km/h (2 Bft)
12.10.2025 17:56 27,7 °C 14,3 °C 45 % 80 % 1026,4 hPa 0,0 l/m² 5,6 km/h (2 Bft) W 263 ° 0 min 11 W/m² 10,9 °C 14,3 °C 11,3 km/h (2 Bft)
12.10.2025 17:57 27,7 °C 14,3 °C 45 % 80 % 1026,3 hPa 0,0 l/m² 3,0 km/h (1 Bft) W 261 ° 0 min 9 W/m² 10,9 °C 14,3 °C 11,3 km/h (2 Bft)
12.10.2025 17:58 27,7 °C 14,3 °C 45 % 80 % 1026,3 hPa 0,0 l/m² 3,9 km/h (1 Bft) W-NW 290 ° 0 min 9 W/m² 10,9 °C 14,3 °C 9,7 km/h (2 Bft)
12.10.2025 17:59 27,7 °C 14,3 °C 45 % 80 % 1026,4 hPa 0,0 l/m² 8,3 km/h (2 Bft) NW 323 ° 0 min 9 W/m² 10,9 °C 13,2 °C 14,5 km/h (3 Bft)
12.10.2025 18:00 27,6 °C 14,3 °C 45 % 80 % 1026,4 hPa 0,0 l/m² 6,0 km/h (2 Bft) W-NW 301 ° 0 min 7 W/m² 10,9 °C 14,3 °C 12,9 km/h (3 Bft)
12.10.2025 18:01 27,6 °C 14,3 °C 45 % 80 % 1026,4 hPa 0,0 l/m² 4,6 km/h (1 Bft) W 280 ° 0 min 7 W/m² 10,9 °C 14,3 °C 12,9 km/h (3 Bft)
12.10.2025 18:02 27,6 °C 14,4 °C 45 % 80 % 1026,4 hPa 0,0 l/m² 2,9 km/h (1 Bft) NW 315 ° 0 min 7 W/m² 11,0 °C 14,4 °C 6,4 km/h (2 Bft)
12.10.2025 18:03 27,5 °C 14,3 °C 45 % 80 % 1026,3 hPa 0,0 l/m² 2,2 km/h (1 Bft) W 274 ° 0 min 7 W/m² 10,9 °C 14,3 °C 8,0 km/h (2 Bft)
12.10.2025 18:04 27,5 °C 14,3 °C 45 % 80 % 1026,3 hPa 0,0 l/m² 2,2 km/h (1 Bft) W-NW 300 ° 0 min 5 W/m² 10,9 °C 14,3 °C 6,4 km/h (2 Bft)
12.10.2025 18:05 27,4 °C 14,4 °C 45 % 80 % 1026,4 hPa 0,0 l/m² 6,8 km/h (2 Bft) N-NW 327 ° 0 min 5 W/m² 11,0 °C 14,2 °C 16,1 km/h (3 Bft)
12.10.2025 18:06 27,4 °C 14,3 °C 45 % 80 % 1026,4 hPa 0,0 l/m² 6,2 km/h (2 Bft) W-NW 288 ° 0 min 5 W/m² 10,9 °C 14,3 °C 14,5 km/h (3 Bft)
12.10.2025 18:07 27,3 °C 14,3 °C 45 % 80 % 1026,4 hPa 0,0 l/m² 4,4 km/h (1 Bft) NW 304 ° 0 min 5 W/m² 10,9 °C 14,3 °C 14,5 km/h (3 Bft)
12.10.2025 18:08 27,3 °C 14,4 °C 46 % 80 % 1026,5 hPa 0,0 l/m² 4,6 km/h (1 Bft) W-NW 294 ° 0 min 5 W/m² 11,0 °C 14,4 °C 9,7 km/h (2 Bft)
12.10.2025 18:09 27,3 °C 14,4 °C 46 % 80 % 1026,5 hPa 0,0 l/m² 4,2 km/h (1 Bft) W-NW 302 ° 0 min 5 W/m² 11,0 °C 14,4 °C 11,3 km/h (2 Bft)
12.10.2025 18:10 27,3 °C 14,3 °C 46 % 80 % 1026,5 hPa 0,0 l/m² 5,2 km/h (1 Bft) NW 325 ° 0 min 5 W/m² 10,9 °C 14,3 °C 8,0 km/h (2 Bft)
12.10.2025 18:11 27,2 °C 14,4 °C 46 % 80 % 1026,5 hPa 0,0 l/m² 3,4 km/h (1 Bft) W 280 ° 0 min 5 W/m² 11,0 °C 14,4 °C 11,3 km/h (2 Bft)
12.10.2025 18:12 27,2 °C 14,4 °C 46 % 80 % 1026,6 hPa 0,0 l/m² 4,2 km/h (1 Bft) W 275 ° 0 min 5 W/m² 11,0 °C 14,4 °C 12,9 km/h (3 Bft)
12.10.2025 18:13 27,2 °C 14,4 °C 46 % 80 % 1026,5 hPa 0,0 l/m² 2,7 km/h (1 Bft) W-NW 292 ° 0 min 5 W/m² 11,0 °C 14,4 °C 6,4 km/h (2 Bft)
12.10.2025 18:14 27,2 °C 14,4 °C 46 % 80 % 1026,5 hPa 0,0 l/m² 2,4 km/h (1 Bft) W 277 ° 0 min 0 W/m² 11,0 °C 14,4 °C 6,4 km/h (2 Bft)
12.10.2025 18:15 27,1 °C 14,4 °C 46 % 80 % 1026,5 hPa 0,0 l/m² 4,5 km/h (1 Bft) W-NW 286 ° 0 min 0 W/m² 11,0 °C 14,4 °C 6,4 km/h (2 Bft)
12.10.2025 18:16 27,1 °C 14,4 °C 46 % 80 % 1026,6 hPa 0,0 l/m² 2,1 km/h (1 Bft) W-NW 282 ° 0 min 0 W/m² 11,0 °C 14,4 °C 6,4 km/h (2 Bft)
12.10.2025 18:17 27,1 °C 14,4 °C 46 % 80 % 1026,5 hPa 0,0 l/m² 3,1 km/h (1 Bft) W-NW 288 ° 0 min 0 W/m² 11,0 °C 14,4 °C 6,4 km/h (2 Bft)
12.10.2025 18:18 27,0 °C 14,4 °C 46 % 80 % 1026,6 hPa 0,0 l/m² 4,6 km/h (1 Bft) NW 306 ° 0 min 0 W/m² 11,0 °C 14,4 °C 12,9 km/h (3 Bft)
12.10.2025 18:19 27,0 °C 14,4 °C 46 % 80 % 1026,5 hPa 0,0 l/m² 2,5 km/h (1 Bft) W-NW 290 ° 0 min 0 W/m² 11,0 °C 14,4 °C 11,3 km/h (2 Bft)
12.10.2025 18:20 26,9 °C 14,4 °C 46 % 80 % 1026,6 hPa 0,0 l/m² 4,3 km/h (1 Bft) W 278 ° 0 min 0 W/m² 11,0 °C 14,4 °C 12,9 km/h (3 Bft)
12.10.2025 18:21 26,9 °C 14,4 °C 46 % 80 % 1026,6 hPa 0,0 l/m² 4,4 km/h (1 Bft) W 268 ° 0 min 0 W/m² 11,0 °C 14,4 °C 9,7 km/h (2 Bft)
12.10.2025 18:22 26,9 °C 14,4 °C 46 % 80 % 1026,6 hPa 0,0 l/m² 3,3 km/h (1 Bft) W-NW 290 ° 0 min 0 W/m² 11,0 °C 14,4 °C 9,7 km/h (2 Bft)
12.10.2025 18:23 26,9 °C 14,4 °C 46 % 80 % 1026,7 hPa 0,0 l/m² 1,5 km/h (1 Bft) W 261 ° 0 min 0 W/m² 11,0 °C 14,4 °C 3,2 km/h (1 Bft)
12.10.2025 18:24 26,8 °C 14,4 °C 46 % 80 % 1026,6 hPa 0,0 l/m² 3,0 km/h (1 Bft) W-NW 293 ° 0 min 0 W/m² 11,0 °C 14,4 °C 8,0 km/h (2 Bft)
12.10.2025 18:25 26,8 °C 14,4 °C 47 % 80 % 1026,6 hPa 0,0 l/m² 2,9 km/h (1 Bft) W-NW 289 ° 0 min 0 W/m² 11,0 °C 14,4 °C 6,4 km/h (2 Bft)
12.10.2025 18:26 26,8 °C 14,4 °C 47 % 80 % 1026,5 hPa 0,0 l/m² 2,1 km/h (1 Bft) NW 314 ° 0 min 0 W/m² 11,0 °C 14,4 °C 6,4 km/h (2 Bft)
12.10.2025 18:27 26,7 °C 14,4 °C 47 % 80 % 1026,6 hPa 0,0 l/m² 5,8 km/h (2 Bft) W-NW 293 ° 0 min 0 W/m² 11,0 °C 14,4 °C 12,9 km/h (3 Bft)
12.10.2025 18:28 26,7 °C 14,4 °C 47 % 80 % 1026,6 hPa 0,0 l/m² 3,8 km/h (1 Bft) W 260 ° 0 min 0 W/m² 11,0 °C 14,4 °C 11,3 km/h (2 Bft)
12.10.2025 18:29 26,7 °C 14,4 °C 47 % 80 % 1026,5 hPa 0,0 l/m² 4,8 km/h (1 Bft) W-SW 258 ° 0 min 0 W/m² 11,0 °C 14,4 °C 12,9 km/h (3 Bft)
12.10.2025 18:30 26,7 °C 14,4 °C 47 % 80 % 1026,6 hPa 0,0 l/m² 4,6 km/h (1 Bft) W-NW 296 ° 0 min 0 W/m² 11,0 °C 14,4 °C 9,7 km/h (2 Bft)
12.10.2025 18:31 26,6 °C 14,3 °C 47 % 80 % 1026,6 hPa 0,0 l/m² 6,8 km/h (2 Bft) W-NW 288 ° 0 min 0 W/m² 10,9 °C 14,1 °C 12,9 km/h (3 Bft)
12.10.2025 18:32 26,6 °C 14,3 °C 47 % 80 % 1026,6 hPa 0,0 l/m² 3,8 km/h (1 Bft) W 280 ° 0 min 0 W/m² 10,9 °C 14,3 °C 8,0 km/h (2 Bft)
12.10.2025 18:33 26,6 °C 14,3 °C 47 % 80 % 1026,6 hPa 0,0 l/m² 4,2 km/h (1 Bft) W 273 ° 0 min 0 W/m² 10,9 °C 14,3 °C 11,3 km/h (2 Bft)
12.10.2025 18:34 26,6 °C 14,3 °C 47 % 80 % 1026,7 hPa 0,0 l/m² 1,8 km/h (1 Bft) W-NW 296 ° 0 min 0 W/m² 10,9 °C 14,3 °C 4,8 km/h (1 Bft)
12.10.2025 18:35 26,6 °C 14,3 °C 47 % 80 % 1026,6 hPa 0,0 l/m² 3,0 km/h (1 Bft) NW 311 ° 0 min 0 W/m² 10,9 °C 14,3 °C 6,4 km/h (2 Bft)
12.10.2025 18:36 26,5 °C 14,3 °C 47 % 80 % 1026,6 hPa 0,0 l/m² 5,4 km/h (2 Bft) W-NW 286 ° 0 min 0 W/m² 10,9 °C 14,3 °C 9,7 km/h (2 Bft)
12.10.2025 18:37 26,4 °C 14,3 °C 47 % 80 % 1026,6 hPa 0,0 l/m² 3,0 km/h (1 Bft) W 276 ° 0 min 0 W/m² 10,9 °C 14,3 °C 6,4 km/h (2 Bft)
12.10.2025 18:38 26,4 °C 14,3 °C 47 % 80 % 1026,6 hPa 0,0 l/m² 2,8 km/h (1 Bft) N-NW 332 ° 0 min 0 W/m² 10,9 °C 14,3 °C 6,4 km/h (2 Bft)
12.10.2025 18:39 26,4 °C 14,3 °C 47 % 80 % 1026,6 hPa 0,0 l/m² 3,9 km/h (1 Bft) W-NW 298 ° 0 min 0 W/m² 10,9 °C 14,3 °C 6,4 km/h (2 Bft)
12.10.2025 18:40 26,4 °C 14,3 °C 47 % 80 % 1026,5 hPa 0,0 l/m² 3,8 km/h (1 Bft) W 277 ° 0 min 0 W/m² 10,9 °C 14,3 °C 6,4 km/h (2 Bft)
12.10.2025 18:41 26,3 °C 14,3 °C 47 % 81 % 1026,6 hPa 0,0 l/m² 2,5 km/h (1 Bft) W-SW 257 ° 0 min 0 W/m² 11,1 °C 14,3 °C 6,4 km/h (2 Bft)
12.10.2025 18:42 26,3 °C 14,3 °C 47 % 80 % 1026,6 hPa 0,0 l/m² 1,4 km/h (1 Bft) W 266 ° 0 min 0 W/m² 10,9 °C 14,3 °C 3,2 km/h (1 Bft)
12.10.2025 18:43 26,3 °C 14,3 °C 47 % 81 % 1026,5 hPa 0,0 l/m² 1,7 km/h (1 Bft) W 274 ° 0 min 0 W/m² 11,1 °C 14,3 °C 4,8 km/h (1 Bft)
12.10.2025 18:44 26,3 °C 14,3 °C 48 % 81 % 1026,6 hPa 0,0 l/m² 0,9 km/h (0 Bft) W 275 ° 0 min 0 W/m² 11,1 °C 14,3 °C 3,2 km/h (1 Bft)
12.10.2025 18:46 26,2 °C 14,3 °C 48 % 81 % 1026,5 hPa 0,0 l/m² 3,2 km/h (1 Bft) W-NW 303 ° 0 min 0 W/m² 11,1 °C 14,3 °C 8,0 km/h (2 Bft)
12.10.2025 18:47 26,2 °C 14,3 °C 48 % 81 % 1026,5 hPa 0,0 l/m² 3,4 km/h (1 Bft) W-NW 293 ° 0 min 0 W/m² 11,1 °C 14,3 °C 6,4 km/h (2 Bft)
12.10.2025 18:48 26,2 °C 14,3 °C 48 % 81 % 1026,5 hPa 0,0 l/m² 3,4 km/h (1 Bft) W 276 ° 0 min 0 W/m² 11,1 °C 14,3 °C 6,4 km/h (2 Bft)
12.10.2025 18:49 26,2 °C 14,3 °C 48 % 81 % 1026,6 hPa 0,0 l/m² 4,8 km/h (1 Bft) W-NW 299 ° 0 min 0 W/m² 11,1 °C 14,3 °C 9,7 km/h (2 Bft)
12.10.2025 18:50 26,1 °C 14,3 °C 48 % 81 % 1026,6 hPa 0,0 l/m² 0,7 km/h (0 Bft) W-NW 299 ° 0 min 0 W/m² 11,1 °C 14,3 °C 1,6 km/h (1 Bft)
12.10.2025 18:51 26,1 °C 14,3 °C 48 % 81 % 1026,5 hPa 0,0 l/m² 0,4 km/h (0 Bft) W-NW 296 ° 0 min 0 W/m² 11,1 °C 14,3 °C 3,2 km/h (1 Bft)
12.10.2025 18:52 26,1 °C 14,3 °C 48 % 81 % 1026,5 hPa 0,0 l/m² 1,9 km/h (1 Bft) W 277 ° 0 min 0 W/m² 11,1 °C 14,3 °C 4,8 km/h (1 Bft)
12.10.2025 18:53 26,1 °C 14,3 °C 48 % 81 % 1026,5 hPa 0,0 l/m² 2,1 km/h (1 Bft) W-NW 298 ° 0 min 0 W/m² 11,1 °C 14,3 °C 4,8 km/h (1 Bft)
12.10.2025 18:54 26,0 °C 14,3 °C 48 % 81 % 1026,6 hPa 0,0 l/m² 0,9 km/h (0 Bft) W-NW 297 ° 0 min 0 W/m² 11,1 °C 14,3 °C 3,2 km/h (1 Bft)
12.10.2025 18:55 26,0 °C 14,3 °C 48 % 81 % 1026,5 hPa 0,0 l/m² 1,1 km/h (1 Bft) W 280 ° 0 min 0 W/m² 11,1 °C 14,3 °C 3,2 km/h (1 Bft)
12.10.2025 18:56 26,0 °C 14,3 °C 48 % 81 % 1026,5 hPa 0,0 l/m² 1,5 km/h (1 Bft) W-NW 292 ° 0 min 0 W/m² 11,1 °C 14,3 °C 4,8 km/h (1 Bft)
12.10.2025 18:57 25,9 °C 14,3 °C 48 % 81 % 1026,5 hPa 0,0 l/m² 2,6 km/h (1 Bft) W-NW 298 ° 0 min 0 W/m² 11,1 °C 14,3 °C 6,4 km/h (2 Bft)
12.10.2025 18:58 25,9 °C 14,3 °C 48 % 81 % 1026,5 hPa 0,0 l/m² 0,1 km/h (0 Bft) W-NW 298 ° 0 min 0 W/m² 11,1 °C 14,3 °C 1,6 km/h (1 Bft)
12.10.2025 18:59 25,9 °C 14,3 °C 48 % 81 % 1026,5 hPa 0,0 l/m² 1,1 km/h (1 Bft) NW 315 ° 0 min 0 W/m² 11,1 °C 14,3 °C 3,2 km/h (1 Bft)
12.10.2025 19:00 25,9 °C 14,3 °C 48 % 81 % 1026,5 hPa 0,0 l/m² 0,0 km/h (0 Bft) W-NW 292 ° 0 min 0 W/m² 11,1 °C 14,3 °C 0,0 km/h (0 Bft)
12.10.2025 19:01 25,8 °C 14,3 °C 48 % 81 % 1026,5 hPa 0,0 l/m² 1,1 km/h (1 Bft) W 279 ° 0 min 0 W/m² 11,1 °C 14,3 °C 3,2 km/h (1 Bft)
12.10.2025 19:03 25,8 °C 14,3 °C 49 % 81 % 1026,4 hPa 0,0 l/m² 1,0 km/h (0 Bft) W 271 ° 0 min 0 W/m² 11,1 °C 14,3 °C 4,8 km/h (1 Bft)
12.10.2025 19:04 25,8 °C 14,3 °C 49 % 81 % 1026,4 hPa 0,0 l/m² 1,8 km/h (1 Bft) W-NW 288 ° 0 min 0 W/m² 11,1 °C 14,3 °C 4,8 km/h (1 Bft)
12.10.2025 19:05 25,8 °C 14,3 °C 49 % 81 % 1026,5 hPa 0,0 l/m² 2,9 km/h (1 Bft) W-NW 302 ° 0 min 0 W/m² 11,1 °C 14,3 °C 4,8 km/h (1 Bft)
12.10.2025 19:06 25,7 °C 14,3 °C 49 % 81 % 1026,5 hPa 0,0 l/m² 2,2 km/h (1 Bft) W 280 ° 0 min 0 W/m² 11,1 °C 14,3 °C 11,3 km/h (2 Bft)
12.10.2025 19:08 25,7 °C 14,3 °C 49 % 81 % 1026,5 hPa 0,0 l/m² 3,1 km/h (1 Bft) W 273 ° 0 min 0 W/m² 11,1 °C 14,3 °C 8,0 km/h (2 Bft)
12.10.2025 19:09 25,7 °C 14,3 °C 49 % 81 % 1026,5 hPa 0,0 l/m² 3,8 km/h (1 Bft) W 261 ° 0 min 0 W/m² 11,1 °C 14,3 °C 9,7 km/h (2 Bft)
12.10.2025 19:10 25,7 °C 14,3 °C 49 % 81 % 1026,5 hPa 0,0 l/m² 1,5 km/h (1 Bft) W-NW 293 ° 0 min 0 W/m² 11,1 °C 14,3 °C 3,2 km/h (1 Bft)
12.10.2025 19:11 25,7 °C 14,3 °C 49 % 81 % 1026,6 hPa 0,0 l/m² 4,8 km/h (1 Bft) W-NW 295 ° 0 min 0 W/m² 11,1 °C 14,3 °C 12,9 km/h (3 Bft)
12.10.2025 19:13 25,6 °C 14,3 °C 49 % 81 % 1026,5 hPa 0,0 l/m² 3,3 km/h (1 Bft) W 261 ° 0 min 0 W/m² 11,1 °C 14,3 °C 9,7 km/h (2 Bft)
12.10.2025 19:14 25,6 °C 14,2 °C 49 % 81 % 1026,5 hPa 0,0 l/m² 0,9 km/h (0 Bft) W 262 ° 0 min 0 W/m² 11,0 °C 14,2 °C 3,2 km/h (1 Bft)
12.10.2025 19:15 25,6 °C 14,2 °C 49 % 81 % 1026,6 hPa 0,0 l/m² 2,9 km/h (1 Bft) W 281 ° 0 min 0 W/m² 11,0 °C 14,2 °C 6,4 km/h (2 Bft)
12.10.2025 19:16 25,6 °C 14,2 °C 49 % 81 % 1026,7 hPa 0,0 l/m² 4,2 km/h (1 Bft) W-NW 290 ° 0 min 0 W/m² 11,0 °C 14,2 °C 6,4 km/h (2 Bft)
12.10.2025 19:17 25,6 °C 14,2 °C 49 % 81 % 1026,7 hPa 0,0 l/m² 0,9 km/h (0 Bft) W-NW 292 ° 0 min 0 W/m² 11,0 °C 14,2 °C 3,2 km/h (1 Bft)
12.10.2025 19:18 25,6 °C 14,2 °C 49 % 81 % 1026,6 hPa 0,0 l/m² 2,7 km/h (1 Bft) W-NW 282 ° 0 min 0 W/m² 11,0 °C 14,2 °C 4,8 km/h (1 Bft)
12.10.2025 19:19 25,5 °C 14,2 °C 49 % 81 % 1026,7 hPa 0,0 l/m² 1,3 km/h (1 Bft) W-NW 285 ° 0 min 0 W/m² 11,0 °C 14,2 °C 3,2 km/h (1 Bft)
12.10.2025 19:20 25,5 °C 14,2 °C 49 % 81 % 1026,7 hPa 0,0 l/m² 2,3 km/h (1 Bft) W 264 ° 0 min 0 W/m² 11,0 °C 14,2 °C 4,8 km/h (1 Bft)
12.10.2025 19:21 25,5 °C 14,2 °C 49 % 81 % 1026,7 hPa 0,0 l/m² 5,8 km/h (2 Bft) W-NW 297 ° 0 min 0 W/m² 11,0 °C 14,2 °C 11,3 km/h (2 Bft)
12.10.2025 19:22 25,4 °C 14,2 °C 49 % 81 % 1026,7 hPa 0,0 l/m² 3,2 km/h (1 Bft) W 278 ° 0 min 0 W/m² 11,0 °C 14,2 °C 4,8 km/h (1 Bft)
12.10.2025 19:23 25,4 °C 14,2 °C 49 % 81 % 1026,7 hPa 0,0 l/m² 3,2 km/h (1 Bft) W-NW 294 ° 0 min 0 W/m² 11,0 °C 14,2 °C 4,8 km/h (1 Bft)
12.10.2025 19:24 25,4 °C 14,2 °C 49 % 81 % 1026,7 hPa 0,0 l/m² 4,3 km/h (1 Bft) W 272 ° 0 min 0 W/m² 11,0 °C 14,2 °C 9,7 km/h (2 Bft)
12.10.2025 19:25 25,4 °C 14,2 °C 50 % 81 % 1026,7 hPa 0,0 l/m² 6,0 km/h (2 Bft) W-NW 294 ° 0 min 0 W/m² 11,0 °C 14,2 °C 11,3 km/h (2 Bft)
12.10.2025 19:26 25,3 °C 14,2 °C 50 % 81 % 1026,7 hPa 0,0 l/m² 1,8 km/h (1 Bft) W 263 ° 0 min 0 W/m² 11,0 °C 14,2 °C 4,8 km/h (1 Bft)
12.10.2025 19:27 25,3 °C 14,2 °C 50 % 82 % 1026,7 hPa 0,0 l/m² 1,4 km/h (1 Bft) W 269 ° 0 min 0 W/m² 11,2 °C 14,2 °C 4,8 km/h (1 Bft)
12.10.2025 19:28 25,3 °C 14,2 °C 50 % 82 % 1026,6 hPa 0,0 l/m² 3,1 km/h (1 Bft) W 273 ° 0 min 0 W/m² 11,2 °C 14,2 °C 9,7 km/h (2 Bft)
12.10.2025 19:29 25,3 °C 14,2 °C 50 % 82 % 1026,7 hPa 0,0 l/m² 8,0 km/h (2 Bft) W-NW 284 ° 0 min 0 W/m² 11,2 °C 13,3 °C 12,9 km/h (3 Bft)
12.10.2025 19:30 25,3 °C 14,2 °C 50 % 82 % 1026,7 hPa 0,0 l/m² 7,4 km/h (2 Bft) W-NW 289 ° 0 min 0 W/m² 11,2 °C 13,6 °C 14,5 km/h (3 Bft)
12.10.2025 19:31 25,3 °C 14,2 °C 50 % 82 % 1026,7 hPa 0,0 l/m² 5,6 km/h (2 Bft) W-NW 282 ° 0 min 0 W/m² 11,2 °C 14,2 °C 14,5 km/h (3 Bft)
12.10.2025 19:32 25,3 °C 14,2 °C 50 % 82 % 1026,7 hPa 0,0 l/m² 5,3 km/h (1 Bft) W 277 ° 0 min 0 W/m² 11,2 °C 14,2 °C 9,7 km/h (2 Bft)
12.10.2025 19:33 25,2 °C 14,2 °C 50 % 82 % 1026,7 hPa 0,0 l/m² 10,9 km/h (2 Bft) N-NW 334 ° 0 min 0 W/m² 11,2 °C 11,8 °C 19,3 km/h (3 Bft)
12.10.2025 19:34 25,2 °C 14,2 °C 50 % 82 % 1026,7 hPa 0,0 l/m² 7,2 km/h (2 Bft) W 262 ° 0 min 0 W/m² 11,2 °C 13,7 °C 11,3 km/h (2 Bft)
12.10.2025 19:35 25,2 °C 14,1 °C 50 % 82 % 1026,7 hPa 0,0 l/m² 5,0 km/h (1 Bft) W-NW 286 ° 0 min 0 W/m² 11,1 °C 14,1 °C 9,7 km/h (2 Bft)
12.10.2025 19:36 25,2 °C 14,1 °C 50 % 82 % 1026,7 hPa 0,0 l/m² 4,5 km/h (1 Bft) W-NW 300 ° 0 min 0 W/m² 11,1 °C 14,1 °C 6,4 km/h (2 Bft)
12.10.2025 19:37 25,2 °C 14,1 °C 50 % 82 % 1026,7 hPa 0,0 l/m² 4,0 km/h (1 Bft) NW 312 ° 0 min 0 W/m² 11,1 °C 14,1 °C 8,0 km/h (2 Bft)
12.10.2025 19:38 25,2 °C 14,1 °C 50 % 82 % 1026,8 hPa 0,0 l/m² 2,4 km/h (1 Bft) W-NW 296 ° 0 min 0 W/m² 11,1 °C 14,1 °C 4,8 km/h (1 Bft)
12.10.2025 19:39 25,1 °C 14,1 °C 50 % 82 % 1026,7 hPa 0,0 l/m² 2,0 km/h (1 Bft) W-NW 297 ° 0 min 0 W/m² 11,1 °C 14,1 °C 6,4 km/h (2 Bft)
12.10.2025 19:40 25,1 °C 14,2 °C 50 % 82 % 1026,7 hPa 0,0 l/m² 3,0 km/h (1 Bft) W-NW 284 ° 0 min 0 W/m² 11,2 °C 14,2 °C 6,4 km/h (2 Bft)
12.10.2025 19:41 25,1 °C 14,1 °C 50 % 82 % 1026,7 hPa 0,0 l/m² 2,5 km/h (1 Bft) W-NW 290 ° 0 min 0 W/m² 11,1 °C 14,1 °C 6,4 km/h (2 Bft)
12.10.2025 19:42 25,1 °C 14,1 °C 50 % 82 % 1026,7 hPa 0,0 l/m² 1,3 km/h (1 Bft) W-NW 284 ° 0 min 0 W/m² 11,1 °C 14,1 °C 3,2 km/h (1 Bft)
12.10.2025 19:43 25,1 °C 14,1 °C 50 % 82 % 1026,7 hPa 0,0 l/m² 2,7 km/h (1 Bft) N-NW 340 ° 0 min 0 W/m² 11,1 °C 14,1 °C 6,4 km/h (2 Bft)
12.10.2025 19:44 25,1 °C 14,1 °C 50 % 82 % 1026,6 hPa 0,0 l/m² 3,7 km/h (1 Bft) W 270 ° 0 min 0 W/m² 11,1 °C 14,1 °C 6,4 km/h (2 Bft)
12.10.2025 19:45 25,1 °C 14,1 °C 50 % 82 % 1026,7 hPa 0,0 l/m² 4,6 km/h (1 Bft) W 275 ° 0 min 0 W/m² 11,1 °C 14,1 °C 8,0 km/h (2 Bft)
12.10.2025 19:46 25,0 °C 14,1 °C 50 % 82 % 1026,7 hPa 0,0 l/m² 6,0 km/h (2 Bft) NW 313 ° 0 min 0 W/m² 11,1 °C 14,1 °C 12,9 km/h (3 Bft)
12.10.2025 19:47 25,0 °C 14,1 °C 50 % 82 % 1026,7 hPa 0,0 l/m² 6,5 km/h (2 Bft) W-NW 284 ° 0 min 0 W/m² 11,1 °C 14,1 °C 12,9 km/h (3 Bft)
12.10.2025 19:48 25,0 °C 14,1 °C 50 % 82 % 1026,7 hPa 0,0 l/m² 2,3 km/h (1 Bft) W 281 ° 0 min 0 W/m² 11,1 °C 14,1 °C 6,4 km/h (2 Bft)
12.10.2025 19:49 25,0 °C 14,1 °C 50 % 82 % 1026,7 hPa 0,0 l/m² 2,4 km/h (1 Bft) W-NW 295 ° 0 min 0 W/m² 11,1 °C 14,1 °C 6,4 km/h (2 Bft)
12.10.2025 19:50 24,9 °C 14,1 °C 51 % 82 % 1026,7 hPa 0,0 l/m² 4,0 km/h (1 Bft) W 279 ° 0 min 0 W/m² 11,1 °C 14,1 °C 6,4 km/h (2 Bft)
12.10.2025 19:51 24,9 °C 14,1 °C 51 % 82 % 1026,7 hPa 0,0 l/m² 5,5 km/h (2 Bft) W 273 ° 0 min 0 W/m² 11,1 °C 14,1 °C 9,7 km/h (2 Bft)
12.10.2025 19:52 24,9 °C 14,1 °C 51 % 82 % 1026,7 hPa 0,0 l/m² 3,8 km/h (1 Bft) NW 324 ° 0 min 0 W/m² 11,1 °C 14,1 °C 8,0 km/h (2 Bft)
12.10.2025 19:53 24,9 °C 14,1 °C 51 % 82 % 1026,7 hPa 0,0 l/m² 3,8 km/h (1 Bft) NO 40 ° 0 min 0 W/m² 11,1 °C 14,1 °C 11,3 km/h (2 Bft)
12.10.2025 19:54 24,9 °C 14,1 °C 51 % 83 % 1026,6 hPa 0,0 l/m² 5,5 km/h (2 Bft) W 267 ° 0 min 0 W/m² 11,3 °C 14,1 °C 12,9 km/h (3 Bft)
12.10.2025 19:55 24,9 °C 14,1 °C 51 % 83 % 1026,7 hPa 0,0 l/m² 2,1 km/h (1 Bft) W-NW 286 ° 0 min 0 W/m² 11,3 °C 14,1 °C 9,7 km/h (2 Bft)
12.10.2025 19:56 24,9 °C 14,1 °C 51 % 83 % 1026,7 hPa 0,0 l/m² 2,3 km/h (1 Bft) W 265 ° 0 min 0 W/m² 11,3 °C 14,1 °C 6,4 km/h (2 Bft)
12.10.2025 19:57 24,8 °C 14,1 °C 51 % 83 % 1026,7 hPa 0,0 l/m² 1,7 km/h (1 Bft) W-NW 292 ° 0 min 0 W/m² 11,3 °C 14,1 °C 4,8 km/h (1 Bft)
12.10.2025 19:58 24,9 °C 14,1 °C 51 % 83 % 1026,7 hPa 0,0 l/m² 2,7 km/h (1 Bft) W 271 ° 0 min 0 W/m² 11,3 °C 14,1 °C 4,8 km/h (1 Bft)
12.10.2025 19:59 24,8 °C 14,1 °C 51 % 83 % 1026,7 hPa 0,0 l/m² 2,2 km/h (1 Bft) W 268 ° 0 min 0 W/m² 11,3 °C 14,1 °C 9,7 km/h (2 Bft)
12.10.2025 20:00 24,8 °C 14,1 °C 51 % 83 % 1026,7 hPa 0,0 l/m² 0,4 km/h (0 Bft) W 276 ° 0 min 0 W/m² 11,3 °C 14,1 °C 1,6 km/h (1 Bft)
12.10.2025 20:01 24,8 °C 14,0 °C 51 % 83 % 1026,6 hPa 0,0 l/m² 3,1 km/h (1 Bft) W 269 ° 0 min 0 W/m² 11,2 °C 14,0 °C 4,8 km/h (1 Bft)
12.10.2025 20:02 24,8 °C 14,1 °C 51 % 83 % 1026,7 hPa 0,0 l/m² 2,9 km/h (1 Bft) W 279 ° 0 min 0 W/m² 11,3 °C 14,1 °C 6,4 km/h (2 Bft)
12.10.2025 20:03 24,8 °C 14,0 °C 51 % 83 % 1026,8 hPa 0,0 l/m² 0,4 km/h (0 Bft) W 279 ° 0 min 0 W/m² 11,2 °C 14,0 °C 1,6 km/h (1 Bft)
12.10.2025 20:04 24,7 °C 14,0 °C 51 % 83 % 1026,8 hPa 0,0 l/m² 2,8 km/h (1 Bft) W 261 ° 0 min 0 W/m² 11,2 °C 14,0 °C 9,7 km/h (2 Bft)
12.10.2025 20:05 24,7 °C 14,0 °C 51 % 83 % 1026,8 hPa 0,0 l/m² 2,6 km/h (1 Bft) W-NW 290 ° 0 min 0 W/m² 11,2 °C 14,0 °C 6,4 km/h (2 Bft)
12.10.2025 20:06 24,7 °C 14,0 °C 51 % 83 % 1026,7 hPa 0,0 l/m² 5,2 km/h (1 Bft) W-NW 286 ° 0 min 0 W/m² 11,2 °C 14,0 °C 11,3 km/h (2 Bft)
12.10.2025 20:07 24,7 °C 14,0 °C 51 % 83 % 1026,7 hPa 0,0 l/m² 1,2 km/h (1 Bft) W 270 ° 0 min 0 W/m² 11,2 °C 14,0 °C 3,2 km/h (1 Bft)
12.10.2025 20:08 24,7 °C 14,0 °C 51 % 83 % 1026,8 hPa 0,0 l/m² 4,5 km/h (1 Bft) W-NW 286 ° 0 min 0 W/m² 11,2 °C 14,0 °C 8,0 km/h (2 Bft)
12.10.2025 20:09 24,7 °C 14,0 °C 51 % 83 % 1026,7 hPa 0,0 l/m² 4,8 km/h (1 Bft) W-NW 288 ° 0 min 0 W/m² 11,2 °C 14,0 °C 8,0 km/h (2 Bft)
12.10.2025 20:10 24,7 °C 14,0 °C 51 % 83 % 1026,8 hPa 0,0 l/m² 1,3 km/h (1 Bft) W 277 ° 0 min 0 W/m² 11,2 °C 14,0 °C 4,8 km/h (1 Bft)
12.10.2025 20:11 24,7 °C 14,0 °C 51 % 83 % 1026,8 hPa 0,0 l/m² 2,5 km/h (1 Bft) W-NW 285 ° 0 min 0 W/m² 11,2 °C 14,0 °C 11,3 km/h (2 Bft)
12.10.2025 20:12 24,7 °C 14,0 °C 51 % 83 % 1026,8 hPa 0,0 l/m² 4,4 km/h (1 Bft) W 267 ° 0 min 0 W/m² 11,2 °C 14,0 °C 11,3 km/h (2 Bft)
12.10.2025 20:13 24,7 °C 14,0 °C 51 % 83 % 1026,7 hPa 0,0 l/m² 4,1 km/h (1 Bft) W-SW 248 ° 0 min 0 W/m² 11,2 °C 14,0 °C 6,4 km/h (2 Bft)
12.10.2025 20:14 24,6 °C 14,0 °C 51 % 83 % 1026,8 hPa 0,0 l/m² 3,6 km/h (1 Bft) W 273 ° 0 min 0 W/m² 11,2 °C 14,0 °C 4,8 km/h (1 Bft)
12.10.2025 20:15 24,7 °C 14,0 °C 51 % 83 % 1026,7 hPa 0,0 l/m² 3,9 km/h (1 Bft) W 267 ° 0 min 0 W/m² 11,2 °C 14,0 °C 6,4 km/h (2 Bft)
12.10.2025 20:16 24,6 °C 14,0 °C 51 % 83 % 1026,8 hPa 0,0 l/m² 1,8 km/h (1 Bft) W 273 ° 0 min 0 W/m² 11,2 °C 14,0 °C 4,8 km/h (1 Bft)
12.10.2025 20:17 24,6 °C 13,9 °C 51 % 83 % 1026,8 hPa 0,0 l/m² 2,6 km/h (1 Bft) W-SW 255 ° 0 min 0 W/m² 11,1 °C 13,9 °C 4,8 km/h (1 Bft)
12.10.2025 20:18 24,6 °C 14,0 °C 51 % 83 % 1026,8 hPa 0,0 l/m² 1,3 km/h (1 Bft) W 262 ° 0 min 0 W/m² 11,2 °C 14,0 °C 3,2 km/h (1 Bft)
12.10.2025 20:19 24,6 °C 14,0 °C 51 % 83 % 1026,7 hPa 0,0 l/m² 5,1 km/h (1 Bft) W 273 ° 0 min 0 W/m² 11,2 °C 14,0 °C 14,5 km/h (3 Bft)
12.10.2025 20:20 24,6 °C 13,9 °C 52 % 83 % 1026,8 hPa 0,0 l/m² 6,6 km/h (2 Bft) W 263 ° 0 min 0 W/m² 11,1 °C 13,8 °C 12,9 km/h (3 Bft)
12.10.2025 20:21 24,6 °C 14,0 °C 52 % 83 % 1026,7 hPa 0,0 l/m² 6,1 km/h (2 Bft) W 273 ° 0 min 0 W/m² 11,2 °C 14,0 °C 9,7 km/h (2 Bft)
12.10.2025 20:22 24,6 °C 13,9 °C 52 % 83 % 1026,7 hPa 0,0 l/m² 5,5 km/h (2 Bft) W 270 ° 0 min 0 W/m² 11,1 °C 13,9 °C 11,3 km/h (2 Bft)
12.10.2025 20:23 24,5 °C 13,9 °C 52 % 83 % 1026,7 hPa 0,0 l/m² 5,0 km/h (1 Bft) W-SW 256 ° 0 min 0 W/m² 11,1 °C 13,9 °C 9,7 km/h (2 Bft)
12.10.2025 20:24 24,5 °C 13,9 °C 52 % 83 % 1026,7 hPa 0,0 l/m² 4,4 km/h (1 Bft) W 265 ° 0 min 0 W/m² 11,1 °C 13,9 °C 9,7 km/h (2 Bft)
12.10.2025 20:25 24,5 °C 13,9 °C 52 % 83 % 1026,7 hPa 0,0 l/m² 1,8 km/h (1 Bft) W 280 ° 0 min 0 W/m² 11,1 °C 13,9 °C 4,8 km/h (1 Bft)
12.10.2025 20:26 24,5 °C 13,9 °C 52 % 83 % 1026,8 hPa 0,0 l/m² 3,1 km/h (1 Bft) W-NW 283 ° 0 min 0 W/m² 11,1 °C 13,9 °C 8,0 km/h (2 Bft)
12.10.2025 20:27 24,5 °C 13,9 °C 52 % 83 % 1026,8 hPa 0,0 l/m² 3,6 km/h (1 Bft) W 261 ° 0 min 0 W/m² 11,1 °C 13,9 °C 9,7 km/h (2 Bft)
12.10.2025 20:28 24,4 °C 13,9 °C 52 % 83 % 1026,8 hPa 0,0 l/m² 3,9 km/h (1 Bft) W 263 ° 0 min 0 W/m² 11,1 °C 13,9 °C 9,7 km/h (2 Bft)
12.10.2025 20:29 24,4 °C 13,9 °C 52 % 84 % 1026,8 hPa 0,0 l/m² 5,0 km/h (1 Bft) W-NW 283 ° 0 min 0 W/m² 11,2 °C 13,9 °C 11,3 km/h (2 Bft)
12.10.2025 20:30 24,4 °C 13,9 °C 52 % 84 % 1026,7 hPa 0,0 l/m² 3,4 km/h (1 Bft) W 273 ° 0 min 0 W/m² 11,2 °C 13,9 °C 6,4 km/h (2 Bft)
12.10.2025 20:31 24,4 °C 13,9 °C 52 % 84 % 1026,7 hPa 0,0 l/m² 3,0 km/h (1 Bft) W 266 ° 0 min 0 W/m² 11,2 °C 13,9 °C 8,0 km/h (2 Bft)
12.10.2025 20:32 24,4 °C 13,9 °C 52 % 84 % 1026,8 hPa 0,0 l/m² 4,4 km/h (1 Bft) W 267 ° 0 min 0 W/m² 11,2 °C 13,9 °C 6,4 km/h (2 Bft)
12.10.2025 20:33 24,4 °C 13,9 °C 52 % 84 % 1026,8 hPa 0,0 l/m² 5,6 km/h (2 Bft) W 269 ° 0 min 0 W/m² 11,2 °C 13,9 °C 9,7 km/h (2 Bft)
12.10.2025 20:34 24,4 °C 13,9 °C 52 % 84 % 1026,8 hPa 0,0 l/m² 3,5 km/h (1 Bft) W 277 ° 0 min 0 W/m² 11,2 °C 13,9 °C 4,8 km/h (1 Bft)
12.10.2025 20:35 24,4 °C 13,9 °C 52 % 84 % 1026,8 hPa 0,0 l/m² 3,5 km/h (1 Bft) W 268 ° 0 min 0 W/m² 11,2 °C 13,9 °C 4,8 km/h (1 Bft)
12.10.2025 20:36 24,3 °C 13,9 °C 52 % 84 % 1026,8 hPa 0,0 l/m² 2,8 km/h (1 Bft) W-NW 282 ° 0 min 0 W/m² 11,2 °C 13,9 °C 4,8 km/h (1 Bft)
12.10.2025 20:37 24,3 °C 13,9 °C 52 % 84 % 1026,8 hPa 0,0 l/m² 5,0 km/h (1 Bft) W 276 ° 0 min 0 W/m² 11,2 °C 13,9 °C 11,3 km/h (2 Bft)
12.10.2025 20:38 24,3 °C 13,9 °C 52 % 84 % 1026,7 hPa 0,0 l/m² 5,2 km/h (1 Bft) W 275 ° 0 min 0 W/m² 11,2 °C 13,9 °C 12,9 km/h (3 Bft)
12.10.2025 20:39 24,3 °C 13,9 °C 52 % 84 % 1026,7 hPa 0,0 l/m² 4,5 km/h (1 Bft) W 265 ° 0 min 0 W/m² 11,2 °C 13,9 °C 6,4 km/h (2 Bft)
12.10.2025 20:40 24,3 °C 13,9 °C 52 % 84 % 1026,8 hPa 0,0 l/m² 3,7 km/h (1 Bft) W 271 ° 0 min 0 W/m² 11,2 °C 13,9 °C 9,7 km/h (2 Bft)
12.10.2025 20:41 24,3 °C 13,8 °C 52 % 84 % 1026,7 hPa 0,0 l/m² 5,6 km/h (2 Bft) W 263 ° 0 min 0 W/m² 11,1 °C 13,8 °C 6,4 km/h (2 Bft)
12.10.2025 20:42 24,3 °C 13,9 °C 52 % 84 % 1026,8 hPa 0,0 l/m² 5,0 km/h (1 Bft) W 268 ° 0 min 0 W/m² 11,2 °C 13,9 °C 12,9 km/h (3 Bft)
12.10.2025 20:43 24,3 °C 13,8 °C 52 % 84 % 1026,7 hPa 0,0 l/m² 7,2 km/h (2 Bft) W-NW 288 ° 0 min 0 W/m² 11,1 °C 13,3 °C 12,9 km/h (3 Bft)
12.10.2025 20:44 24,3 °C 13,8 °C 52 % 84 % 1026,7 hPa 0,0 l/m² 4,9 km/h (1 Bft) W 274 ° 0 min 0 W/m² 11,1 °C 13,8 °C 9,7 km/h (2 Bft)
12.10.2025 20:45 24,3 °C 13,8 °C 52 % 84 % 1026,7 hPa 0,0 l/m² 4,5 km/h (1 Bft) W 273 ° 0 min 0 W/m² 11,1 °C 13,8 °C 6,4 km/h (2 Bft)
12.10.2025 20:46 24,3 °C 13,8 °C 52 % 84 % 1026,7 hPa 0,0 l/m² 4,4 km/h (1 Bft) W 270 ° 0 min 0 W/m² 11,1 °C 13,8 °C 6,4 km/h (2 Bft)
12.10.2025 20:47 24,3 °C 13,8 °C 52 % 84 % 1026,7 hPa 0,0 l/m² 4,3 km/h (1 Bft) W 269 ° 0 min 0 W/m² 11,1 °C 13,8 °C 9,7 km/h (2 Bft)
12.10.2025 20:48 24,2 °C 13,8 °C 52 % 84 % 1026,7 hPa 0,0 l/m² 4,0 km/h (1 Bft) W 277 ° 0 min 0 W/m² 11,1 °C 13,8 °C 6,4 km/h (2 Bft)
12.10.2025 20:49 24,2 °C 13,8 °C 52 % 84 % 1026,7 hPa 0,0 l/m² 3,1 km/h (1 Bft) W 267 ° 0 min 0 W/m² 11,1 °C 13,8 °C 6,4 km/h (2 Bft)
12.10.2025 20:50 24,2 °C 13,8 °C 52 % 84 % 1026,6 hPa 0,0 l/m² 3,0 km/h (1 Bft) W 270 ° 0 min 0 W/m² 11,1 °C 13,8 °C 4,8 km/h (1 Bft)
12.10.2025 20:51 24,2 °C 13,8 °C 52 % 85 % 1026,7 hPa 0,0 l/m² 3,5 km/h (1 Bft) W 270 ° 0 min 0 W/m² 11,3 °C 13,8 °C 6,4 km/h (2 Bft)
12.10.2025 20:53 24,2 °C 13,8 °C 52 % 84 % 1026,6 hPa 0,0 l/m² 3,3 km/h (1 Bft) W-SW 246 ° 0 min 0 W/m² 11,1 °C 13,8 °C 4,8 km/h (1 Bft)
12.10.2025 20:54 24,2 °C 13,8 °C 52 % 84 % 1026,6 hPa 0,0 l/m² 1,8 km/h (1 Bft) W-SW 257 ° 0 min 0 W/m² 11,1 °C 13,8 °C 4,8 km/h (1 Bft)
12.10.2025 20:55 24,2 °C 13,8 °C 52 % 84 % 1026,5 hPa 0,0 l/m² 4,0 km/h (1 Bft) W 263 ° 0 min 0 W/m² 11,1 °C 13,8 °C 8,0 km/h (2 Bft)
12.10.2025 20:56 24,2 °C 13,8 °C 52 % 85 % 1026,6 hPa 0,0 l/m² 3,8 km/h (1 Bft) W-SW 256 ° 0 min 0 W/m² 11,3 °C 13,8 °C 6,4 km/h (2 Bft)
12.10.2025 20:57 24,2 °C 13,8 °C 53 % 85 % 1026,6 hPa 0,0 l/m² 4,4 km/h (1 Bft) W 259 ° 0 min 0 W/m² 11,3 °C 13,8 °C 6,4 km/h (2 Bft)
12.10.2025 20:58 24,2 °C 13,8 °C 53 % 85 % 1026,6 hPa 0,0 l/m² 5,0 km/h (1 Bft) W 261 ° 0 min 0 W/m² 11,3 °C 13,8 °C 9,7 km/h (2 Bft)
12.10.2025 20:59 24,2 °C 13,8 °C 53 % 85 % 1026,6 hPa 0,0 l/m² 5,1 km/h (1 Bft) W 263 ° 0 min 0 W/m² 11,3 °C 13,8 °C 9,7 km/h (2 Bft)
12.10.2025 21:00 24,2 °C 13,8 °C 53 % 85 % 1026,5 hPa 0,0 l/m² 4,0 km/h (1 Bft) W-SW 248 ° 0 min 0 W/m² 11,3 °C 13,8 °C 4,8 km/h (1 Bft)
12.10.2025 21:01 24,2 °C 13,8 °C 53 % 85 % 1026,5 hPa 0,0 l/m² 5,3 km/h (1 Bft) W-SW 246 ° 0 min 0 W/m² 11,3 °C 13,8 °C 9,7 km/h (2 Bft)
12.10.2025 21:03 24,1 °C 13,8 °C 53 % 85 % 1026,5 hPa 0,0 l/m² 5,2 km/h (1 Bft) W-SW 244 ° 0 min 0 W/m² 11,3 °C 13,8 °C 9,7 km/h (2 Bft)
12.10.2025 21:04 24,1 °C 13,7 °C 53 % 85 % 1026,5 hPa 0,0 l/m² 4,4 km/h (1 Bft) W 259 ° 0 min 0 W/m² 11,2 °C 13,7 °C 6,4 km/h (2 Bft)
12.10.2025 21:05 24,2 °C 13,7 °C 53 % 85 % 1026,5 hPa 0,0 l/m² 3,0 km/h (1 Bft) W-SW 254 ° 0 min 0 W/m² 11,2 °C 13,7 °C 4,8 km/h (1 Bft)
12.10.2025 21:06 24,1 °C 13,7 °C 53 % 85 % 1026,6 hPa 0,0 l/m² 3,2 km/h (1 Bft) W-SW 258 ° 0 min 0 W/m² 11,2 °C 13,7 °C 6,4 km/h (2 Bft)
12.10.2025 21:07 24,1 °C 13,7 °C 53 % 85 % 1026,6 hPa 0,0 l/m² 3,4 km/h (1 Bft) W-SW 251 ° 0 min 0 W/m² 11,2 °C 13,7 °C 4,8 km/h (1 Bft)
12.10.2025 21:08 24,1 °C 13,7 °C 53 % 85 % 1026,6 hPa 0,0 l/m² 3,4 km/h (1 Bft) W 271 ° 0 min 0 W/m² 11,2 °C 13,7 °C 6,4 km/h (2 Bft)
12.10.2025 21:09 24,1 °C 13,7 °C 53 % 85 % 1026,7 hPa 0,0 l/m² 2,5 km/h (1 Bft) W 263 ° 0 min 0 W/m² 11,2 °C 13,7 °C 4,8 km/h (1 Bft)
12.10.2025 21:10 24,1 °C 13,7 °C 53 % 85 % 1026,7 hPa 0,0 l/m² 3,4 km/h (1 Bft) W-SW 252 ° 0 min 0 W/m² 11,2 °C 13,7 °C 6,4 km/h (2 Bft)
12.10.2025 21:11 24,1 °C 13,7 °C 53 % 85 % 1026,7 hPa 0,0 l/m² 3,2 km/h (1 Bft) W-SW 251 ° 0 min 0 W/m² 11,2 °C 13,7 °C 4,8 km/h (1 Bft)
12.10.2025 21:12 24,1 °C 13,7 °C 53 % 85 % 1026,7 hPa 0,0 l/m² 5,2 km/h (1 Bft) W-SW 253 ° 0 min 0 W/m² 11,2 °C 13,7 °C 6,4 km/h (2 Bft)
12.10.2025 21:13 24,1 °C 13,7 °C 53 % 85 % 1026,7 hPa 0,0 l/m² 4,3 km/h (1 Bft) W-SW 252 ° 0 min 0 W/m² 11,2 °C 13,7 °C 6,4 km/h (2 Bft)
12.10.2025 21:14 24,1 °C 13,7 °C 53 % 85 % 1026,7 hPa 0,0 l/m² 6,9 km/h (2 Bft) W-SW 256 ° 0 min 0 W/m² 11,2 °C 13,4 °C 12,9 km/h (3 Bft)
12.10.2025 21:15 24,1 °C 13,7 °C 53 % 85 % 1026,6 hPa 0,0 l/m² 5,0 km/h (1 Bft) W-SW 246 ° 0 min 0 W/m² 11,2 °C 13,7 °C 9,7 km/h (2 Bft)
12.10.2025 21:16 24,1 °C 13,7 °C 53 % 85 % 1026,7 hPa 0,0 l/m² 5,9 km/h (2 Bft) W-SW 250 ° 0 min 0 W/m² 11,2 °C 13,7 °C 8,0 km/h (2 Bft)
12.10.2025 21:17 24,1 °C 13,7 °C 53 % 85 % 1026,5 hPa 0,0 l/m² 7,0 km/h (2 Bft) W 259 ° 0 min 0 W/m² 11,2 °C 13,3 °C 11,3 km/h (2 Bft)
12.10.2025 21:18 24,1 °C 13,7 °C 53 % 85 % 1026,6 hPa 0,0 l/m² 6,8 km/h (2 Bft) W-SW 256 ° 0 min 0 W/m² 11,2 °C 13,5 °C 12,9 km/h (3 Bft)
12.10.2025 21:19 24,1 °C 13,7 °C 53 % 86 % 1026,6 hPa 0,0 l/m² 7,2 km/h (2 Bft) W-SW 242 ° 0 min 0 W/m² 11,4 °C 13,2 °C 11,3 km/h (2 Bft)
12.10.2025 21:20 24,1 °C 13,6 °C 53 % 86 % 1026,7 hPa 0,0 l/m² 7,1 km/h (2 Bft) W-SW 248 ° 0 min 0 W/m² 11,3 °C 13,2 °C 11,3 km/h (2 Bft)
12.10.2025 21:21 24,1 °C 13,7 °C 53 % 86 % 1026,5 hPa 0,0 l/m² 7,3 km/h (2 Bft) W-SW 252 ° 0 min 0 W/m² 11,4 °C 13,2 °C 11,3 km/h (2 Bft)
12.10.2025 21:22 24,1 °C 13,7 °C 53 % 86 % 1026,6 hPa 0,0 l/m² 6,6 km/h (2 Bft) W-SW 248 ° 0 min 0 W/m² 11,4 °C 13,6 °C 11,3 km/h (2 Bft)
12.10.2025 21:23 24,1 °C 13,6 °C 53 % 86 % 1026,6 hPa 0,0 l/m² 6,6 km/h (2 Bft) W-SW 250 ° 0 min 0 W/m² 11,3 °C 13,5 °C 9,7 km/h (2 Bft)
12.10.2025 21:24 24,1 °C 13,6 °C 53 % 86 % 1026,6 hPa 0,0 l/m² 7,9 km/h (2 Bft) W-SW 246 ° 0 min 0 W/m² 11,3 °C 12,7 °C 11,3 km/h (2 Bft)
12.10.2025 21:25 24,1 °C 13,6 °C 53 % 86 % 1026,6 hPa 0,0 l/m² 6,1 km/h (2 Bft) W 260 ° 0 min 0 W/m² 11,3 °C 13,6 °C 9,7 km/h (2 Bft)
12.10.2025 21:26 24,1 °C 13,6 °C 53 % 86 % 1026,6 hPa 0,0 l/m² 3,6 km/h (1 Bft) W-SW 257 ° 0 min 0 W/m² 11,3 °C 13,6 °C 6,4 km/h (2 Bft)
12.10.2025 21:27 24,1 °C 13,6 °C 53 % 86 % 1026,6 hPa 0,0 l/m² 4,7 km/h (1 Bft) W 268 ° 0 min 0 W/m² 11,3 °C 13,6 °C 8,0 km/h (2 Bft)
12.10.2025 21:28 24,1 °C 13,6 °C 53 % 86 % 1026,6 hPa 0,0 l/m² 3,2 km/h (1 Bft) W 259 ° 0 min 0 W/m² 11,3 °C 13,6 °C 4,8 km/h (1 Bft)
12.10.2025 21:29 24,1 °C 13,6 °C 54 % 86 % 1026,5 hPa 0,0 l/m² 5,4 km/h (2 Bft) W-SW 251 ° 0 min 0 W/m² 11,3 °C 13,6 °C 8,0 km/h (2 Bft)
12.10.2025 21:30 24,1 °C 13,6 °C 54 % 86 % 1026,6 hPa 0,0 l/m² 7,1 km/h (2 Bft) W-SW 250 ° 0 min 0 W/m² 11,3 °C 13,2 °C 11,3 km/h (2 Bft)
12.10.2025 21:31 24,1 °C 13,6 °C 54 % 86 % 1026,6 hPa 0,0 l/m² 7,1 km/h (2 Bft) W-NW 285 ° 0 min 0 W/m² 11,3 °C 13,2 °C 11,3 km/h (2 Bft)
12.10.2025 21:32 24,1 °C 13,6 °C 54 % 86 % 1026,6 hPa 0,0 l/m² 7,9 km/h (2 Bft) W 269 ° 0 min 0 W/m² 11,3 °C 12,7 °C 11,3 km/h (2 Bft)
12.10.2025 21:33 24,1 °C 13,6 °C 54 % 86 % 1026,6 hPa 0,0 l/m² 5,9 km/h (2 Bft) W 266 ° 0 min 0 W/m² 11,3 °C 13,6 °C 9,7 km/h (2 Bft)
12.10.2025 21:34 24,1 °C 13,6 °C 54 % 86 % 1026,6 hPa 0,0 l/m² 5,8 km/h (2 Bft) W-SW 250 ° 0 min 0 W/m² 11,3 °C 13,6 °C 8,0 km/h (2 Bft)
12.10.2025 21:35 24,1 °C 13,6 °C 54 % 86 % 1026,5 hPa 0,0 l/m² 4,5 km/h (1 Bft) W 270 ° 0 min 0 W/m² 11,3 °C 13,6 °C 9,7 km/h (2 Bft)
12.10.2025 21:36 24,1 °C 13,6 °C 54 % 86 % 1026,6 hPa 0,0 l/m² 1,8 km/h (1 Bft) W 269 ° 0 min 0 W/m² 11,3 °C 13,6 °C 4,8 km/h (1 Bft)
12.10.2025 21:37 24,1 °C 13,6 °C 54 % 86 % 1026,6 hPa 0,0 l/m² 1,5 km/h (1 Bft) W-SW 253 ° 0 min 0 W/m² 11,3 °C 13,6 °C 4,8 km/h (1 Bft)
12.10.2025 21:38 24,1 °C 13,6 °C 54 % 86 % 1026,6 hPa 0,0 l/m² 4,9 km/h (1 Bft) W 260 ° 0 min 0 W/m² 11,3 °C 13,6 °C 8,0 km/h (2 Bft)
12.10.2025 21:39 24,1 °C 13,6 °C 54 % 86 % 1026,5 hPa 0,0 l/m² 3,8 km/h (1 Bft) W 259 ° 0 min 0 W/m² 11,3 °C 13,6 °C 8,0 km/h (2 Bft)
12.10.2025 21:40 24,0 °C 13,6 °C 54 % 86 % 1026,5 hPa 0,0 l/m² 4,2 km/h (1 Bft) W-SW 251 ° 0 min 0 W/m² 11,3 °C 13,6 °C 12,9 km/h (3 Bft)
12.10.2025 21:41 24,0 °C 13,6 °C 54 % 86 % 1026,6 hPa 0,0 l/m² 4,6 km/h (1 Bft) W-NW 287 ° 0 min 0 W/m² 11,3 °C 13,6 °C 11,3 km/h (2 Bft)
12.10.2025 21:42 24,1 °C 13,6 °C 54 % 86 % 1026,5 hPa 0,0 l/m² 3,9 km/h (1 Bft) W 265 ° 0 min 0 W/m² 11,3 °C 13,6 °C 6,4 km/h (2 Bft)
12.10.2025 21:43 24,0 °C 13,6 °C 54 % 86 % 1026,5 hPa 0,0 l/m² 6,2 km/h (2 Bft) W-SW 248 ° 0 min 0 W/m² 11,3 °C 13,6 °C 11,3 km/h (2 Bft)
12.10.2025 21:44 24,0 °C 13,6 °C 54 % 87 % 1026,5 hPa 0,0 l/m² 5,0 km/h (1 Bft) W-NW 290 ° 0 min 0 W/m² 11,5 °C 13,6 °C 9,7 km/h (2 Bft)
12.10.2025 21:46 24,0 °C 13,6 °C 54 % 87 % 1026,5 hPa 0,0 l/m² 5,3 km/h (1 Bft) W 275 ° 0 min 0 W/m² 11,5 °C 13,6 °C 9,7 km/h (2 Bft)
12.10.2025 21:47 24,0 °C 13,6 °C 54 % 87 % 1026,5 hPa 0,0 l/m² 4,2 km/h (1 Bft) W 267 ° 0 min 0 W/m² 11,5 °C 13,6 °C 9,7 km/h (2 Bft)
12.10.2025 21:48 24,0 °C 13,6 °C 54 % 87 % 1026,5 hPa 0,0 l/m² 5,6 km/h (2 Bft) W 273 ° 0 min 0 W/m² 11,5 °C 13,6 °C 9,7 km/h (2 Bft)
12.10.2025 21:49 24,0 °C 13,5 °C 54 % 87 % 1026,5 hPa 0,0 l/m² 5,2 km/h (1 Bft) W 269 ° 0 min 0 W/m² 11,4 °C 13,5 °C 9,7 km/h (2 Bft)
12.10.2025 21:50 24,0 °C 13,5 °C 54 % 87 % 1026,5 hPa 0,0 l/m² 5,4 km/h (2 Bft) W 278 ° 0 min 0 W/m² 11,4 °C 13,5 °C 6,4 km/h (2 Bft)
12.10.2025 21:51 24,0 °C 13,5 °C 54 % 87 % 1026,6 hPa 0,0 l/m² 3,8 km/h (1 Bft) W 267 ° 0 min 0 W/m² 11,4 °C 13,5 °C 6,4 km/h (2 Bft)
12.10.2025 21:52 24,0 °C 13,5 °C 54 % 87 % 1026,5 hPa 0,0 l/m² 4,9 km/h (1 Bft) W-SW 252 ° 0 min 0 W/m² 11,4 °C 13,5 °C 11,3 km/h (2 Bft)
12.10.2025 21:53 24,0 °C 13,5 °C 54 % 87 % 1026,6 hPa 0,0 l/m² 4,7 km/h (1 Bft) W-SW 254 ° 0 min 0 W/m² 11,4 °C 13,5 °C 8,0 km/h (2 Bft)
12.10.2025 21:54 24,0 °C 13,5 °C 54 % 87 % 1026,5 hPa 0,0 l/m² 5,7 km/h (2 Bft) W-SW 244 ° 0 min 0 W/m² 11,4 °C 13,5 °C 8,0 km/h (2 Bft)
12.10.2025 21:55 24,0 °C 13,5 °C 54 % 87 % 1026,5 hPa 0,0 l/m² 5,9 km/h (2 Bft) W 269 ° 0 min 0 W/m² 11,4 °C 13,5 °C 9,7 km/h (2 Bft)
12.10.2025 21:56 23,9 °C 13,5 °C 54 % 87 % 1026,5 hPa 0,0 l/m² 5,7 km/h (2 Bft) W-SW 251 ° 0 min 0 W/m² 11,4 °C 13,5 °C 6,4 km/h (2 Bft)
12.10.2025 21:57 23,9 °C 13,5 °C 54 % 87 % 1026,6 hPa 0,0 l/m² 4,5 km/h (1 Bft) W-SW 252 ° 0 min 0 W/m² 11,4 °C 13,5 °C 6,4 km/h (2 Bft)
12.10.2025 21:58 23,9 °C 13,5 °C 54 % 87 % 1026,6 hPa 0,0 l/m² 4,7 km/h (1 Bft) W 262 ° 0 min 0 W/m² 11,4 °C 13,5 °C 11,3 km/h (2 Bft)
12.10.2025 21:59 23,9 °C 13,4 °C 54 % 87 % 1026,5 hPa 0,0 l/m² 4,3 km/h (1 Bft) SW 227 ° 0 min 0 W/m² 11,3 °C 13,4 °C 8,0 km/h (2 Bft)
12.10.2025 22:00 23,9 °C 13,5 °C 54 % 87 % 1026,5 hPa 0,0 l/m² 8,0 km/h (2 Bft) W 261 ° 0 min 0 W/m² 11,4 °C 12,5 °C 11,3 km/h (2 Bft)
12.10.2025 22:01 23,9 °C 13,4 °C 54 % 87 % 1026,7 hPa 0,0 l/m² 6,2 km/h (2 Bft) W 261 ° 0 min 0 W/m² 11,3 °C 13,4 °C 12,9 km/h (3 Bft)
12.10.2025 22:02 23,9 °C 13,5 °C 54 % 87 % 1026,6 hPa 0,0 l/m² 5,2 km/h (1 Bft) W-SW 248 ° 0 min 0 W/m² 11,4 °C 13,5 °C 9,7 km/h (2 Bft)
12.10.2025 22:03 23,9 °C 13,5 °C 54 % 87 % 1026,5 hPa 0,0 l/m² 4,9 km/h (1 Bft) W-SW 249 ° 0 min 0 W/m² 11,4 °C 13,5 °C 11,3 km/h (2 Bft)
12.10.2025 22:04 23,9 °C 13,4 °C 54 % 87 % 1026,6 hPa 0,0 l/m² 2,7 km/h (1 Bft) W 277 ° 0 min 0 W/m² 11,3 °C 13,4 °C 6,4 km/h (2 Bft)
12.10.2025 22:05 23,9 °C 13,4 °C 54 % 87 % 1026,7 hPa 0,0 l/m² 3,6 km/h (1 Bft) W 262 ° 0 min 0 W/m² 11,3 °C 13,4 °C 11,3 km/h (2 Bft)
12.10.2025 22:06 23,9 °C 13,5 °C 54 % 87 % 1026,7 hPa 0,0 l/m² 2,3 km/h (1 Bft) W 273 ° 0 min 0 W/m² 11,4 °C 13,5 °C 6,4 km/h (2 Bft)
12.10.2025 22:07 23,9 °C 13,4 °C 54 % 87 % 1026,7 hPa 0,0 l/m² 1,3 km/h (1 Bft) W 275 ° 0 min 0 W/m² 11,3 °C 13,4 °C 3,2 km/h (1 Bft)
12.10.2025 22:08 23,9 °C 13,5 °C 54 % 87 % 1026,7 hPa 0,0 l/m² 4,5 km/h (1 Bft) W 274 ° 0 min 0 W/m² 11,4 °C 13,5 °C 9,7 km/h (2 Bft)
12.10.2025 22:09 23,9 °C 13,5 °C 54 % 87 % 1026,7 hPa 0,0 l/m² 4,5 km/h (1 Bft) W 273 ° 0 min 0 W/m² 11,4 °C 13,5 °C 6,4 km/h (2 Bft)
12.10.2025 22:10 23,9 °C 13,5 °C 54 % 87 % 1026,8 hPa 0,0 l/m² 3,6 km/h (1 Bft) W 266 ° 0 min 0 W/m² 11,4 °C 13,5 °C 6,4 km/h (2 Bft)
12.10.2025 22:11 23,9 °C 13,4 °C 54 % 87 % 1026,7 hPa 0,0 l/m² 3,7 km/h (1 Bft) W 265 ° 0 min 0 W/m² 11,3 °C 13,4 °C 9,7 km/h (2 Bft)
12.10.2025 22:12 23,9 °C 13,5 °C 54 % 87 % 1026,8 hPa 0,0 l/m² 3,5 km/h (1 Bft) W 265 ° 0 min 0 W/m² 11,4 °C 13,5 °C 6,4 km/h (2 Bft)
12.10.2025 22:13 23,8 °C 13,4 °C 54 % 87 % 1026,7 hPa 0,0 l/m² 2,7 km/h (1 Bft) W 274 ° 0 min 0 W/m² 11,3 °C 13,4 °C 4,8 km/h (1 Bft)
12.10.2025 22:14 23,9 °C 13,5 °C 54 % 87 % 1026,7 hPa 0,0 l/m² 3,0 km/h (1 Bft) W 260 ° 0 min 0 W/m² 11,4 °C 13,5 °C 6,4 km/h (2 Bft)
12.10.2025 22:15 23,9 °C 13,5 °C 54 % 87 % 1026,7 hPa 0,0 l/m² 3,0 km/h (1 Bft) W 270 ° 0 min 0 W/m² 11,4 °C 13,5 °C 4,8 km/h (1 Bft)
12.10.2025 22:16 23,9 °C 13,5 °C 54 % 87 % 1026,7 hPa 0,0 l/m² 4,6 km/h (1 Bft) W 270 ° 0 min 0 W/m² 11,4 °C 13,5 °C 9,7 km/h (2 Bft)
12.10.2025 22:17 23,8 °C 13,5 °C 54 % 87 % 1026,8 hPa 0,0 l/m² 3,8 km/h (1 Bft) W 267 ° 0 min 0 W/m² 11,4 °C 13,5 °C 6,4 km/h (2 Bft)
12.10.2025 22:18 23,8 °C 13,5 °C 54 % 88 % 1026,7 hPa 0,0 l/m² 2,3 km/h (1 Bft) W 279 ° 0 min 0 W/m² 11,6 °C 13,5 °C 4,8 km/h (1 Bft)
12.10.2025 22:19 23,9 °C 13,5 °C 54 % 88 % 1026,7 hPa 0,0 l/m² 1,1 km/h (1 Bft) W 264 ° 0 min 0 W/m² 11,6 °C 13,5 °C 4,8 km/h (1 Bft)
12.10.2025 22:20 23,9 °C 13,5 °C 55 % 87 % 1026,8 hPa 0,0 l/m² 3,2 km/h (1 Bft) W 259 ° 0 min 0 W/m² 11,4 °C 13,5 °C 6,4 km/h (2 Bft)
12.10.2025 22:21 23,9 °C 13,5 °C 55 % 87 % 1026,7 hPa 0,0 l/m² 2,7 km/h (1 Bft) W-SW 256 ° 0 min 0 W/m² 11,4 °C 13,5 °C 4,8 km/h (1 Bft)
12.10.2025 22:22 23,8 °C 13,6 °C 55 % 88 % 1026,8 hPa 0,0 l/m² 3,0 km/h (1 Bft) W 273 ° 0 min 0 W/m² 11,6 °C 13,6 °C 4,8 km/h (1 Bft)
12.10.2025 22:23 23,8 °C 13,5 °C 55 % 87 % 1026,7 hPa 0,0 l/m² 2,1 km/h (1 Bft) W 270 ° 0 min 0 W/m² 11,4 °C 13,5 °C 3,2 km/h (1 Bft)
12.10.2025 22:24 23,8 °C 13,6 °C 55 % 88 % 1026,7 hPa 0,0 l/m² 2,2 km/h (1 Bft) W-SW 257 ° 0 min 0 W/m² 11,6 °C 13,6 °C 3,2 km/h (1 Bft)
12.10.2025 22:25 23,8 °C 13,5 °C 55 % 87 % 1026,7 hPa 0,0 l/m² 3,2 km/h (1 Bft) W 267 ° 0 min 0 W/m² 11,4 °C 13,5 °C 4,8 km/h (1 Bft)
12.10.2025 22:26 23,8 °C 13,6 °C 55 % 88 % 1026,7 hPa 0,0 l/m² 4,4 km/h (1 Bft) W 277 ° 0 min 0 W/m² 11,6 °C 13,6 °C 9,7 km/h (2 Bft)
12.10.2025 22:27 23,8 °C 13,6 °C 55 % 88 % 1026,7 hPa 0,0 l/m² 3,4 km/h (1 Bft) W-NW 288 ° 0 min 0 W/m² 11,6 °C 13,6 °C 6,4 km/h (2 Bft)
12.10.2025 22:28 23,8 °C 13,6 °C 55 % 88 % 1026,6 hPa 0,0 l/m² 3,1 km/h (1 Bft) W 265 ° 0 min 0 W/m² 11,6 °C 13,6 °C 8,0 km/h (2 Bft)
12.10.2025 22:29 23,8 °C 13,5 °C 55 % 88 % 1026,7 hPa 0,0 l/m² 2,8 km/h (1 Bft) W-SW 257 ° 0 min 0 W/m² 11,6 °C 13,5 °C 4,8 km/h (1 Bft)
12.10.2025 22:30 23,8 °C 13,6 °C 55 % 88 % 1026,6 hPa 0,0 l/m² 1,4 km/h (1 Bft) W-SW 257 ° 0 min 0 W/m² 11,6 °C 13,6 °C 3,2 km/h (1 Bft)
12.10.2025 22:31 23,8 °C 13,6 °C 55 % 88 % 1026,6 hPa 0,0 l/m² 3,4 km/h (1 Bft) W-SW 253 ° 0 min 0 W/m² 11,6 °C 13,6 °C 6,4 km/h (2 Bft)
12.10.2025 22:32 23,8 °C 13,6 °C 55 % 88 % 1026,6 hPa 0,0 l/m² 2,8 km/h (1 Bft) W 275 ° 0 min 0 W/m² 11,6 °C 13,6 °C 4,8 km/h (1 Bft)
12.10.2025 22:33 23,8 °C 13,6 °C 55 % 88 % 1026,6 hPa 0,0 l/m² 3,6 km/h (1 Bft) W-SW 258 ° 0 min 0 W/m² 11,6 °C 13,6 °C 6,4 km/h (2 Bft)
12.10.2025 22:34 23,8 °C 13,6 °C 55 % 88 % 1026,7 hPa 0,0 l/m² 5,1 km/h (1 Bft) W-SW 255 ° 0 min 0 W/m² 11,6 °C 13,6 °C 9,7 km/h (2 Bft)
12.10.2025 22:35 23,8 °C 13,6 °C 55 % 88 % 1026,6 hPa 0,0 l/m² 3,3 km/h (1 Bft) W 266 ° 0 min 0 W/m² 11,6 °C 13,6 °C 6,4 km/h (2 Bft)
12.10.2025 22:36 23,8 °C 13,6 °C 55 % 88 % 1026,6 hPa 0,0 l/m² 6,2 km/h (2 Bft) W 281 ° 0 min 0 W/m² 11,6 °C 13,6 °C 11,3 km/h (2 Bft)
12.10.2025 22:37 23,8 °C 13,6 °C 55 % 88 % 1026,6 hPa 0,0 l/m² 5,8 km/h (2 Bft) W 275 ° 0 min 0 W/m² 11,6 °C 13,6 °C 9,7 km/h (2 Bft)
12.10.2025 22:38 23,8 °C 13,6 °C 55 % 88 % 1026,7 hPa 0,0 l/m² 3,6 km/h (1 Bft) W-NW 288 ° 0 min 0 W/m² 11,6 °C 13,6 °C 6,4 km/h (2 Bft)
12.10.2025 22:39 23,8 °C 13,6 °C 55 % 88 % 1026,6 hPa 0,0 l/m² 3,8 km/h (1 Bft) W-NW 286 ° 0 min 0 W/m² 11,6 °C 13,6 °C 4,8 km/h (1 Bft)
12.10.2025 22:40 23,8 °C 13,6 °C 55 % 88 % 1026,6 hPa 0,0 l/m² 3,9 km/h (1 Bft) W-NW 293 ° 0 min 0 W/m² 11,6 °C 13,6 °C 6,4 km/h (2 Bft)
12.10.2025 22:41 23,8 °C 13,6 °C 55 % 88 % 1026,6 hPa 0,0 l/m² 4,9 km/h (1 Bft) W-SW 254 ° 0 min 0 W/m² 11,6 °C 13,6 °C 8,0 km/h (2 Bft)
12.10.2025 22:42 23,8 °C 13,6 °C 55 % 88 % 1026,6 hPa 0,0 l/m² 2,9 km/h (1 Bft) W-NW 289 ° 0 min 0 W/m² 11,6 °C 13,6 °C 4,8 km/h (1 Bft)
12.10.2025 22:43 23,8 °C 13,6 °C 55 % 88 % 1026,6 hPa 0,0 l/m² 1,7 km/h (1 Bft) W 277 ° 0 min 0 W/m² 11,6 °C 13,6 °C 4,8 km/h (1 Bft)
12.10.2025 22:44 23,7 °C 13,6 °C 55 % 88 % 1026,6 hPa 0,0 l/m² 3,2 km/h (1 Bft) W 270 ° 0 min 0 W/m² 11,6 °C 13,6 °C 6,4 km/h (2 Bft)
12.10.2025 22:45 23,7 °C 13,6 °C 55 % 88 % 1026,6 hPa 0,0 l/m² 1,5 km/h (1 Bft) W 264 ° 0 min 0 W/m² 11,6 °C 13,6 °C 4,8 km/h (1 Bft)
12.10.2025 22:46 23,8 °C 13,6 °C 55 % 88 % 1026,6 hPa 0,0 l/m² 3,1 km/h (1 Bft) W 271 ° 0 min 0 W/m² 11,6 °C 13,6 °C 6,4 km/h (2 Bft)
12.10.2025 22:47 23,8 °C 13,6 °C 55 % 88 % 1026,6 hPa 0,0 l/m² 3,5 km/h (1 Bft) W 275 ° 0 min 0 W/m² 11,6 °C 13,6 °C 9,7 km/h (2 Bft)
12.10.2025 22:48 23,7 °C 13,6 °C 55 % 88 % 1026,6 hPa 0,0 l/m² 4,2 km/h (1 Bft) W 279 ° 0 min 0 W/m² 11,6 °C 13,6 °C 6,4 km/h (2 Bft)
12.10.2025 22:49 23,7 °C 13,6 °C 55 % 88 % 1026,6 hPa 0,0 l/m² 3,0 km/h (1 Bft) W-NW 283 ° 0 min 0 W/m² 11,6 °C 13,6 °C 4,8 km/h (1 Bft)
12.10.2025 22:50 23,7 °C 13,6 °C 55 % 88 % 1026,5 hPa 0,0 l/m² 3,3 km/h (1 Bft) W-NW 282 ° 0 min 0 W/m² 11,6 °C 13,6 °C 6,4 km/h (2 Bft)
12.10.2025 22:51 23,7 °C 13,6 °C 55 % 88 % 1026,5 hPa 0,0 l/m² 3,4 km/h (1 Bft) W-NW 302 ° 0 min 0 W/m² 11,6 °C 13,6 °C 9,7 km/h (2 Bft)
12.10.2025 22:52 23,7 °C 13,6 °C 55 % 88 % 1026,6 hPa 0,0 l/m² 1,5 km/h (1 Bft) W 271 ° 0 min 0 W/m² 11,6 °C 13,6 °C 4,8 km/h (1 Bft)
12.10.2025 22:53 23,7 °C 13,6 °C 55 % 88 % 1026,5 hPa 0,0 l/m² 3,9 km/h (1 Bft) W-NW 289 ° 0 min 0 W/m² 11,6 °C 13,6 °C 6,4 km/h (2 Bft)
12.10.2025 22:54 23,7 °C 13,6 °C 55 % 88 % 1026,5 hPa 0,0 l/m² 2,4 km/h (1 Bft) W 279 ° 0 min 0 W/m² 11,6 °C 13,6 °C 4,8 km/h (1 Bft)
12.10.2025 22:55 23,7 °C 13,6 °C 55 % 88 % 1026,5 hPa 0,0 l/m² 2,5 km/h (1 Bft) W-NW 283 ° 0 min 0 W/m² 11,6 °C 13,6 °C 4,8 km/h (1 Bft)
12.10.2025 22:56 23,7 °C 13,6 °C 55 % 88 % 1026,5 hPa 0,0 l/m² 2,6 km/h (1 Bft) W 271 ° 0 min 0 W/m² 11,6 °C 13,6 °C 4,8 km/h (1 Bft)
12.10.2025 22:57 23,7 °C 13,6 °C 55 % 88 % 1026,5 hPa 0,0 l/m² 1,8 km/h (1 Bft) W 273 ° 0 min 0 W/m² 11,6 °C 13,6 °C 4,8 km/h (1 Bft)
12.10.2025 22:58 23,7 °C 13,6 °C 55 % 88 % 1026,6 hPa 0,0 l/m² 1,7 km/h (1 Bft) W 272 ° 0 min 0 W/m² 11,6 °C 13,6 °C 3,2 km/h (1 Bft)
12.10.2025 22:59 23,7 °C 13,6 °C 55 % 88 % 1026,6 hPa 0,0 l/m² 3,1 km/h (1 Bft) W 280 ° 0 min 0 W/m² 11,6 °C 13,6 °C 4,8 km/h (1 Bft)
12.10.2025 23:00 23,7 °C 13,6 °C 55 % 88 % 1026,4 hPa 0,0 l/m² 3,4 km/h (1 Bft) W 259 ° 0 min 0 W/m² 11,6 °C 13,6 °C 4,8 km/h (1 Bft)
12.10.2025 23:01 23,7 °C 13,6 °C 55 % 88 % 1026,5 hPa 0,0 l/m² 1,7 km/h (1 Bft) W 261 ° 0 min 0 W/m² 11,6 °C 13,6 °C 3,2 km/h (1 Bft)
12.10.2025 23:03 23,7 °C 13,6 °C 55 % 88 % 1026,5 hPa 0,0 l/m² 1,7 km/h (1 Bft) W 262 ° 0 min 0 W/m² 11,6 °C 13,6 °C 6,4 km/h (2 Bft)
12.10.2025 23:04 23,7 °C 13,6 °C 55 % 88 % 1026,5 hPa 0,0 l/m² 1,5 km/h (1 Bft) W 270 ° 0 min 0 W/m² 11,6 °C 13,6 °C 3,2 km/h (1 Bft)
12.10.2025 23:05 23,7 °C 13,6 °C 55 % 88 % 1026,5 hPa 0,0 l/m² 1,0 km/h (0 Bft) W 271 ° 0 min 0 W/m² 11,6 °C 13,6 °C 3,2 km/h (1 Bft)
12.10.2025 23:07 23,7 °C 13,6 °C 55 % 88 % 1026,5 hPa 0,0 l/m² 2,8 km/h (1 Bft) W 265 ° 0 min 0 W/m² 11,6 °C 13,6 °C 6,4 km/h (2 Bft)
12.10.2025 23:08 23,7 °C 13,6 °C 55 % 88 % 1026,5 hPa 0,0 l/m² 2,0 km/h (1 Bft) W 271 ° 0 min 0 W/m² 11,6 °C 13,6 °C 6,4 km/h (2 Bft)
12.10.2025 23:10 23,7 °C 13,6 °C 55 % 88 % 1026,5 hPa 0,0 l/m² 2,1 km/h (1 Bft) W 259 ° 0 min 0 W/m² 11,6 °C 13,6 °C 4,8 km/h (1 Bft)
12.10.2025 23:11 23,7 °C 13,6 °C 55 % 88 % 1026,5 hPa 0,0 l/m² 2,8 km/h (1 Bft) W 269 ° 0 min 0 W/m² 11,6 °C 13,6 °C 4,8 km/h (1 Bft)
12.10.2025 23:13 23,7 °C 13,6 °C 55 % 88 % 1026,5 hPa 0,0 l/m² 1,8 km/h (1 Bft) W 275 ° 0 min 0 W/m² 11,6 °C 13,6 °C 4,8 km/h (1 Bft)
12.10.2025 23:14 23,7 °C 13,6 °C 55 % 88 % 1026,5 hPa 0,0 l/m² 1,5 km/h (1 Bft) W-SW 251 ° 0 min 0 W/m² 11,6 °C 13,6 °C 4,8 km/h (1 Bft)
12.10.2025 23:15 23,7 °C 13,6 °C 55 % 88 % 1026,5 hPa 0,0 l/m² 0,0 km/h (0 Bft) W 270 ° 0 min 0 W/m² 11,6 °C 13,6 °C 3,2 km/h (1 Bft)
12.10.2025 23:16 23,7 °C 13,6 °C 56 % 89 % 1026,5 hPa 0,0 l/m² 3,2 km/h (1 Bft) W 270 ° 0 min 0 W/m² 11,8 °C 13,6 °C 6,4 km/h (2 Bft)
12.10.2025 23:17 23,7 °C 13,6 °C 56 % 89 % 1026,5 hPa 0,0 l/m² 4,8 km/h (1 Bft) W 270 ° 0 min 0 W/m² 11,8 °C 13,6 °C 11,3 km/h (2 Bft)
12.10.2025 23:18 23,7 °C 13,6 °C 56 % 89 % 1026,5 hPa 0,0 l/m² 4,8 km/h (1 Bft) W 270 ° 0 min 0 W/m² 11,8 °C 13,6 °C 8,0 km/h (2 Bft)
12.10.2025 23:19 23,7 °C 13,6 °C 56 % 89 % 1026,5 hPa 0,0 l/m² 3,2 km/h (1 Bft) W 270 ° 0 min 0 W/m² 11,8 °C 13,6 °C 9,7 km/h (2 Bft)
12.10.2025 23:20 23,7 °C 13,6 °C 56 % 89 % 1026,5 hPa 0,0 l/m² 6,4 km/h (2 Bft) W 270 ° 0 min 0 W/m² 11,8 °C 13,6 °C 11,3 km/h (2 Bft)
12.10.2025 23:21 23,7 °C 13,6 °C 56 % 89 % 1026,4 hPa 0,0 l/m² 4,8 km/h (1 Bft) W 270 ° 0 min 0 W/m² 11,8 °C 13,6 °C 6,4 km/h (2 Bft)
12.10.2025 23:27 23,6 °C 13,6 °C 56 % 89 % 1026,4 hPa 0,0 l/m² 5,0 km/h (1 Bft) W-NW 286 ° 0 min 0 W/m² 11,8 °C 13,6 °C 11,3 km/h (2 Bft)
12.10.2025 23:29 23,6 °C 13,6 °C 56 % 89 % 1026,4 hPa 0,0 l/m² 3,4 km/h (1 Bft) W 273 ° 0 min 0 W/m² 11,8 °C 13,6 °C 8,0 km/h (2 Bft)
12.10.2025 23:31 23,6 °C 13,6 °C 56 % 89 % 1026,4 hPa 0,0 l/m² 5,0 km/h (1 Bft) W 273 ° 0 min 0 W/m² 11,8 °C 13,6 °C 9,7 km/h (2 Bft)
12.10.2025 23:32 23,6 °C 13,6 °C 56 % 89 % 1026,4 hPa 0,0 l/m² 5,1 km/h (1 Bft) W 265 ° 0 min 0 W/m² 11,8 °C 13,6 °C 9,7 km/h (2 Bft)
12.10.2025 23:33 23,6 °C 13,6 °C 56 % 89 % 1026,4 hPa 0,0 l/m² 4,5 km/h (1 Bft) W 267 ° 0 min 0 W/m² 11,8 °C 13,6 °C 9,7 km/h (2 Bft)
12.10.2025 23:36 23,6 °C 13,6 °C 56 % 89 % 1026,4 hPa 0,0 l/m² 4,3 km/h (1 Bft) W 270 ° 0 min 0 W/m² 11,8 °C 13,6 °C 12,9 km/h (3 Bft)
12.10.2025 23:38 23,6 °C 13,6 °C 56 % 89 % 1026,4 hPa 0,0 l/m² 3,7 km/h (1 Bft) W-SW 248 ° 0 min 0 W/m² 11,8 °C 13,6 °C 9,7 km/h (2 Bft)
12.10.2025 23:40 23,6 °C 13,6 °C 56 % 89 % 1026,4 hPa 0,0 l/m² 3,3 km/h (1 Bft) W 267 ° 0 min 0 W/m² 11,8 °C 13,6 °C 9,7 km/h (2 Bft)
12.10.2025 23:41 23,6 °C 13,6 °C 56 % 89 % 1026,4 hPa 0,0 l/m² 2,0 km/h (1 Bft) W 269 ° 0 min 0 W/m² 11,8 °C 13,6 °C 3,2 km/h (1 Bft)
12.10.2025 23:42 23,6 °C 13,6 °C 56 % 89 % 1026,4 hPa 0,0 l/m² 2,6 km/h (1 Bft) W-SW 257 ° 0 min 0 W/m² 11,8 °C 13,6 °C 9,7 km/h (2 Bft)
12.10.2025 23:43 23,6 °C 13,6 °C 56 % 89 % 1026,4 hPa 0,0 l/m² 1,8 km/h (1 Bft) W-SW 257 ° 0 min 0 W/m² 11,8 °C 13,6 °C 3,2 km/h (1 Bft)
12.10.2025 23:44 23,6 °C 13,6 °C 56 % 89 % 1026,4 hPa 0,0 l/m² 3,0 km/h (1 Bft) W 261 ° 0 min 0 W/m² 11,8 °C 13,6 °C 6,4 km/h (2 Bft)
12.10.2025 23:46 23,6 °C 13,6 °C 56 % 89 % 1026,4 hPa 0,0 l/m² 2,4 km/h (1 Bft) W 264 ° 0 min 0 W/m² 11,8 °C 13,6 °C 6,4 km/h (2 Bft)
12.10.2025 23:48 23,6 °C 13,6 °C 56 % 89 % 1026,4 hPa 0,0 l/m² 2,1 km/h (1 Bft) W-SW 253 ° 0 min 0 W/m² 11,8 °C 13,6 °C 6,4 km/h (2 Bft)
12.10.2025 23:50 23,6 °C 13,6 °C 56 % 89 % 1026,4 hPa 0,0 l/m² 3,4 km/h (1 Bft) W 261 ° 0 min 0 W/m² 11,8 °C 13,6 °C 6,4 km/h (2 Bft)
12.10.2025 23:51 23,6 °C 13,6 °C 56 % 89 % 1026,4 hPa 0,0 l/m² 4,1 km/h (1 Bft) W-NW 288 ° 0 min 0 W/m² 11,8 °C 13,6 °C 6,4 km/h (2 Bft)
12.10.2025 23:52 23,6 °C 13,6 °C 56 % 89 % 1026,4 hPa 0,0 l/m² 3,8 km/h (1 Bft) W 273 ° 0 min 0 W/m² 11,8 °C 13,6 °C 6,4 km/h (2 Bft)
12.10.2025 23:55 23,6 °C 13,6 °C 56 % 89 % 1026,4 hPa 0,0 l/m² 3,9 km/h (1 Bft) W 266 ° 0 min 0 W/m² 11,8 °C 13,6 °C 12,9 km/h (3 Bft)
12.10.2025 23:56 23,6 °C 13,6 °C 56 % 89 % 1026,3 hPa 0,0 l/m² 4,0 km/h (1 Bft) W 260 ° 0 min 0 W/m² 11,8 °C 13,6 °C 4,8 km/h (1 Bft)
12.10.2025 23:57 23,6 °C 13,6 °C 56 % 89 % 1026,3 hPa 0,0 l/m² 5,2 km/h (1 Bft) W-NW 283 ° 0 min 0 W/m² 11,8 °C 13,6 °C 6,4 km/h (2 Bft)
12.10.2025 23:59 23,5 °C 13,6 °C 56 % 89 % 1026,3 hPa 0,0 l/m² 4,6 km/h (1 Bft) W 276 ° 0 min 0 W/m² 11,8 °C 13,6 °C 8,0 km/h (2 Bft)
_ Min-Zeit 10:17 08:17 16:33 14:53 17:24 - 23:15 - - - - 11:39 09:03 19:00
Minimum _ 20,9 °C 12,2 °C 42 % 73 % 1026,1 hPa - 0,0 km/h (0 Bft) - - - - 10,0 °C 9,2 °C 0,0 km/h (0 Bft)
_ Max-Zeit 16:41 14:59 09:13 23:59 00:04 23:59 11:36 - - 12:07 10:36 23:59 14:45 13:31
Maximum _ 30,2 °C 15,4 °C 65 % 89 % 1030,8 hPa 0,0 l/m² 17,1 km/h
W-SW (3 Bft)
- - 6 min 508 W/m² 11,8 °C 15,4 °C 24,1 km/h
W (4 Bft)
Durchschnitt _ 23,6 °C 13,7 °C 57 % 82 % 1028,0 hPa #0,0 l/m² 5,1 km/h (1 Bft) W - #7:24 h 48 W/m² 10,7 °C 13,2 °C 9,2 km/h (2 Bft)
© 2009 Mathias Hoßbach